Provisional Data: West Branch Octoraro Creek Near White Rock, PA


Please select a monitoring station.
Please select start date.
Please select start date.

Toggle Unit: C/F Toggle Unit: C/F
Sample Time Temperature (C) Temperature (F) Specific Conductivity (mS/cm) pH   Turbidity (NTU+) DO (mg/L)
12/24/2022 7:00:00 PM -0.11 31.802 0.272 14.52 8.85 14.3
12/24/2022 7:15:00 PM -0.11 31.802 0.272 14.5 8.52 14.3
12/24/2022 7:30:00 PM -0.11 31.802 0.272 14.52 8.56 14.31
12/24/2022 7:45:00 PM -0.11 31.802 0.273 14.51 8.34 14.31
12/24/2022 8:00:00 PM -0.11 31.802 0.273 14.5 8.27 14.31
12/24/2022 8:15:00 PM -0.11 31.802 0.273 14.49 9.19 14.32
12/24/2022 8:30:00 PM -0.11 31.802 0.274 14.49 7.88 14.31
12/24/2022 8:45:00 PM -0.11 31.802 0.274 14.47 8.05 14.31
12/24/2022 9:00:00 PM -0.11 31.802 0.274 14.46 8.26 14.32
12/24/2022 9:15:00 PM -0.11 31.802 0.275 14.46 7.92 14.31
12/24/2022 9:30:00 PM -0.11 31.802 0.275 14.41 7.64 14.32
12/24/2022 9:45:00 PM -0.11 31.802 0.275 14.44 7.69 14.31
12/24/2022 10:00:00 PM -0.11 31.802 0.276 17.38 7.7 14.32
12/24/2022 10:15:00 PM -0.11 31.802 0.276 17.45 8.02 14.32
12/24/2022 10:30:00 PM -0.11 31.802 0.276 17.5 7.7 14.32
12/24/2022 10:45:00 PM -0.11 31.802 0.277 17.53 7.53 14.32
12/24/2022 11:00:00 PM -0.11 31.802 0.277 17.55 7.38 14.31
12/24/2022 11:15:00 PM -0.11 31.802 0.277 17.57 7.3 14.31
12/24/2022 11:30:00 PM -0.11 31.802 0.277 17.59 7.65 14.31
12/24/2022 11:45:00 PM -0.11 31.802 0.277 17.62 7.69 14.3
12/25/2022 12:00:00 AM -0.11 31.802 0.277 17.63 7.42 14.3
12/25/2022 12:15:00 AM -0.11 31.802 0.277 17.64 7.03 14.29
12/25/2022 12:30:00 AM -0.11 31.802 0.278 17.65 7.02 14.29
12/25/2022 12:45:00 AM -0.11 31.802 0.278 17.66 6.83 14.29
12/25/2022 1:00:00 AM -0.11 31.802 0.278 17.66 6.83 14.28
12/25/2022 1:15:00 AM -0.11 31.802 0.278 17.67 7.06 14.28
12/25/2022 1:30:00 AM -0.11 31.802 0.278 17.68 6.63 14.29
12/25/2022 1:45:00 AM -0.11 31.802 0.278 17.68 7.27 14.28
12/25/2022 2:00:00 AM -0.11 31.802 0.279 17.69 6.9 14.28
12/25/2022 2:15:00 AM -0.11 31.802 0.279 17.69 6.34 14.28
12/25/2022 2:30:00 AM -0.11 31.802 0.279 17.69 6.09 14.28
12/25/2022 2:45:00 AM -0.11 31.802 0.279 17.7 5.85 14.29
12/25/2022 3:00:00 AM -0.11 31.802 0.28 17.7 6.04 14.29
12/25/2022 3:15:00 AM -0.11 31.802 0.28 17.73 5.88 14.29
12/25/2022 3:30:00 AM -0.11 31.802 0.28 17.73 5.87 14.29
12/25/2022 3:45:00 AM -0.11 31.802 0.28 17.74 5.9 14.29
12/25/2022 4:00:00 AM -0.11 31.802 0.28 17.74 5.6 14.29
12/25/2022 4:15:00 AM -0.11 31.802 0.28 17.74 5.63 14.29
12/25/2022 4:30:00 AM -0.11 31.802 0.281 17.75 5.5 14.29
12/25/2022 4:45:00 AM -0.11 31.802 0.281 17.75 5.73 14.29
12/25/2022 5:00:00 AM -0.11 31.802 0.281 17.77 5.34 14.29
12/25/2022 5:15:00 AM -0.11 31.802 0.281 17.77 5.78 14.29
12/25/2022 5:30:00 AM -0.11 31.802 0.281 17.77 5.52 14.29
12/25/2022 5:45:00 AM -0.11 31.802 0.281 17.77 5.61 14.29
12/25/2022 6:00:00 AM -0.11 31.802 0.282 17.78 5.5 14.29
12/25/2022 6:15:00 AM -0.11 31.802 0.282 17.77 5.39 14.29
12/25/2022 6:30:00 AM -0.11 31.802 0.282 17.78 5.39 14.29
12/25/2022 6:45:00 AM -0.11 31.802 0.282 17.78 5.19 14.29
12/25/2022 7:00:00 AM -0.11 31.802 0.282 17.78 5.2 14.3
12/25/2022 7:15:00 AM -0.11 31.802 0.282 17.78 5.11 14.29
12/25/2022 7:30:00 AM -0.11 31.802 0.283 17.78 5.22 14.29
12/25/2022 7:45:00 AM -0.11 31.802 0.283 17.78 5.16 14.29
12/25/2022 8:00:00 AM -0.11 31.802 0.283 17.78 5.01 14.29
12/25/2022 8:15:00 AM -0.11 31.802 0.284 17.78 5.08 14.3
12/25/2022 8:30:00 AM -0.11 31.802 0.284 17.79 5.07 14.3
12/25/2022 8:45:00 AM -0.11 31.802 0.284 17.79 5.3 14.32
12/25/2022 9:00:00 AM -0.11 31.802 0.284 17.79 5.62 14.32
12/25/2022 9:15:00 AM -0.11 31.802 0.284 17.8 6.45 14.33
12/25/2022 9:30:00 AM -0.11 31.802 0.284 17.8 6.27 14.34
12/25/2022 9:45:00 AM -0.11 31.802 0.284 17.8 6.45 14.34
12/25/2022 10:00:00 AM -0.09 31.838 0.284 17.8 6.47 14.34
12/25/2022 10:15:00 AM -0.09 31.838 0.283 17.8 7.6 14.32
12/25/2022 10:30:00 AM -0.08 31.856 0.283 17.81 7.16 14.34
12/25/2022 10:45:00 AM -0.09 31.838 0.283 17.81 8.09 14.35
12/25/2022 11:00:00 AM -0.1 31.82 0.283 17.81 8.33 14.35
12/25/2022 11:15:00 AM -0.08 31.856 0.282 17.81 8.56 14.34
12/25/2022 11:30:00 AM -0.09 31.838 0.282 17.82 9.03 14.34
12/25/2022 11:45:00 AM -0.09 31.838 0.282 17.82 7.92 14.33
12/25/2022 12:00:00 PM -0.09 31.838 0.281 17.82 7.6 14.32
12/25/2022 12:15:00 PM -0.1 31.82 0.281 17.82 8.52 14.3
12/25/2022 12:30:00 PM -0.09 31.838 0.28 17.81 7.9 14.27
12/25/2022 12:45:00 PM -0.07 31.874 0.28 17.82 8.35 14.26
12/25/2022 1:00:00 PM -0.07 31.874 0.279 17.81 9.54 14.25
12/25/2022 1:15:00 PM -0.08 31.856 0.279 17.82 10.37 14.24
12/25/2022 1:30:00 PM -0.1 31.82 0.278 17.83 9.89 14.22
12/25/2022 1:45:00 PM -0.08 31.856 0.278 17.83 10.11 14.2
12/25/2022 2:00:00 PM -0.05 31.91 0.277 17.82 13.33 14.2
12/25/2022 2:15:00 PM 0 32 0.277 17.82 10.38 14.19
12/25/2022 2:30:00 PM 0.06 32.108 0.278 17.82 9.94 14.19
12/25/2022 2:45:00 PM 0.1 32.18 0.278 17.82 9.06 14.19
12/25/2022 3:00:00 PM 0.15 32.27 0.278 17.82 8.56 14.19
12/25/2022 3:15:00 PM 0.19 32.342 0.278 17.82 7.84 14.18
12/25/2022 3:30:00 PM 0.22 32.396 0.278 17.82 7.22 14.17
12/25/2022 3:45:00 PM 0.24 32.432 0.278 17.81 6.93 14.17
12/25/2022 4:00:00 PM 0.26 32.468 0.278 17.82 6.84 14.16
12/25/2022 4:15:00 PM 0.26 32.468 0.278 17.83 6.36 14.17
12/25/2022 4:30:00 PM 0.25 32.45 0.278 17.83 6.36 14.17
12/25/2022 4:45:00 PM 0.23 32.414 0.278 17.84 6.33 14.17
12/25/2022 5:00:00 PM 0.21 32.378 0.278 17.84 5.98 14.17
12/25/2022 5:15:00 PM 0.18 32.324 0.279 17.84 5.91 14.18
12/25/2022 5:30:00 PM 0.15 32.27 0.279 17.85 6.09 14.18
12/25/2022 5:45:00 PM 0.11 32.198 0.279 17.86 6.27 14.19
12/25/2022 6:00:00 PM 0.08 32.144 0.279 17.86 6.03 14.19
12/25/2022 6:15:00 PM 0.06 32.108 0.28 17.86 5.87 14.19
12/25/2022 6:30:00 PM 0.03 32.054 0.28 17.87 5.65 14.2
12/25/2022 6:45:00 PM 0.01 32.018 0.28 17.87 5.57 14.21
12/25/2022 7:00:00 PM -0.01 31.982 0.281 17.88 5.48 14.21
12/25/2022 7:15:00 PM -0.03 31.946 0.281 17.88 5.63 14.21
12/25/2022 7:30:00 PM -0.04 31.928 0.281 17.88 5.28 14.22
12/25/2022 7:45:00 PM -0.06 31.892 0.281 17.89 5.54 14.22
12/25/2022 8:00:00 PM -0.08 31.856 0.281 17.89 5.39 14.24
12/25/2022 8:15:00 PM -0.09 31.838 0.282 17.89 5.39 14.24
12/25/2022 8:30:00 PM -0.09 31.838 0.282 17.89 5.45 14.24
12/25/2022 8:45:00 PM -0.11 31.802 0.282 17.89 5.17 14.25
12/25/2022 9:00:00 PM -0.12 31.784 0.282 17.9 5.23 14.26
12/25/2022 9:15:00 PM -0.12 31.784 0.282 17.9 5.18 14.27
12/25/2022 9:30:00 PM -0.13 31.766 0.282 17.91 5.15 14.27
12/25/2022 9:45:00 PM -0.13 31.766 0.282 17.91 5.29 14.28
12/25/2022 10:00:00 PM -0.13 31.766 0.282 17.91 5.28 14.29
12/25/2022 10:15:00 PM -0.12 31.784 0.283 17.91 5.23 14.3
12/25/2022 10:30:00 PM -0.12 31.784 0.283 17.91 5.31 14.31
12/25/2022 10:45:00 PM -0.12 31.784 0.283 17.92 5.01 14.32
12/25/2022 11:00:00 PM -0.11 31.802 0.283 17.92 5.5 14.32
12/25/2022 11:15:00 PM -0.11 31.802 0.283 17.92 5.19 14.33
12/25/2022 11:30:00 PM -0.11 31.802 0.283 17.92 5.46 14.33
12/25/2022 11:45:00 PM -0.11 31.802 0.283 17.93 4.95 14.34
12/26/2022 12:00:00 AM -0.11 31.802 0.283 17.93 5.29 14.35
12/26/2022 12:15:00 AM -0.11 31.802 0.283 17.93 5.71 14.36
12/26/2022 12:30:00 AM -0.11 31.802 0.283 17.93 5.48 14.36
12/26/2022 12:45:00 AM -0.11 31.802 0.284 17.93 5.33 14.37
12/26/2022 1:00:00 AM -0.11 31.802 0.284 17.94 5.2 14.37
12/26/2022 1:15:00 AM -0.11 31.802 0.284 17.94 4.9 14.38
12/26/2022 1:30:00 AM -0.11 31.802 0.284 17.93 4.95 14.38
12/26/2022 1:45:00 AM -0.11 31.802 0.284 17.94 4.7 14.39
12/26/2022 2:00:00 AM -0.11 31.802 0.284 17.94 4.78 14.4
12/26/2022 2:15:00 AM -0.11 31.802 0.285 17.94 4.65 14.4
12/26/2022 2:30:00 AM -0.11 31.802 0.285 17.94 4.45 14.41
12/26/2022 2:45:00 AM -0.11 31.802 0.285 17.95 4.39 14.42
12/26/2022 3:00:00 AM -0.11 31.802 0.285 17.95 4.54 14.42
12/26/2022 3:15:00 AM -0.11 31.802 0.285 17.95 4.45 14.42
12/26/2022 3:30:00 AM -0.11 31.802 0.286 17.95 4.39 14.43
12/26/2022 3:45:00 AM -0.11 31.802 0.286 17.95 4.37 14.44
12/26/2022 4:00:00 AM -0.11 31.802 0.286 17.95 4.14 14.44
12/26/2022 4:15:00 AM -0.11 31.802 0.287 17.95 4.15 14.44
12/26/2022 4:30:00 AM -0.11 31.802 0.287 17.95 4.14 14.45
12/26/2022 4:45:00 AM -0.11 31.802 0.287 17.95 4.16 14.46
12/26/2022 5:00:00 AM -0.11 31.802 0.287 17.95 4.12 14.46
12/26/2022 5:15:00 AM -0.11 31.802 0.287 17.95 4.32 14.47
12/26/2022 5:30:00 AM -0.11 31.802 0.288 17.96 4.21 14.47
12/26/2022 5:45:00 AM -0.11 31.802 0.288 17.96 4.12 14.47
12/26/2022 6:00:00 AM -0.11 31.802 0.288 17.96 4.01 14.47
12/26/2022 6:15:00 AM -0.11 31.802 0.288 17.96 3.93 14.47
12/26/2022 6:30:00 AM -0.11 31.802 0.288 17.96 4 14.48
12/26/2022 6:45:00 AM -0.11 31.802 0.289 17.96 3.98 14.49
12/26/2022 7:00:00 AM -0.11 31.802 0.289 17.96 3.93 14.49
12/26/2022 7:15:00 AM -0.11 31.802 0.289 17.96 3.81 14.49
12/26/2022 7:30:00 AM -0.11 31.802 0.289 17.96 3.64 14.49
12/26/2022 7:45:00 AM -0.11 31.802 0.289 17.96 3.64 14.48
12/26/2022 8:00:00 AM -0.11 31.802 0.29 17.96 3.75 14.49
12/26/2022 8:15:00 AM -0.11 31.802 0.289 17.96 3.81 14.49
12/26/2022 8:30:00 AM -0.11 31.802 0.29 17.96 3.8 14.51
12/26/2022 8:45:00 AM -0.11 31.802 0.29 17.96 4.82 14.52
12/26/2022 9:00:00 AM -0.11 31.802 0.29 17.96 3.79 14.52
12/26/2022 9:15:00 AM -0.11 31.802 0.29 17.96 3.69 14.53
12/26/2022 9:30:00 AM -0.11 31.802 0.29 17.96 3.83 14.53
12/26/2022 9:45:00 AM -0.11 31.802 0.289 17.96 3.64 14.53
12/26/2022 10:00:00 AM -0.11 31.802 0.289 17.96 3.53 14.54
12/26/2022 10:15:00 AM -0.11 31.802 0.289 17.96 3.53 14.53
12/26/2022 10:30:00 AM -0.11 31.802 0.289 17.96 3.53 14.53
12/26/2022 10:45:00 AM -0.11 31.802 0.289 17.96 3.66 14.47
12/26/2022 11:00:00 AM -0.11 31.802 0.288 17.96 3.85 14.5
12/26/2022 11:15:00 AM -0.11 31.802 0.288 17.96 4.02 14.46
12/26/2022 11:30:00 AM -0.11 31.802 0.287 17.96 4.01 14.46
12/26/2022 11:45:00 AM -0.11 31.802 0.287 17.96 4.18 14.46
12/26/2022 12:00:00 PM -0.11 31.802 0.286 17.96 4.2 14.48
12/26/2022 12:15:00 PM -0.11 31.802 0.285 17.96 4.5 14.47
12/26/2022 12:30:00 PM -0.11 31.802 0.284 17.96 4.47 14.45
12/26/2022 12:45:00 PM -0.11 31.802 0.284 17.96 5.24 14.42
12/26/2022 1:00:00 PM -0.11 31.802 0.283 17.96 4.51 14.39
12/26/2022 1:15:00 PM -0.11 31.802 0.283 17.96 5.11 14.35
12/26/2022 1:30:00 PM -0.11 31.802 0.282 17.96 4.71 14.3
12/26/2022 1:45:00 PM 0 32 0.282 17.95 7.11 14.21
12/26/2022 2:00:00 PM -0.04 31.928 0.281 17.96 5.47 14.3
12/26/2022 2:15:00 PM 0.6 33.08 0.282 17.93 5.56 14.26
12/26/2022 2:30:00 PM 0.67 33.206 0.281 17.93 5.42 14.25
12/26/2022 2:45:00 PM 0.72 33.296 0.281 17.93 5.61 14.25
12/26/2022 3:00:00 PM 0.74 33.332 0.281 17.93 5.32 14.24
12/26/2022 3:15:00 PM 0.74 33.332 0.281 17.93 5.37 14.24
12/26/2022 3:30:00 PM 0.73 33.314 0.281 17.93 5.51 14.24
12/26/2022 3:45:00 PM 0.71 33.278 0.281 17.93 6.01 14.23
12/26/2022 4:00:00 PM 0.68 33.224 0.281 17.93 5.23 14.23
12/26/2022 4:15:00 PM 0.65 33.17 0.281 17.93 4.93 14.24
12/26/2022 4:30:00 PM 0.62 33.116 0.281 17.93 4.88 14.23
12/26/2022 4:45:00 PM 0.59 33.062 0.281 17.93 5.01 14.23
12/26/2022 5:00:00 PM 0.57 33.026 0.281 17.93 5.27 14.22
12/26/2022 5:15:00 PM 0.54 32.972 0.281 17.93 5.12 14.22
12/26/2022 5:30:00 PM 0.53 32.954 0.281 17.93 5.48 14.21
12/26/2022 5:45:00 PM 0.51 32.918 0.281 17.93 5.34 14.21
12/26/2022 6:00:00 PM 0.5 32.9 0.281 17.94 5.55 14.21
12/26/2022 6:15:00 PM 0.48 32.864 0.281 17.94 5.19 14.2
12/26/2022 6:30:00 PM 0.48 32.864 0.281 17.94 5.73 14.19
12/26/2022 6:45:00 PM 0.48 32.864 0.281 17.94 5.3 14.19
12/26/2022 7:00:00 PM 0.46 32.828 0.281 17.94 5.07 14.18
12/26/2022 7:15:00 PM 0.44 32.792 0.281 17.94 4.96 14.18
12/26/2022 7:30:00 PM 0.42 32.756 0.281 17.94 4.63 14.18
12/26/2022 7:45:00 PM 0.41 32.738 0.281 17.94 4.71 14.18
12/26/2022 8:00:00 PM 0.41 32.738 0.281 17.94 4.73 14.19
12/26/2022 8:15:00 PM 0.39 32.702 0.281 17.94 4.74 14.19
12/26/2022 8:30:00 PM 0.4 32.72 0.281 17.94 4.63 14.19
12/26/2022 8:45:00 PM 0.4 32.72 0.281 17.94 4.89 14.19
12/26/2022 9:00:00 PM 0.4 32.72 0.281 17.94 4.84 14.19
12/26/2022 9:15:00 PM 0.41 32.738 0.281 17.94 4.82 14.19
12/26/2022 9:30:00 PM 0.42 32.756 0.281 17.94 4.76 14.18
12/26/2022 9:45:00 PM 0.43 32.774 0.281 17.94 4.81 14.18
12/26/2022 10:00:00 PM 0.44 32.792 0.281 17.94 4.98 14.18
12/26/2022 10:15:00 PM 0.45 32.81 0.281 17.94 4.79 14.18
12/26/2022 10:30:00 PM 0.46 32.828 0.281 17.94 4.72 14.17
12/26/2022 10:45:00 PM 0.48 32.864 0.281 17.94 4.68 14.17
12/26/2022 11:00:00 PM 0.49 32.882 0.28 17.94 4.69 14.16
12/26/2022 11:15:00 PM 0.5 32.9 0.28 17.93 4.75 14.16
12/26/2022 11:30:00 PM 0.52 32.936 0.28 17.93 4.63 14.15
12/26/2022 11:45:00 PM 0.53 32.954 0.28 17.93 5.05 14.15
12/27/2022 12:00:00 AM 0.54 32.972 0.28 17.93 5.02 14.14
12/27/2022 12:15:00 AM 0.55 32.99 0.28 17.93 4.71 14.14
12/27/2022 12:30:00 AM 0.56 33.008 0.28 17.93 4.79 14.14
12/27/2022 12:45:00 AM 0.56 33.008 0.279 17.93 4.77 14.13
12/27/2022 1:00:00 AM 0.57 33.026 0.279 17.93 4.66 14.13
12/27/2022 1:15:00 AM 0.57 33.026 0.279 17.93 4.6 14.13
12/27/2022 1:30:00 AM 0.58 33.044 0.279 17.93 4.53 14.13
12/27/2022 1:45:00 AM 0.58 33.044 0.279 17.93 4.74 14.12
12/27/2022 2:00:00 AM 0.59 33.062 0.279 17.93 4.63 14.12
12/27/2022 2:15:00 AM 0.6 33.08 0.279 17.93 4.71 14.12
12/27/2022 2:30:00 AM 0.6 33.08 0.279 17.93 4.76 14.12
12/27/2022 2:45:00 AM 0.61 33.098 0.279 17.93 4.67 14.12
12/27/2022 3:00:00 AM 0.62 33.116 0.279 17.93 4.57 14.12
12/27/2022 3:15:00 AM 0.62 33.116 0.279 17.93 4.56 14.12
12/27/2022 3:30:00 AM 0.63 33.134 0.279 17.93 4.48 14.12
12/27/2022 3:45:00 AM 0.64 33.152 0.279 17.93 4.4 14.12
12/27/2022 4:00:00 AM 0.64 33.152 0.279 17.93 4.48 14.11
12/27/2022 4:15:00 AM 0.65 33.17 0.279 17.93 4.64 14.12
12/27/2022 4:30:00 AM 0.65 33.17 0.279 17.93 4.58 14.11
12/27/2022 4:45:00 AM 0.66 33.188 0.279 17.93 4.42 14.11
12/27/2022 5:00:00 AM 0.66 33.188 0.279 17.93 4.3 14.11
12/27/2022 5:15:00 AM 0.67 33.206 0.279 17.93 4.43 14.11
12/27/2022 5:30:00 AM 0.67 33.206 0.279 17.93 4.31 14.11
12/27/2022 5:45:00 AM 0.68 33.224 0.279 17.93 4.35 14.11
12/27/2022 6:00:00 AM 0.69 33.242 0.279 17.93 4.38 14.11
12/27/2022 6:15:00 AM 0.69 33.242 0.279 17.93 4.29 14.11
12/27/2022 6:30:00 AM 0.7 33.26 0.279 17.93 4.3 14.11
12/27/2022 6:45:00 AM 0.71 33.278 0.279 17.93 4.27 14.1
12/27/2022 7:00:00 AM 0.71 33.278 0.279 17.93 4.25 14.1
12/27/2022 7:15:00 AM 0.71 33.278 0.279 17.93 4.31 14.1
12/27/2022 7:30:00 AM 0.71 33.278 0.279 17.93 4.24 14.1
12/27/2022 7:45:00 AM 0.72 33.296 0.279 17.93 4.26 14.11
12/27/2022 8:00:00 AM 0.73 33.314 0.279 17.93 4.28 14.12
12/27/2022 8:15:00 AM 0.75 33.35 0.279 17.93 4.23 14.13
12/27/2022 8:30:00 AM 0.77 33.386 0.279 17.92 4.3 14.14
12/27/2022 8:45:00 AM 0.81 33.458 0.279 17.92 4.25 14.14
12/27/2022 9:00:00 AM 0.84 33.512 0.279 17.92 4.19 14.15
12/27/2022 9:15:00 AM 0.9 33.62 0.279 17.92 4.23 14.16
12/27/2022 9:30:00 AM 0.95 33.71 0.279 17.92 4.31 14.16
12/27/2022 9:45:00 AM 1.01 33.818 0.279 17.91 4.29 14.16
12/27/2022 10:00:00 AM 1.07 33.926 0.279 17.91 4.23 14.16
12/27/2022 10:15:00 AM 1.15 34.07 0.278 17.91 4.21 14.15
12/27/2022 10:30:00 AM 1.23 34.214 0.278 17.91 4.23 14.14
12/27/2022 10:45:00 AM 1.31 34.358 0.278 17.9 4.26 14.13
12/27/2022 11:00:00 AM 1.4 34.52 0.278 17.9 4.4 14.12
12/27/2022 11:15:00 AM 1.49 34.682 0.278 17.9 4.37 14.11
12/27/2022 11:30:00 AM 1.59 34.862 0.278 17.89 4.19 14.09
12/27/2022 11:45:00 AM 1.68 35.024 0.278 17.89 4.06 14.06
12/27/2022 12:00:00 PM 1.78 35.204 0.278 17.88 4.17 14.03
12/27/2022 12:15:00 PM 1.87 35.366 0.278 17.88 4.05 14
12/27/2022 12:30:00 PM 1.98 35.564 0.277 17.88 4.18 13.97
12/27/2022 12:45:00 PM 2.15 35.87 0.277 17.87 4.45 13.94
12/27/2022 1:00:00 PM 2.22 35.996 0.277 17.87 4.29 13.9
12/27/2022 1:15:00 PM 2.36 36.248 0.277 17.86 4.42 13.85
12/27/2022 1:30:00 PM 2.45 36.41 0.277 17.86 4.25 13.83
12/27/2022 1:45:00 PM 2.5 36.5 0.277 17.86 4.44 13.79
12/27/2022 2:00:00 PM 2.58 36.644 0.277 17.85 4.15 13.76
12/27/2022 2:15:00 PM 2.67 36.806 0.276 17.85 4.26 13.73
12/27/2022 2:30:00 PM 2.75 36.95 0.276 17.85 4.3 13.69
12/27/2022 2:45:00 PM 2.82 37.076 0.276 17.84 4.49 13.65
12/27/2022 3:00:00 PM 2.86 37.148 0.276 17.84 4.46 13.61
12/27/2022 3:15:00 PM 2.91 37.238 0.276 17.84 4.38 13.58
12/27/2022 3:30:00 PM 2.94 37.292 0.276 17.84 4.52 13.55
12/27/2022 3:45:00 PM 2.96 37.328 0.276 17.84 4.5 13.53
12/27/2022 4:00:00 PM 2.96 37.328 0.276 17.84 4.54 13.51
12/27/2022 4:15:00 PM 2.97 37.346 0.276 17.84 4.51 13.48
12/27/2022 4:30:00 PM 2.98 37.364 0.276 17.84 4.41 13.45
12/27/2022 4:45:00 PM 2.97 37.346 0.276 17.84 4.66 13.43
12/27/2022 5:00:00 PM 2.96 37.328 0.276 17.84 4.69 13.41
12/27/2022 5:15:00 PM 2.93 37.274 0.276 17.84 4.81 13.39
12/27/2022 5:30:00 PM 2.9 37.22 0.276 17.84 4.77 13.38
12/27/2022 5:45:00 PM 2.87 37.166 0.276 17.84 4.69 13.37
12/27/2022 6:00:00 PM 2.85 37.13 0.277 17.84 4.63 13.36
12/27/2022 6:15:00 PM 2.83 37.094 0.277 17.84 4.58 13.35
12/27/2022 6:30:00 PM 2.81 37.058 0.277 17.84 4.99 13.35
12/27/2022 6:45:00 PM 2.78 37.004 0.277 17.84 4.71 13.35
12/27/2022 7:00:00 PM 2.76 36.968 0.277 17.85 4.97 13.35
12/27/2022 7:15:00 PM 2.73 36.914 0.277 17.85 5.17 13.35
12/27/2022 7:30:00 PM 2.71 36.878 0.277 17.85 5.26 13.35
12/27/2022 7:45:00 PM 2.7 36.86 0.277 17.85 5.25 13.35
12/27/2022 8:00:00 PM 2.7 36.86 0.277 17.85 5.24 13.35
12/27/2022 8:15:00 PM 2.7 36.86 0.278 17.85 5.04 13.34
12/27/2022 8:30:00 PM 2.7 36.86 0.278 17.85 4.97 13.33
12/27/2022 8:45:00 PM 2.7 36.86 0.278 17.85 5.38 13.33
12/27/2022 9:00:00 PM 2.71 36.878 0.278 17.85 4.83 13.32
12/27/2022 9:15:00 PM 2.71 36.878 0.278 17.85 4.92 13.32
12/27/2022 9:30:00 PM 2.7 36.86 0.278 17.85 5.01 13.32
12/27/2022 9:45:00 PM 2.69 36.842 0.278 17.85 4.85 13.32
12/27/2022 10:00:00 PM 2.67 36.806 0.278 17.85 4.71 13.32
12/27/2022 10:15:00 PM 2.65 36.77 0.278 17.85 4.75 13.32
12/27/2022 10:30:00 PM 2.62 36.716 0.278 17.85 4.73 13.32
12/27/2022 10:45:00 PM 2.59 36.662 0.278 17.85 4.79 13.32
12/27/2022 11:00:00 PM 2.56 36.608 0.278 17.85 4.89 13.32
12/27/2022 11:15:00 PM 2.53 36.554 0.278 17.85 5.1 13.33
12/27/2022 11:30:00 PM 2.5 36.5 0.279 17.86 5.01 13.34
12/27/2022 11:45:00 PM 2.47 36.446 0.279 17.86 5.11 13.35
12/28/2022 12:00:00 AM 2.43 36.374 0.279 17.86 5.05 13.36
12/28/2022 12:15:00 AM 2.39 36.302 0.279 17.86 4.97 13.37
12/28/2022 12:30:00 AM 2.35 36.23 0.279 17.86 5.05 13.38
12/28/2022 12:45:00 AM 2.31 36.158 0.279 17.86 5.17 13.4
12/28/2022 1:00:00 AM 2.28 36.104 0.279 17.86 5.19 13.41
12/28/2022 1:15:00 AM 2.24 36.032 0.279 17.87 6.99 13.42
12/28/2022 1:30:00 AM 2.21 35.978 0.279 17.87 5.65 13.44
12/28/2022 1:45:00 AM 2.17 35.906 0.279 17.87 5.97 13.45
12/28/2022 2:00:00 AM 2.13 35.834 0.28 17.87 5.65 13.47
12/28/2022 2:15:00 AM 2.1 35.78 0.28 17.87 5.33 13.48
12/28/2022 2:30:00 AM 2.06 35.708 0.28 17.87 5.99 13.5
12/28/2022 2:45:00 AM 2.02 35.636 0.28 17.87 5.1 13.51
12/28/2022 3:00:00 AM 1.99 35.582 0.28 17.88 5.01 13.52
12/28/2022 3:15:00 AM 1.96 35.528 0.28 17.88 5.12 13.53
12/28/2022 3:30:00 AM 1.92 35.456 0.281 17.88 5.16 13.54
12/28/2022 3:45:00 AM 1.88 35.384 0.281 17.88 5.11 13.56
12/28/2022 4:00:00 AM 1.85 35.33 0.281 17.88 5.12 13.58
12/28/2022 4:15:00 AM 1.81 35.258 0.281 17.88 4.92 13.59
12/28/2022 4:30:00 AM 1.78 35.204 0.282 17.88 4.97 13.6
12/28/2022 4:45:00 AM 1.74 35.132 0.282 17.89 4.85 13.61
12/28/2022 5:00:00 AM 1.71 35.078 0.282 17.89 5.02 13.63
12/28/2022 5:15:00 AM 1.68 35.024 0.283 17.89 5.06 13.64
12/28/2022 5:30:00 AM 1.64 34.952 0.283 17.89 4.88 13.65
12/28/2022 5:45:00 AM 1.61 34.898 0.283 17.89 4.76 13.67
12/28/2022 6:00:00 AM 1.58 34.844 0.283 17.89 4.63 13.69
12/28/2022 6:15:00 AM 1.55 34.79 0.283 17.89 4.78 13.7
12/28/2022 6:30:00 AM 1.52 34.736 0.283 17.89 4.63 13.72
12/28/2022 6:45:00 AM 1.49 34.682 0.283 17.9 4.48 13.74
12/28/2022 7:00:00 AM 1.46 34.628 0.283 17.9 4.57 13.75
12/28/2022 7:15:00 AM 1.42 34.556 0.283 17.9 4.48 13.77
12/28/2022 7:30:00 AM 1.4 34.52 0.283 17.9 4.45 13.78
12/28/2022 7:45:00 AM 1.38 34.484 0.283 17.9 4.45 13.8
12/28/2022 8:00:00 AM 1.37 34.466 0.283 17.9 4.34 13.81
12/28/2022 8:15:00 AM 1.35 34.43 0.283 17.9 4.34 13.83
12/28/2022 8:30:00 AM 1.34 34.412 0.283 17.9 4.22 13.85
12/28/2022 8:45:00 AM 1.33 34.394 0.283 17.9 4.39 13.87
12/28/2022 9:00:00 AM 1.34 34.412 0.283 17.9 4.23 13.89
12/28/2022 9:15:00 AM 1.36 34.448 0.283 17.9 4.31 13.92
12/28/2022 9:30:00 AM 1.41 34.538 0.283 17.9 4.29 13.93
12/28/2022 9:45:00 AM 1.46 34.628 0.283 17.9 4.21 13.95
12/28/2022 10:00:00 AM 1.54 34.772 0.283 17.89 4.17 13.96
12/28/2022 10:15:00 AM 1.66 34.988 0.283 17.89 4.22 13.95
12/28/2022 10:30:00 AM 1.8 35.24 0.283 17.88 4.23 13.95
12/28/2022 10:45:00 AM 1.93 35.474 0.283 17.88 4.16 13.93
12/28/2022 11:00:00 AM 2.09 35.762 0.283 17.87 4.36 13.92
12/28/2022 11:15:00 AM 2.18 35.924 0.282 17.87 4.28 13.9
12/28/2022 11:30:00 AM 2.3 36.14 0.282 17.86 4.3 13.86
12/28/2022 11:45:00 AM 2.47 36.446 0.282 17.86 4.36 13.83
12/28/2022 12:00:00 PM 2.65 36.77 0.282 17.85 4.34 13.8
12/28/2022 12:15:00 PM 2.82 37.076 0.282 17.84 4.33 13.77
12/28/2022 12:30:00 PM 2.99 37.382 0.281 17.84 4.32 13.72
12/28/2022 12:45:00 PM 3.15 37.67 0.281 17.83 4.35 13.68
12/28/2022 1:00:00 PM 3.3 37.94 0.281 17.82 4.34 13.64
12/28/2022 1:15:00 PM 3.44 38.192 0.281 17.82 4.43 13.59
12/28/2022 1:30:00 PM 3.58 38.444 0.281 17.81 4.48 13.54
12/28/2022 1:45:00 PM 3.7 38.66 0.281 17.81 4.89 13.49
12/28/2022 2:00:00 PM 3.82 38.876 0.28 17.8 4.73 13.43
12/28/2022 2:15:00 PM 3.93 39.074 0.28 17.8 4.78 13.39
12/28/2022 2:30:00 PM 4.02 39.236 0.28 17.8 4.71 13.33
12/28/2022 2:45:00 PM 4.1 39.38 0.28 17.79 4.62 13.28
12/28/2022 3:00:00 PM 4.16 39.488 0.28 17.79 4.6 13.23
12/28/2022 3:15:00 PM 4.21 39.578 0.28 17.79 4.56 13.19
12/28/2022 3:30:00 PM 4.24 39.632 0.28 17.79 4.52 13.16
12/28/2022 3:45:00 PM 4.24 39.632 0.28 17.79 4.49 13.13
12/28/2022 4:00:00 PM 4.24 39.632 0.28 17.79 4.67 13.11
12/28/2022 4:15:00 PM 4.21 39.578 0.28 17.79 4.53 13.09
12/28/2022 4:30:00 PM 4.17 39.506 0.28 17.79 4.77 13.08
12/28/2022 4:45:00 PM 4.11 39.398 0.28 17.79 4.64 13.07
12/28/2022 5:00:00 PM 4.04 39.272 0.28 17.8 4.67 13.08
12/28/2022 5:15:00 PM 3.95 39.11 0.28 17.8 4.65 13.07
12/28/2022 5:30:00 PM 3.85 38.93 0.28 17.8 5.62 13.07
12/28/2022 5:45:00 PM 3.74 38.732 0.28 17.81 5.16 13.08
12/28/2022 6:00:00 PM 3.64 38.552 0.28 17.81 5.06 13.1
12/28/2022 6:15:00 PM 3.53 38.354 0.28 17.82 5.03 13.11
12/28/2022 6:30:00 PM 3.43 38.174 0.28 17.82 4.87 13.13
12/28/2022 6:45:00 PM 3.33 37.994 0.28 17.82 4.68 13.15
12/28/2022 7:00:00 PM 3.24 37.832 0.28 17.83 4.86 13.16
12/28/2022 7:15:00 PM 3.15 37.67 0.281 17.83 4.85 13.18
12/28/2022 7:30:00 PM 3.08 37.544 0.281 17.83 4.76 13.2
12/28/2022 7:45:00 PM 3.01 37.418 0.281 17.84 4.69 13.21
12/28/2022 8:00:00 PM 2.95 37.31 0.281 17.84 4.67 13.23
12/28/2022 8:15:00 PM 2.9 37.22 0.281 17.84 4.77 13.25
12/28/2022 8:30:00 PM 2.86 37.148 0.281 17.84 4.64 13.26
12/28/2022 8:45:00 PM 2.82 37.076 0.281 17.84 4.77 13.28
12/28/2022 9:00:00 PM 2.78 37.004 0.281 17.84 4.7 13.28
12/28/2022 9:15:00 PM 2.74 36.932 0.281 17.85 4.75 13.3
12/28/2022 9:30:00 PM 2.71 36.878 0.281 17.85 4.7 13.3
12/28/2022 9:45:00 PM 2.68 36.824 0.281 17.85 4.8 13.31
12/28/2022 10:00:00 PM 2.65 36.77 0.282 17.85 4.89 13.31
12/28/2022 10:15:00 PM 2.62 36.716 0.282 17.85 4.88 13.32
12/28/2022 10:30:00 PM 2.6 36.68 0.282 17.85 5.7 13.32
12/28/2022 10:45:00 PM 2.57 36.626 0.282 17.85 5.56 13.33
12/28/2022 11:00:00 PM 2.54 36.572 0.282 17.85 5.11 13.34
12/28/2022 11:15:00 PM 2.51 36.518 0.282 17.86 5.34 13.35
12/28/2022 11:30:00 PM 2.49 36.482 0.282 17.86 5.12 13.35
12/28/2022 11:45:00 PM 2.46 36.428 0.282 17.86 4.85 13.36
12/29/2022 12:00:00 AM 2.44 36.392 0.282 17.86 4.9 13.37
12/29/2022 12:15:00 AM 2.41 36.338 0.283 17.86 5.02 13.38
12/29/2022 12:30:00 AM 2.38 36.284 0.283 17.86 5.23 13.38
12/29/2022 12:45:00 AM 2.36 36.248 0.283 17.86 5.21 13.39
12/29/2022 1:00:00 AM 2.33 36.194 0.283 17.86 5.09 13.39
12/29/2022 1:15:00 AM 2.3 36.14 0.283 17.86 5.05 13.4
12/29/2022 1:30:00 AM 2.28 36.104 0.284 17.86 5.05 13.41
12/29/2022 1:45:00 AM 2.25 36.05 0.284 17.87 5.19 13.42
12/29/2022 2:00:00 AM 2.21 35.978 0.284 17.87 5.29 13.44
12/29/2022 2:15:00 AM 2.18 35.924 0.284 17.87 5.24 13.45
12/29/2022 2:30:00 AM 2.16 35.888 0.284 17.87 5.23 13.46
12/29/2022 2:45:00 AM 2.13 35.834 0.284 17.87 4.95 13.48
12/29/2022 3:00:00 AM 2.1 35.78 0.284 17.87 4.98 13.49
12/29/2022 3:15:00 AM 2.06 35.708 0.284 17.87 4.94 13.51
12/29/2022 3:30:00 AM 2.03 35.654 0.284 17.87 5.01 13.52
12/29/2022 3:45:00 AM 2 35.6 0.284 17.88 5 13.53
12/29/2022 4:00:00 AM 1.97 35.546 0.284 17.88 4.81 13.54
12/29/2022 4:15:00 AM 1.94 35.492 0.284 17.88 4.91 13.55
12/29/2022 4:30:00 AM 1.9 35.42 0.284 17.88 5.13 13.57
12/29/2022 4:45:00 AM 1.87 35.366 0.284 17.88 4.99 13.59
12/29/2022 5:00:00 AM 1.84 35.312 0.284 17.88 4.69 13.61
12/29/2022 5:15:00 AM 1.81 35.258 0.284 17.88 4.78 13.62
12/29/2022 5:30:00 AM 1.78 35.204 0.284 17.88 4.86 13.63
12/29/2022 5:45:00 AM 1.75 35.15 0.284 17.89 4.91 13.65
12/29/2022 6:00:00 AM 1.72 35.096 0.284 17.89 4.91 13.66
12/29/2022 6:15:00 AM 1.69 35.042 0.284 17.89 4.68 13.68
12/29/2022 6:30:00 AM 1.66 34.988 0.284 17.89 4.55 13.69
12/29/2022 6:45:00 AM 1.63 34.934 0.284 17.89 4.49 13.71
12/29/2022 7:00:00 AM 1.59 34.862 0.285 17.89 4.59 13.72
12/29/2022 7:15:00 AM 1.56 34.808 0.285 17.89 4.41 13.74
12/29/2022 7:30:00 AM 1.53 34.754 0.285 17.89 4.5 13.75
12/29/2022 7:45:00 AM 1.5 34.7 0.285 17.9 4.5 13.77
12/29/2022 8:00:00 AM 1.49 34.682 0.285 17.9 4.64 13.79
12/29/2022 8:15:00 AM 1.48 34.664 0.285 17.9 4.43 13.81
12/29/2022 8:30:00 AM 1.47 34.646 0.285 17.9 4.39 13.83
12/29/2022 8:45:00 AM 1.48 34.664 0.285 17.9 4.3 13.85
12/29/2022 9:00:00 AM 1.49 34.682 0.285 17.9 4.37 13.87
12/29/2022 9:15:00 AM 1.51 34.718 0.285 17.89 4.28 13.89
12/29/2022 9:30:00 AM 1.56 34.808 0.285 17.89 4.19 13.9
12/29/2022 9:45:00 AM 1.64 34.952 0.285 17.89 4.27 13.91
12/29/2022 10:00:00 AM 1.73 35.114 0.285 17.89 4.41 13.92
12/29/2022 10:15:00 AM 1.87 35.366 0.284 17.88 4.27 13.91
12/29/2022 10:30:00 AM 2.03 35.654 0.284 17.87 4.44 13.9
12/29/2022 10:45:00 AM 2.18 35.924 0.284 17.87 4.52 13.89
12/29/2022 11:00:00 AM 2.34 36.212 0.284 17.86 4.61 13.85
12/29/2022 11:15:00 AM 2.51 36.518 0.284 17.86 4.72 13.82
12/29/2022 11:30:00 AM 2.68 36.824 0.284 17.85 4.75 13.8
12/29/2022 11:45:00 AM 2.86 37.148 0.283 17.84 4.51 13.76
12/29/2022 12:00:00 PM 3.04 37.472 0.283 17.83 4.75 13.71
12/29/2022 12:15:00 PM 3.24 37.832 0.283 17.83 4.93 13.66
12/29/2022 12:30:00 PM 3.44 38.192 0.283 17.82 4.55 13.62
12/29/2022 12:45:00 PM 3.64 38.552 0.283 17.81 4.44 13.56
12/29/2022 1:00:00 PM 3.82 38.876 0.283 17.8 4.29 13.49
12/29/2022 1:15:00 PM 3.99 39.182 0.282 17.8 4.3 13.45
12/29/2022 1:30:00 PM 4.15 39.47 0.282 17.79 4.39 13.39
12/29/2022 1:45:00 PM 4.3 39.74 0.282 17.79 4.39 13.33
12/29/2022 2:00:00 PM 4.44 39.992 0.282 17.78 4.47 13.27
12/29/2022 2:15:00 PM 4.56 40.208 0.282 17.78 4.47 13.21
12/29/2022 2:30:00 PM 4.67 40.406 0.282 17.77 4.72 13.16
12/29/2022 2:45:00 PM 4.76 40.568 0.282 17.77 4.74 13.1
12/29/2022 3:00:00 PM 4.83 40.694 0.282 17.76 4.73 13.05
12/29/2022 3:15:00 PM 4.9 40.82 0.282 17.76 4.87 13
12/29/2022 3:30:00 PM 4.95 40.91 0.281 17.76 4.66 12.95
12/29/2022 3:45:00 PM 4.97 40.946 0.281 17.76 5.08 12.92
12/29/2022 4:00:00 PM 4.97 40.946 0.281 17.76 5.13 12.89
12/29/2022 4:15:00 PM 4.95 40.91 0.281 17.76 5.36 12.87
12/29/2022 4:30:00 PM 4.92 40.856 0.281 17.76 5.31 12.85
12/29/2022 4:45:00 PM 4.86 40.748 0.282 17.76 5.5 12.84
12/29/2022 5:00:00 PM 4.79 40.622 0.282 17.77 5.23 12.84
12/29/2022 5:15:00 PM 4.7 40.46 0.282 17.77 5.18 12.84
12/29/2022 5:30:00 PM 4.6 40.28 0.282 17.77 5.55 12.84
12/29/2022 5:45:00 PM 4.48 40.064 0.282 17.78 5.16 12.84
12/29/2022 6:00:00 PM 4.36 39.848 0.282 17.78 5.24 12.85
12/29/2022 6:15:00 PM 4.25 39.65 0.282 17.79 5.05 12.87
12/29/2022 6:30:00 PM 4.13 39.434 0.282 17.79 4.99 12.89
12/29/2022 6:45:00 PM 4.02 39.236 0.282 17.8 4.68 12.92
12/29/2022 7:00:00 PM 3.91 39.038 0.282 17.8 4.65 12.93
12/29/2022 7:15:00 PM 3.82 38.876 0.282 17.8 4.85 12.94
12/29/2022 7:30:00 PM 3.73 38.714 0.282 17.81 4.77 12.97
12/29/2022 7:45:00 PM 3.65 38.57 0.282 17.81 4.83 12.99
12/29/2022 8:00:00 PM 3.58 38.444 0.283 17.81 4.89 13.01
12/29/2022 8:15:00 PM 3.51 38.318 0.283 17.82 4.92 13.03
12/29/2022 8:30:00 PM 3.46 38.228 0.283 17.82 4.69 13.04
12/29/2022 8:45:00 PM 3.41 38.138 0.283 17.82 4.82 13.06
12/29/2022 9:00:00 PM 3.37 38.066 0.283 17.82 8.98 13.07
12/29/2022 9:15:00 PM 3.34 38.012 0.283 17.82 5.4 13.08
12/29/2022 9:30:00 PM 3.3 37.94 0.283 17.82 5.43 13.09
12/29/2022 9:45:00 PM 3.27 37.886 0.283 17.83 5.51 13.09
12/29/2022 10:00:00 PM 3.25 37.85 0.283 17.83 5.09 13.1
12/29/2022 10:15:00 PM 3.22 37.796 0.283 17.83 4.99 13.1
12/29/2022 10:30:00 PM 3.19 37.742 0.283 17.83 4.67 13.11
12/29/2022 10:45:00 PM 3.17 37.706 0.283 17.83 4.69 13.12
12/29/2022 11:00:00 PM 3.14 37.652 0.283 17.83 4.7 13.13
12/29/2022 11:15:00 PM 3.12 37.616 0.283 17.83 4.6 13.14
12/29/2022 11:30:00 PM 3.1 37.58 0.283 17.83 4.66 13.16
12/29/2022 11:45:00 PM 3.08 37.544 0.283 17.83 4.76 13.16
12/30/2022 12:00:00 AM 3.05 37.49 0.283 17.83 4.93 13.17
12/30/2022 12:15:00 AM 3.04 37.472 0.283 17.83 4.91 13.18
12/30/2022 12:30:00 AM 3.02 37.436 0.283 17.84 4.51 13.19
12/30/2022 12:45:00 AM 3 37.4 0.283 17.84 4.52 13.19
12/30/2022 1:00:00 AM 3 37.4 0.283 17.84 4.84 13.2
12/30/2022 1:15:00 AM 3 37.4 0.283 17.84 4.61 13.2
12/30/2022 1:30:00 AM 2.98 37.364 0.283 17.84 4.73 13.21
12/30/2022 1:45:00 AM 2.97 37.346 0.283 17.84 4.65 13.22
12/30/2022 2:00:00 AM 2.95 37.31 0.283 17.84 4.8 13.22
12/30/2022 2:15:00 AM 2.94 37.292 0.283 17.84 4.6 13.22
12/30/2022 2:30:00 AM 2.93 37.274 0.283 17.84 4.67 13.23
12/30/2022 2:45:00 AM 2.93 37.274 0.283 17.84 4.65 13.24
12/30/2022 3:00:00 AM 2.91 37.238 0.284 17.84 4.54 13.24
12/30/2022 3:15:00 AM 2.9 37.22 0.284 17.84 4.61 13.25
12/30/2022 3:30:00 AM 2.89 37.202 0.284 17.84 4.8 13.25
12/30/2022 3:45:00 AM 2.88 37.184 0.284 17.84 5.03 13.26
12/30/2022 4:00:00 AM 2.87 37.166 0.284 17.84 5.19 13.26
12/30/2022 4:15:00 AM 2.86 37.148 0.284 17.84 5.02 13.27
12/30/2022 4:30:00 AM 2.85 37.13 0.284 17.84 4.83 13.27
12/30/2022 4:45:00 AM 2.84 37.112 0.284 17.84 4.8 13.28
12/30/2022 5:00:00 AM 2.83 37.094 0.284 17.84 4.86 13.28
12/30/2022 5:15:00 AM 2.82 37.076 0.284 17.84 4.88 13.29
12/30/2022 5:30:00 AM 2.81 37.058 0.284 17.84 4.83 13.29
12/30/2022 5:45:00 AM 2.8 37.04 0.284 17.84 4.88 13.29
12/30/2022 6:00:00 AM 2.78 37.004 0.285 17.84 4.8 13.3
12/30/2022 6:15:00 AM 2.76 36.968 0.285 17.85 4.91 13.3
12/30/2022 6:30:00 AM 2.75 36.95 0.285 17.85 4.79 13.31
12/30/2022 6:45:00 AM 2.73 36.914 0.286 17.85 5.04 13.31
12/30/2022 7:00:00 AM 2.71 36.878 0.286 17.85 5.82 13.31
12/30/2022 7:15:00 AM 2.69 36.842 0.287 17.85 5.12 13.31
12/30/2022 7:30:00 AM 2.68 36.824 0.287 17.85 5.11 13.32
12/30/2022 7:45:00 AM 2.67 36.806 0.287 17.85 5.02 13.32
12/30/2022 8:00:00 AM 2.67 36.806 0.288 17.85 5.02 13.33
12/30/2022 8:15:00 AM 2.67 36.806 0.288 17.85 4.95 13.34
12/30/2022 8:30:00 AM 2.67 36.806 0.287 17.85 4.92 13.36
12/30/2022 8:45:00 AM 2.71 36.878 0.287 17.85 4.69 13.38
12/30/2022 9:00:00 AM 2.76 36.968 0.287 17.85 4.65 13.4
12/30/2022 9:15:00 AM 2.8 37.04 0.287 17.84 4.67 13.41
12/30/2022 9:30:00 AM 2.81 37.058 0.286 17.84 4.52 13.42
12/30/2022 9:45:00 AM 2.93 37.274 0.286 17.84 4.37 13.43
12/30/2022 10:00:00 AM 3.03 37.454 0.286 17.84 4.46 13.43
12/30/2022 10:15:00 AM 3.17 37.706 0.285 17.83 4.32 13.42
12/30/2022 10:30:00 AM 3.33 37.994 0.285 17.82 4.3 13.42
12/30/2022 10:45:00 AM 3.47 38.246 0.285 17.82 4.26 13.42
12/30/2022 11:00:00 AM 3.63 38.534 0.284 17.81 4.33 13.39
12/30/2022 11:15:00 AM 3.8 38.84 0.284 17.8 4.41 13.36
12/30/2022 11:30:00 AM 3.97 39.146 0.284 17.8 4.27 13.33
12/30/2022 11:45:00 AM 4.15 39.47 0.284 17.79 4.55 13.3
12/30/2022 12:00:00 PM 4.33 39.794 0.283 17.78 4.48 13.26
12/30/2022 12:15:00 PM 4.54 40.172 0.283 17.78 4.52 13.21
12/30/2022 12:30:00 PM 4.74 40.532 0.283 17.77 4.77 13.17
12/30/2022 12:45:00 PM 4.95 40.91 0.283 17.76 4.78 13.11
12/30/2022 1:00:00 PM 5.14 41.252 0.283 17.75 4.83 13.05
12/30/2022 1:15:00 PM 5.32 41.576 0.282 17.75 5.15 13.01
12/30/2022 1:30:00 PM 5.5 41.9 0.282 17.74 4.86 12.95
12/30/2022 1:45:00 PM 5.65 42.17 0.282 17.73 4.87 12.89
12/30/2022 2:00:00 PM 5.79 42.422 0.282 17.73 5.08 12.83
12/30/2022 2:15:00 PM 5.92 42.656 0.282 17.72 5.03 12.78
12/30/2022 2:30:00 PM 6.04 42.872 0.282 17.72 5.14 12.72
12/30/2022 2:45:00 PM 6.13 43.034 0.282 17.71 5.08 12.67
12/30/2022 3:00:00 PM 6.2 43.16 0.282 17.71 5.24 12.61
12/30/2022 3:15:00 PM 6.28 43.304 0.281 17.71 6.18 12.56
12/30/2022 3:30:00 PM 6.32 43.376 0.281 17.71 5.99 12.51
12/30/2022 3:45:00 PM 6.35 43.43 0.281 17.71 6.16 12.47
12/30/2022 4:00:00 PM 6.36 43.448 0.281 17.71 5.59 12.44
12/30/2022 4:15:00 PM 6.34 43.412 0.281 17.71 5.41 12.41
12/30/2022 4:30:00 PM 6.31 43.358 0.281 17.71 5.55 12.39
12/30/2022 4:45:00 PM 6.25 43.25 0.281 17.71 5.43 12.37
12/30/2022 5:00:00 PM 6.17 43.106 0.281 17.71 5.47 12.35
12/30/2022 5:15:00 PM 6.08 42.944 0.281 17.72 5.43 12.35
12/30/2022 5:30:00 PM 5.96 42.728 0.281 17.72 5.54 12.36
12/30/2022 5:45:00 PM 5.83 42.494 0.281 17.73 5.62 12.36
12/30/2022 6:00:00 PM 5.7 42.26 0.281 17.73 5.57 12.37
12/30/2022 6:15:00 PM 5.58 42.044 0.281 17.74 5.33 12.38
12/30/2022 6:30:00 PM 5.45 41.81 0.281 17.74 5.38 12.4
12/30/2022 6:45:00 PM 5.33 41.594 0.281 17.75 5.53 12.42
12/30/2022 7:00:00 PM 5.22 41.396 0.282 17.75 5.42 12.43
12/30/2022 7:15:00 PM 5.11 41.198 0.282 17.75 5.28 12.44
12/30/2022 7:30:00 PM 5.01 41.018 0.282 17.76 5.3 12.47
12/30/2022 7:45:00 PM 4.93 40.874 0.282 17.76 6 12.49
12/30/2022 8:00:00 PM 4.85 40.73 0.282 17.76 5.48 12.5
12/30/2022 8:15:00 PM 4.79 40.622 0.282 17.77 4.98 12.52
12/30/2022 8:30:00 PM 4.73 40.514 0.282 17.77 5.01 12.54
12/30/2022 8:45:00 PM 4.68 40.424 0.282 17.77 4.95 12.55
12/30/2022 9:00:00 PM 4.64 40.352 0.282 17.77 5.01 12.56
12/30/2022 9:15:00 PM 4.6 40.28 0.282 17.77 4.94 12.56
12/30/2022 9:30:00 PM 4.57 40.226 0.282 17.77 4.93 12.57
12/30/2022 9:45:00 PM 4.54 40.172 0.282 17.78 4.84 12.58
12/30/2022 10:00:00 PM 4.51 40.118 0.282 17.78 4.84 12.58
12/30/2022 10:15:00 PM 4.48 40.064 0.282 17.78 4.96 12.59
12/30/2022 10:30:00 PM 4.45 40.01 0.282 17.78 5.05 12.6
12/30/2022 10:45:00 PM 4.43 39.974 0.282 17.78 4.78 12.61
12/30/2022 11:00:00 PM 4.4 39.92 0.282 17.78 7.38 12.61
12/30/2022 11:15:00 PM 4.38 39.884 0.283 17.78 5.33 12.63
12/30/2022 11:30:00 PM 4.36 39.848 0.283 17.78 5 12.63
12/30/2022 11:45:00 PM 4.34 39.812 0.283 17.78 4.94 12.64
12/31/2022 12:00:00 AM 4.32 39.776 0.283 17.78 4.91 12.65
12/31/2022 12:15:00 AM 4.3 39.74 0.283 17.79 4.81 12.65
12/31/2022 12:30:00 AM 4.28 39.704 0.283 17.79 4.87 12.66
12/31/2022 12:45:00 AM 4.27 39.686 0.283 17.79 4.95 12.67
12/31/2022 1:00:00 AM 4.25 39.65 0.283 17.79 4.74 12.67
12/31/2022 1:15:00 AM 4.24 39.632 0.283 17.79 4.8 12.68
12/31/2022 1:30:00 AM 4.23 39.614 0.283 17.79 4.88 12.68
12/31/2022 1:45:00 AM 4.22 39.596 0.283 17.79 4.72 12.69
12/31/2022 2:00:00 AM 4.21 39.578 0.283 17.79 4.9 12.69
12/31/2022 2:15:00 AM 4.2 39.56 0.283 17.79 4.74 12.7
12/31/2022 2:30:00 AM 4.19 39.542 0.283 17.79 4.81 12.7
12/31/2022 2:45:00 AM 4.18 39.524 0.283 17.79 4.76 12.71
12/31/2022 3:00:00 AM 4.17 39.506 0.283 17.79 4.87 12.71
12/31/2022 3:15:00 AM 4.16 39.488 0.283 17.79 4.84 12.72
12/31/2022 3:30:00 AM 4.18 39.524 0.283 17.79 4.92 12.72
12/31/2022 3:45:00 AM 4.19 39.542 0.283 17.79 5.26 12.72
12/31/2022 4:00:00 AM 4.21 39.578 0.283 17.79 4.92 12.71
12/31/2022 4:15:00 AM 4.22 39.596 0.283 17.79 4.98 12.71
12/31/2022 4:30:00 AM 4.25 39.65 0.284 17.79 5.12 12.71
12/31/2022 4:45:00 AM 4.27 39.686 0.284 17.79 5.32 12.7
12/31/2022 5:00:00 AM 4.29 39.722 0.284 17.79 5.25 12.7
12/31/2022 5:15:00 AM 4.32 39.776 0.284 17.78 5.31 12.69
12/31/2022 5:30:00 AM 4.35 39.83 0.284 17.78 5.28 12.68
12/31/2022 5:45:00 AM 4.37 39.866 0.284 17.78 5.25 12.67
12/31/2022 6:00:00 AM 4.4 39.92 0.284 17.78 5.06 12.66
12/31/2022 6:15:00 AM 4.43 39.974 0.284 17.78 5.27 12.66
12/31/2022 6:30:00 AM 4.45 40.01 0.284 17.78 5.1 12.64
12/31/2022 6:45:00 AM 4.47 40.046 0.284 17.78 7.05 12.63
12/31/2022 7:00:00 AM 4.5 40.1 0.284 17.78 5.27 12.63
12/31/2022 7:15:00 AM 4.53 40.154 0.283 17.78 5.33 12.62
12/31/2022 7:30:00 AM 4.56 40.208 0.283 17.78 5.05 12.61
12/31/2022 7:45:00 AM 4.59 40.262 0.283 17.77 5.01 12.6
12/31/2022 8:00:00 AM 4.62 40.316 0.283 17.77 4.95 12.59
12/31/2022 8:15:00 AM 4.66 40.388 0.283 17.77 5 12.58
12/31/2022 8:30:00 AM 4.7 40.46 0.283 17.77 4.78 12.58
12/31/2022 8:45:00 AM 4.74 40.532 0.283 17.77 4.74 12.57
12/31/2022 9:00:00 AM 4.78 40.604 0.283 17.77 4.68 12.57
12/31/2022 9:15:00 AM 4.84 40.712 0.283 17.76 4.61 12.57
12/31/2022 9:30:00 AM 4.89 40.802 0.283 17.76 4.69 12.57
12/31/2022 9:45:00 AM 4.94 40.892 0.283 17.76 4.66 12.57
12/31/2022 10:00:00 AM 5 41 0.283 17.76 4.55 12.57
12/31/2022 10:15:00 AM 5.06 41.108 0.283 17.76 4.63 12.58
12/31/2022 10:30:00 AM 5.13 41.234 0.283 17.75 4.57 12.58
12/31/2022 10:45:00 AM 5.2 41.36 0.283 17.75 4.69 12.58
12/31/2022 11:00:00 AM 5.27 41.486 0.283 17.75 4.68 12.59
12/31/2022 11:15:00 AM 5.34 41.612 0.283 17.74 4.72 12.59
12/31/2022 11:30:00 AM 5.41 41.738 0.283 17.74 4.94 12.57
12/31/2022 11:45:00 AM 5.49 41.882 0.283 17.74 4.92 12.57
12/31/2022 12:00:00 PM 5.56 42.008 0.283 17.74 5.27 12.55
12/31/2022 12:15:00 PM 5.63 42.134 0.283 17.73 5.44 12.54
12/31/2022 12:30:00 PM 5.7 42.26 0.283 17.73 5.72 12.52
12/31/2022 12:45:00 PM 5.76 42.368 0.283 17.73 6.53 12.5
12/31/2022 1:00:00 PM 5.83 42.494 0.282 17.73 5.53 12.48
12/31/2022 1:15:00 PM 5.89 42.602 0.282 17.72 5.27 12.45
12/31/2022 1:30:00 PM 5.95 42.71 0.282 17.72 5.29 12.44
12/31/2022 1:45:00 PM 6.01 42.818 0.282 17.72 5.36 12.42
12/31/2022 2:00:00 PM 6.06 42.908 0.282 17.72 5.6 12.39
12/31/2022 2:15:00 PM 6.1 42.98 0.282 17.72 5.41 12.36
12/31/2022 2:30:00 PM 6.15 43.07 0.282 17.71 6.9 12.33
12/31/2022 2:45:00 PM 6.2 43.16 0.282 17.71 5.8 12.29
12/31/2022 3:00:00 PM 6.24 43.232 0.282 17.71 5.54 12.27
12/31/2022 3:15:00 PM 6.28 43.304 0.281 17.71 5.68 12.24
12/31/2022 3:30:00 PM 6.32 43.376 0.281 17.71 5.38 12.21
12/31/2022 3:45:00 PM 6.35 43.43 0.281 17.71 5.71 12.18
12/31/2022 4:00:00 PM 6.38 43.484 0.281 17.71 5.39 12.15
12/31/2022 4:15:00 PM 6.41 43.538 0.281 17.7 5.97 12.12
12/31/2022 4:30:00 PM 6.43 43.574 0.281 17.7 6.2 12.09
12/31/2022 4:45:00 PM 6.45 43.61 0.281 17.7 6.41 12.06
12/31/2022 5:00:00 PM 6.47 43.646 0.281 17.7 6.02 12.03
12/31/2022 5:15:00 PM 6.49 43.682 0.281 17.7 6.32 12
12/31/2022 5:30:00 PM 6.5 43.7 0.281 17.7 6.66 11.98
12/31/2022 5:45:00 PM 6.52 43.736 0.281 17.7 6.2 11.96
12/31/2022 6:00:00 PM 6.53 43.754 0.28 17.7 6.01 11.94
12/31/2022 6:15:00 PM 6.54 43.772 0.28 17.7 6.47 11.92
12/31/2022 6:30:00 PM 6.56 43.808 0.28 17.7 7.47 11.91
12/31/2022 6:45:00 PM 6.57 43.826 0.28 17.7 6.43 11.89
12/31/2022 7:00:00 PM 6.58 43.844 0.28 17.7 6.58 11.88
12/31/2022 7:15:00 PM 6.6 43.88 0.28 17.7 8.18 11.86
12/31/2022 7:30:00 PM 6.61 43.898 0.28 17.7 7.1 11.85
12/31/2022 7:45:00 PM 6.63 43.934 0.28 17.7 6.91 11.84
12/31/2022 8:00:00 PM 6.65 43.97 0.279 17.69 7.31 11.83
12/31/2022 8:15:00 PM 6.67 44.006 0.277 17.69 9.54 11.82
12/31/2022 8:30:00 PM 6.7 44.06 0.277 17.69 10.08 11.81
12/31/2022 8:45:00 PM 6.72 44.096 0.275 17.69 9.15 11.8
12/31/2022 9:00:00 PM 6.74 44.132 0.275 17.69 9.24 11.79
12/31/2022 9:15:00 PM 6.76 44.168 0.275 17.69 9.2 11.77
12/31/2022 9:30:00 PM 6.78 44.204 0.275 17.69 9.95 11.76
12/31/2022 9:45:00 PM 6.8 44.24 0.275 17.69 11.17 11.75
12/31/2022 10:00:00 PM 6.82 44.276 0.274 17.69 12.41 11.74
12/31/2022 10:15:00 PM 6.84 44.312 0.274 17.69 12.55 11.73
12/31/2022 10:30:00 PM 6.86 44.348 0.273 17.69 13.79 11.71
12/31/2022 10:45:00 PM 6.88 44.384 0.273 17.69 15.86 11.7
12/31/2022 11:00:00 PM 6.9 44.42 0.273 17.69 17.32 11.69
12/31/2022 11:15:00 PM 6.92 44.456 0.273 17.68 18.85 11.68
12/31/2022 11:30:00 PM 6.92 44.456 0.273 17.68 21.13 11.67
12/31/2022 11:45:00 PM 6.92 44.456 0.272 17.68 23.53 11.66
1/1/2023 12:00:00 AM 6.9 44.42 0.271 17.69 23.05 11.66
1/1/2023 12:15:00 AM 6.89 44.402 0.27 17.69 21.2 11.66
1/1/2023 12:30:00 AM 6.88 44.384 0.27 17.69 26.7 11.65
1/1/2023 12:45:00 AM 6.87 44.366 0.27 17.69 27.12 11.65
1/1/2023 1:00:00 AM 6.86 44.348 0.27 17.69 28.3 11.64
1/1/2023 1:15:00 AM 6.84 44.312 0.27 17.69 30.25 11.65
1/1/2023 1:30:00 AM 6.81 44.258 0.27 17.69 26.51 11.65
1/1/2023 1:45:00 AM 6.79 44.222 0.27 17.69 28.27 11.66
1/1/2023 2:00:00 AM 6.77 44.186 0.27 17.69 28.18 11.67
1/1/2023 2:15:00 AM 6.75 44.15 0.271 17.69 29.56 11.68
1/1/2023 2:30:00 AM 6.74 44.132 0.271 17.69 25.37 11.69
1/1/2023 2:45:00 AM 6.73 44.114 0.271 17.69 29.93 11.7
1/1/2023 3:00:00 AM 6.72 44.096 0.272 17.69 26.47 11.71
1/1/2023 3:15:00 AM 6.71 44.078 0.273 17.69 27.73 11.71
1/1/2023 3:30:00 AM 6.71 44.078 0.274 17.69 28.5 11.72
1/1/2023 3:45:00 AM 6.7 44.06 0.274 17.69 26.78 11.72
1/1/2023 4:00:00 AM 6.69 44.042 0.274 17.69 24.74 11.72
1/1/2023 4:15:00 AM 6.69 44.042 0.274 17.69 22.57 11.72
1/1/2023 4:30:00 AM 6.69 44.042 0.273 17.69 22.34 11.72
1/1/2023 4:45:00 AM 6.69 44.042 0.273 17.69 24.44 11.72
1/1/2023 5:00:00 AM 6.68 44.024 0.272 17.69 29.22 11.72
1/1/2023 5:15:00 AM 6.67 44.006 0.273 17.69 17.82 11.72
1/1/2023 5:30:00 AM 6.66 43.988 0.273 17.69 24.09 11.73
1/1/2023 5:45:00 AM 6.64 43.952 0.275 17.7 23.56 11.72
1/1/2023 6:00:00 AM 6.61 43.898 0.277 17.7 24.92 11.72
1/1/2023 6:15:00 AM 6.57 43.826 0.278 17.7 25.21 11.72
1/1/2023 6:30:00 AM 6.52 43.736 0.28 17.7 28.64 11.72
1/1/2023 6:45:00 AM 6.48 43.664 0.28 17.7 26.32 11.72
1/1/2023 7:00:00 AM 6.44 43.592 0.281 17.7 25.78 11.72
1/1/2023 7:15:00 AM 6.39 43.502 0.281 17.7 24.97 11.73
1/1/2023 7:30:00 AM 6.35 43.43 0.281 17.71 24.01 11.74
1/1/2023 7:45:00 AM 6.3 43.34 0.281 17.71 23.84 11.77
1/1/2023 8:00:00 AM 6.25 43.25 0.282 17.71 22.82 11.79
1/1/2023 8:15:00 AM 6.22 43.196 0.282 17.71 22.71 11.81
1/1/2023 8:30:00 AM 6.2 43.16 0.282 17.71 21.75 11.83
1/1/2023 8:45:00 AM 6.21 43.178 0.282 17.71 20.95 11.86
1/1/2023 9:00:00 AM 6.23 43.214 0.283 17.71 20.08 11.89
1/1/2023 9:15:00 AM 6.25 43.25 0.283 17.71 19.29 11.91
1/1/2023 9:30:00 AM 6.29 43.322 0.284 17.71 18.65 11.93
1/1/2023 9:45:00 AM 6.38 43.484 0.285 17.71 19.55 11.95
1/1/2023 10:00:00 AM 6.45 43.61 0.286 17.7 19.8 11.96
1/1/2023 10:15:00 AM 6.55 43.79 0.286 17.7 19.13 11.99
1/1/2023 10:30:00 AM 6.66 43.988 0.287 17.69 19.12 12
1/1/2023 10:45:00 AM 6.77 44.186 0.288 17.69 20.69 12.01
1/1/2023 11:00:00 AM 6.9 44.42 0.288 17.69 20.51 12
1/1/2023 11:15:00 AM 7.02 44.636 0.289 17.68 18.09 12
1/1/2023 11:30:00 AM 7.14 44.852 0.289 17.68 20.66 11.99
1/1/2023 11:45:00 AM 7.28 45.104 0.29 17.67 20.35 11.99
1/1/2023 12:00:00 PM 7.43 45.374 0.29 17.67 18.49 11.97
1/1/2023 12:15:00 PM 7.58 45.644 0.29 17.66 18.89 11.96
1/1/2023 12:30:00 PM 7.7 45.86 0.29 17.65 18.53 11.95
1/1/2023 12:45:00 PM 7.78 46.004 0.29 17.65 17.43 11.94
1/1/2023 1:00:00 PM 7.92 46.256 0.291 17.65 18.12 11.94
1/1/2023 1:15:00 PM 8.06 46.508 0.291 17.64 22.93 11.92
1/1/2023 1:30:00 PM 8.18 46.724 0.291 17.64 16.93 11.9
1/1/2023 1:45:00 PM 8.28 46.904 0.291 17.63 16.77 11.87
1/1/2023 2:00:00 PM 8.35 47.03 0.291 17.63 17.83 11.85
1/1/2023 2:15:00 PM 8.37 47.066 0.291 17.63 15.96 11.82
1/1/2023 2:30:00 PM 8.41 47.138 0.291 17.63 15.88 11.79
1/1/2023 2:45:00 PM 8.43 47.174 0.29 17.62 16.81 11.77
1/1/2023 3:00:00 PM 8.43 47.174 0.29 17.63 18.91 11.74
1/1/2023 3:15:00 PM 8.43 47.174 0.289 17.63 315.7 11.71
1/1/2023 3:30:00 PM 8.41 47.138 0.288 17.63 18.98 11.69
1/1/2023 3:45:00 PM 8.37 47.066 0.288 17.63 21 11.66
1/1/2023 4:00:00 PM 8.31 46.958 0.287 17.63 20.01 11.63
1/1/2023 4:15:00 PM 8.25 46.85 0.286 17.63 18.95 11.62
1/1/2023 4:30:00 PM 8.2 46.76 0.285 17.64 18.21 11.61
1/1/2023 4:45:00 PM 8.14 46.652 0.285 17.64 16.59 11.59
1/1/2023 5:00:00 PM 8.06 46.508 0.284 17.64 16.41 11.57
1/1/2023 5:15:00 PM 7.96 46.328 0.284 17.64 15.93 11.56
1/1/2023 5:30:00 PM 7.84 46.112 0.283 17.65 16.28 11.55
1/1/2023 5:45:00 PM 7.73 45.914 0.283 17.65 16.62 11.53
1/1/2023 6:00:00 PM 7.63 45.734 0.283 17.66 17.52 11.51
1/1/2023 6:15:00 PM 7.52 45.536 0.283 17.66 17.12 11.51
1/1/2023 6:30:00 PM 7.41 45.338 0.282 17.67 15.71 11.51
1/1/2023 6:45:00 PM 7.29 45.122 0.282 17.67 14.53 11.52
1/1/2023 7:00:00 PM 7.19 44.942 0.282 17.67 14.08 11.52
1/1/2023 7:15:00 PM 7.09 44.762 0.282 17.68 15.41 11.53
1/1/2023 7:30:00 PM 7 44.6 0.282 17.68 14.76 11.54
1/1/2023 7:45:00 PM 6.94 44.492 0.282 17.68 14.3 11.56
1/1/2023 8:00:00 PM 6.88 44.384 0.282 17.69 14.56 11.57
1/1/2023 8:15:00 PM 6.83 44.294 0.282 17.69 14.28 11.59
1/1/2023 8:30:00 PM 6.8 44.24 0.282 17.69 13.42 11.6
1/1/2023 8:45:00 PM 6.77 44.186 0.282 17.69 15.61 11.61
1/1/2023 9:00:00 PM 6.72 44.096 0.282 17.69 15.31 11.63
1/1/2023 9:15:00 PM 6.68 44.024 0.282 17.69 15.97 11.64
1/1/2023 9:30:00 PM 6.65 43.97 0.282 17.69 16.02 11.66
1/1/2023 9:45:00 PM 6.61 43.898 0.282 17.7 15.5 11.67
1/1/2023 10:00:00 PM 6.57 43.826 0.281 17.7 15.2 11.69
1/1/2023 10:15:00 PM 6.53 43.754 0.281 17.7 13.96 11.69
1/1/2023 10:30:00 PM 6.48 43.664 0.281 17.7 12.68 11.71
1/1/2023 10:45:00 PM 6.43 43.574 0.281 17.7 13.08 11.72
1/1/2023 11:00:00 PM 6.39 43.502 0.281 17.7 11.1 11.73
1/1/2023 11:15:00 PM 6.34 43.412 0.281 17.71 11.23 11.75
1/1/2023 11:30:00 PM 6.29 43.322 0.281 17.71 13.57 11.77
1/1/2023 11:45:00 PM 6.25 43.25 0.281 17.71 13.59 11.78
1/2/2023 12:00:00 AM 6.21 43.178 0.281 17.71 12.4 11.8
1/2/2023 12:15:00 AM 6.17 43.106 0.281 17.71 10.32 11.82
1/2/2023 12:30:00 AM 6.12 43.016 0.281 17.71 10.88 11.83
1/2/2023 12:45:00 AM 6.08 42.944 0.281 17.72 11.42 11.85
1/2/2023 1:00:00 AM 6.05 42.89 0.281 17.72 12.02 11.87
1/2/2023 1:15:00 AM 6.01 42.818 0.281 17.72 13.25 11.88
1/2/2023 1:30:00 AM 5.97 42.746 0.281 17.72 11.36 11.9
1/2/2023 1:45:00 AM 5.94 42.692 0.281 17.72 11.99 11.91
1/2/2023 2:00:00 AM 5.91 42.638 0.281 17.72 11.21 11.93
1/2/2023 2:15:00 AM 5.88 42.584 0.281 17.72 10.86 11.94
1/2/2023 2:30:00 AM 5.85 42.53 0.281 17.73 11.79 11.94
1/2/2023 2:45:00 AM 5.82 42.476 0.281 17.73 12.6 11.96
1/2/2023 3:00:00 AM 5.79 42.422 0.281 17.73 11.2 11.97
1/2/2023 3:15:00 AM 5.76 42.368 0.281 17.73 10.07 11.98
1/2/2023 3:30:00 AM 5.74 42.332 0.281 17.73 10 11.99
1/2/2023 3:45:00 AM 5.72 42.296 0.281 17.73 10.16 12.01
1/2/2023 4:00:00 AM 5.7 42.26 0.281 17.73 9.93 12.02
1/2/2023 4:15:00 AM 5.68 42.224 0.281 17.73 9.97 12.03
1/2/2023 4:30:00 AM 5.66 42.188 0.281 17.73 10.47 12.04
1/2/2023 4:45:00 AM 5.64 42.152 0.281 17.73 10.65 12.05
1/2/2023 5:00:00 AM 5.63 42.134 0.281 17.73 10.48 12.06
1/2/2023 5:15:00 AM 5.61 42.098 0.281 17.73 9.91 12.07
1/2/2023 5:30:00 AM 5.6 42.08 0.281 17.74 9.35 12.08
1/2/2023 5:45:00 AM 5.59 42.062 0.281 17.74 10.2 12.08
1/2/2023 6:00:00 AM 5.58 42.044 0.281 17.74 9.19 12.09
1/2/2023 6:15:00 AM 5.56 42.008 0.281 17.74 9.97 12.09
1/2/2023 6:30:00 AM 5.55 41.99 0.281 17.74 9.26 12.1
1/2/2023 6:45:00 AM 5.53 41.954 0.281 17.74 9.4 12.11
1/2/2023 7:00:00 AM 5.51 41.918 0.281 17.74 9.09 12.12
1/2/2023 7:15:00 AM 5.5 41.9 0.281 17.74 9.49 12.13
1/2/2023 7:30:00 AM 5.48 41.864 0.282 17.74 9.21 12.14
1/2/2023 7:45:00 AM 5.48 41.864 0.282 17.74 8.85 12.15
1/2/2023 8:00:00 AM 5.48 41.864 0.282 17.74 8.69 12.17
1/2/2023 8:15:00 AM 5.48 41.864 0.282 17.74 8.43 12.19
1/2/2023 8:30:00 AM 5.5 41.9 0.282 17.74 8.95 12.22
1/2/2023 8:45:00 AM 5.52 41.936 0.282 17.74 8.5 12.24
1/2/2023 9:00:00 AM 5.55 41.99 0.282 17.74 8.35 12.27
1/2/2023 9:15:00 AM 5.59 42.062 0.282 17.74 8.36 12.31
1/2/2023 9:30:00 AM 5.64 42.152 0.282 17.73 8.01 12.33
1/2/2023 9:45:00 AM 5.69 42.242 0.282 17.73 10.73 12.36
1/2/2023 10:00:00 AM 5.75 42.35 0.282 17.73 8.29 12.38
1/2/2023 10:15:00 AM 5.81 42.458 0.282 17.73 7.68 12.4
1/2/2023 10:30:00 AM 5.87 42.566 0.282 17.72 7.82 12.42
1/2/2023 10:45:00 AM 5.94 42.692 0.282 17.72 7.85 12.44
1/2/2023 11:00:00 AM 6.03 42.854 0.282 17.72 8 12.45
1/2/2023 11:15:00 AM 6.12 43.016 0.282 17.71 7.08 12.45
1/2/2023 11:30:00 AM 6.22 43.196 0.282 17.71 7.38 12.46
1/2/2023 11:45:00 AM 6.33 43.394 0.282 17.71 7.38 12.46
1/2/2023 12:00:00 PM 6.44 43.592 0.282 17.7 7.57 12.46
1/2/2023 12:15:00 PM 6.57 43.826 0.282 17.7 7.4 12.47
1/2/2023 12:30:00 PM 6.65 43.97 0.282 17.69 7.63 12.45
1/2/2023 12:45:00 PM 6.74 44.132 0.282 17.69 7.44 12.43
1/2/2023 1:00:00 PM 6.81 44.258 0.282 17.69 7.54 12.4
1/2/2023 1:15:00 PM 6.92 44.456 0.282 17.68 7.36 12.38
1/2/2023 1:30:00 PM 7.02 44.636 0.282 17.68 7.57 12.35
1/2/2023 1:45:00 PM 7.1 44.78 0.282 17.68 7.7 12.32
1/2/2023 2:00:00 PM 7.15 44.87 0.282 17.68 7.85 12.29
1/2/2023 2:15:00 PM 7.21 44.978 0.282 17.67 8.11 12.25
1/2/2023 2:30:00 PM 7.25 45.05 0.282 17.67 7.38 12.21
1/2/2023 2:45:00 PM 7.29 45.122 0.282 17.67 7.62 12.18
1/2/2023 3:00:00 PM 7.31 45.158 0.282 17.67 7.25 12.13
1/2/2023 3:15:00 PM 7.34 45.212 0.282 17.67 7.63 12.09
1/2/2023 3:30:00 PM 7.36 45.248 0.282 17.67 7.07 12.04
1/2/2023 3:45:00 PM 7.39 45.302 0.282 17.67 7.71 12
1/2/2023 4:00:00 PM 7.41 45.338 0.282 17.67 7.5 11.96
1/2/2023 4:15:00 PM 7.41 45.338 0.282 17.67 7.44 11.92
1/2/2023 4:30:00 PM 7.41 45.338 0.282 17.67 6.84 11.88
1/2/2023 4:45:00 PM 7.41 45.338 0.282 17.67 7 11.84
1/2/2023 5:00:00 PM 7.41 45.338 0.283 17.67 7.23 11.81
1/2/2023 5:15:00 PM 7.39 45.302 0.283 17.67 6.74 11.79
1/2/2023 5:30:00 PM 7.38 45.284 0.283 17.67 7.27 11.76
1/2/2023 5:45:00 PM 7.36 45.248 0.283 17.67 6.89 11.74
1/2/2023 6:00:00 PM 7.36 45.248 0.283 17.67 6.94 11.72
1/2/2023 6:15:00 PM 7.35 45.23 0.283 17.67 6.95 11.7
1/2/2023 6:30:00 PM 7.34 45.212 0.283 17.67 7.37 11.69
1/2/2023 6:45:00 PM 7.33 45.194 0.283 17.67 6.88 11.68
1/2/2023 7:00:00 PM 7.32 45.176 0.283 17.67 7.15 11.66
1/2/2023 7:15:00 PM 7.32 45.176 0.283 17.67 7.73 11.66
1/2/2023 7:30:00 PM 7.31 45.158 0.283 17.67 7.42 11.65
1/2/2023 7:45:00 PM 7.32 45.176 0.283 17.67 8.49 11.65
1/2/2023 8:00:00 PM 7.31 45.158 0.283 17.67 7.42 11.64
1/2/2023 8:15:00 PM 7.32 45.176 0.283 17.67 6.86 11.64
1/2/2023 8:30:00 PM 7.32 45.176 0.283 17.67 7.89 11.63
1/2/2023 8:45:00 PM 7.33 45.194 0.283 17.67 8.63 11.62
1/2/2023 9:00:00 PM 7.33 45.194 0.269 17.67 8.26 11.62
1/2/2023 9:15:00 PM 7.32 45.176 0.284 17.67 7.66 11.62
1/2/2023 9:30:00 PM 7.33 45.194 0.284 17.67 8.19 11.62
1/2/2023 9:45:00 PM 7.34 45.212 0.284 17.67 7.62 11.61
1/2/2023 10:00:00 PM 7.35 45.23 0.284 17.67 7.93 11.61
1/2/2023 10:15:00 PM 7.36 45.248 0.284 17.67 7.59 11.61
1/2/2023 10:30:00 PM 7.36 45.248 0.284 17.67 7.63 11.61
1/2/2023 10:45:00 PM 7.37 45.266 0.284 17.67 7.89 11.6
1/2/2023 11:00:00 PM 7.38 45.284 0.284 17.67 8.66 11.6
1/2/2023 11:15:00 PM 7.39 45.302 0.284 17.67 8.29 11.59
1/2/2023 11:30:00 PM 7.4 45.32 0.284 17.67 8.78 11.59
1/2/2023 11:45:00 PM 7.41 45.338 0.284 17.67 9.36 11.59
1/3/2023 12:00:00 AM 7.42 45.356 0.284 17.67 8.47 11.58
1/3/2023 12:15:00 AM 7.43 45.374 0.284 17.67 8.22 11.58
1/3/2023 12:30:00 AM 7.44 45.392 0.284 17.66 9.2 11.58
1/3/2023 12:45:00 AM 7.45 45.41 0.284 17.66 8.97 11.57
1/3/2023 1:00:00 AM 7.45 45.41 0.285 17.66 9.33 11.57
1/3/2023 1:15:00 AM 7.46 45.428 0.285 17.66 10.17 11.56
1/3/2023 1:30:00 AM 7.46 45.428 0.285 17.66 8.91 11.56
1/3/2023 1:45:00 AM 7.46 45.428 0.285 17.66 8.94 11.56
1/3/2023 2:00:00 AM 7.47 45.446 0.285 17.66 8.14 11.56
1/3/2023 2:15:00 AM 7.47 45.446 0.285 17.66 8.96 11.56
1/3/2023 2:30:00 AM 7.48 45.464 0.285 17.66 9.34 11.55
1/3/2023 2:45:00 AM 7.48 45.464 0.285 17.66 9.52 11.55
1/3/2023 3:00:00 AM 7.49 45.482 0.285 17.66 7.76 11.55
1/3/2023 3:15:00 AM 7.49 45.482 0.285 17.66 8.73 11.55
1/3/2023 3:30:00 AM 7.5 45.5 0.285 17.66 9.38 11.55
1/3/2023 3:45:00 AM 7.5 45.5 0.285 17.66 9.69 11.55
1/3/2023 4:00:00 AM 7.51 45.518 0.285 17.66 9.35 11.54
1/3/2023 4:15:00 AM 7.51 45.518 0.285 17.66 8.69 11.54
1/3/2023 4:30:00 AM 7.51 45.518 0.285 17.66 8.68 11.54
1/3/2023 4:45:00 AM 7.52 45.536 0.285 17.66 8.22 11.54
1/3/2023 5:00:00 AM 7.51 45.518 0.285 17.66 8.59 11.54
1/3/2023 5:15:00 AM 7.5 45.5 0.285 17.66 8.7 11.54
1/3/2023 5:30:00 AM 7.49 45.482 0.285 17.66 9.83 11.53
1/3/2023 5:45:00 AM 7.48 45.464 0.286 17.66 9.64 11.54
1/3/2023 6:00:00 AM 7.48 45.464 0.286 17.66 8.65 11.54
1/3/2023 6:15:00 AM 7.46 45.428 0.286 17.66 8.7 11.54
1/3/2023 6:30:00 AM 7.45 45.41 0.286 17.66 9.35 11.54
1/3/2023 6:45:00 AM 7.44 45.392 0.286 17.66 9.2 11.54
1/3/2023 7:00:00 AM 7.43 45.374 0.286 17.66 8.99 11.54
1/3/2023 7:15:00 AM 7.42 45.356 0.286 17.67 8.78 11.55
1/3/2023 7:30:00 AM 7.41 45.338 0.286 17.67 8.58 11.55
1/3/2023 7:45:00 AM 7.42 45.356 0.286 17.67 8.95 11.56
1/3/2023 8:00:00 AM 7.42 45.356 0.286 17.67 8.28 11.57
1/3/2023 8:15:00 AM 7.42 45.356 0.286 17.67 8.08 11.57
1/3/2023 8:30:00 AM 7.43 45.374 0.286 17.66 8.55 11.59
1/3/2023 8:45:00 AM 7.45 45.41 0.286 17.66 9.31 11.61
1/3/2023 9:00:00 AM 7.48 45.464 0.286 17.66 8.29 11.64
1/3/2023 9:15:00 AM 7.5 45.5 0.286 17.66 8.8 11.65
1/3/2023 9:30:00 AM 7.52 45.536 0.286 17.66 6.93 11.66
1/3/2023 9:45:00 AM 7.54 45.572 0.286 17.66 8.61 11.67
1/3/2023 10:00:00 AM 7.57 45.626 0.285 17.66 8.3 11.69
1/3/2023 10:15:00 AM 7.6 45.68 0.284 17.66 7.98 11.69
1/3/2023 10:30:00 AM 7.63 45.734 0.284 17.66 8.4 11.7
1/3/2023 10:45:00 AM 7.68 45.824 0.284 17.66 8.98 11.72
1/3/2023 11:00:00 AM 7.73 45.914 0.283 17.65 8.81 11.73
1/3/2023 11:15:00 AM 7.78 46.004 0.283 17.65 8.57 11.76
1/3/2023 11:30:00 AM 7.83 46.094 0.283 17.65 8.91 11.77
1/3/2023 11:45:00 AM 7.89 46.202 0.283 17.65 8.76 11.79
1/3/2023 12:00:00 PM 7.96 46.328 0.282 17.65 8.49 11.81
1/3/2023 12:15:00 PM 8.01 46.418 0.282 17.64 8.7 11.81
1/3/2023 12:30:00 PM 8.07 46.526 0.282 17.64 9.39 11.8
1/3/2023 12:45:00 PM 8.14 46.652 0.282 17.64 7.99 11.81
1/3/2023 1:00:00 PM 8.2 46.76 0.282 17.63 8.78 11.81
1/3/2023 1:15:00 PM 8.27 46.886 0.282 17.63 9.04 11.78
1/3/2023 1:30:00 PM 8.32 46.976 0.281 17.63 9.46 11.76
1/3/2023 1:45:00 PM 8.39 47.102 0.281 17.62 9.54 11.77
1/3/2023 2:00:00 PM 8.45 47.21 0.281 17.62 9.58 11.77
1/3/2023 2:15:00 PM 8.5 47.3 0.281 17.62 9.08 11.75
1/3/2023 2:30:00 PM 8.55 47.39 0.28 17.62 8.97 11.72
1/3/2023 2:45:00 PM 8.59 47.462 0.28 17.61 8.06 11.71
1/3/2023 3:00:00 PM 8.64 47.552 0.28 17.61 8 11.7
1/3/2023 3:15:00 PM 8.7 47.66 0.281 17.61 9.13 11.69
1/3/2023 3:30:00 PM 8.74 47.732 0.281 17.61 9.14 11.67
1/3/2023 3:45:00 PM 8.77 47.786 0.281 17.61 9.36 11.65
1/3/2023 4:00:00 PM 8.79 47.822 0.281 17.61 8.69 11.62
1/3/2023 4:15:00 PM 8.8 47.84 0.281 17.61 9.38 11.58
1/3/2023 4:30:00 PM 8.81 47.858 0.281 17.6 7.68 11.54
1/3/2023 4:45:00 PM 8.8 47.84 0.281 17.61 7.86 11.49
1/3/2023 5:00:00 PM 8.79 47.822 0.281 17.61 8.68 11.45
1/3/2023 5:15:00 PM 8.77 47.786 0.282 17.61 8.44 11.41
1/3/2023 5:30:00 PM 8.75 47.75 0.282 17.61 8.85 11.37
1/3/2023 5:45:00 PM 8.72 47.696 0.282 17.61 8.5 11.34
1/3/2023 6:00:00 PM 8.69 47.642 0.282 17.61 8.9 11.3
1/3/2023 6:15:00 PM 8.66 47.588 0.282 17.61 8.6 11.27
1/3/2023 6:30:00 PM 8.62 47.516 0.282 17.61 9.06 11.26
1/3/2023 6:45:00 PM 8.59 47.462 0.282 17.62 8.66 11.24
1/3/2023 7:00:00 PM 8.56 47.408 0.283 17.61 8.51 11.23
1/3/2023 7:15:00 PM 8.53 47.354 0.283 17.62 9.18 11.22
1/3/2023 7:30:00 PM 8.49 47.282 0.283 17.62 9.19 11.22
1/3/2023 7:45:00 PM 8.46 47.228 0.283 17.62 9.15 11.21
1/3/2023 8:00:00 PM 8.42 47.156 0.283 17.62 9.48 11.21
1/3/2023 8:15:00 PM 8.39 47.102 0.283 17.62 8.91 11.2
1/3/2023 8:30:00 PM 8.36 47.048 0.283 17.63 8.69 11.2
1/3/2023 8:45:00 PM 8.34 47.012 0.283 17.63 9.05 11.2
1/3/2023 9:00:00 PM 8.32 46.976 0.283 17.63 8.85 11.2
1/3/2023 9:15:00 PM 8.3 46.94 0.283 17.63 8.97 11.2
1/3/2023 9:30:00 PM 8.28 46.904 0.283 17.63 8.83 11.21
1/3/2023 9:45:00 PM 8.27 46.886 0.284 17.63 9.5 11.21
1/3/2023 10:00:00 PM 8.26 46.868 0.284 17.63 9.11 11.21
1/3/2023 10:15:00 PM 8.25 46.85 0.284 17.63 9.27 11.21
1/3/2023 10:30:00 PM 8.25 46.85 0.284 17.63 9.29 11.22
1/3/2023 10:45:00 PM 8.25 46.85 0.284 17.63 9.04 11.22
1/3/2023 11:00:00 PM 8.25 46.85 0.284 17.63 9.27 11.22
1/3/2023 11:15:00 PM 8.25 46.85 0.284 17.63 8.79 11.22
1/3/2023 11:30:00 PM 8.25 46.85 0.284 17.63 9.19 11.22
1/3/2023 11:45:00 PM 8.25 46.85 0.285 17.63 10.17 11.22
1/4/2023 12:00:00 AM 8.25 46.85 0.285 17.63 10.03 11.22
1/4/2023 12:15:00 AM 8.25 46.85 0.285 17.63 9.18 11.22
1/4/2023 12:30:00 AM 8.25 46.85 0.285 17.63 9.12 11.22
1/4/2023 12:45:00 AM 8.25 46.85 0.285 17.63 9.94 11.22
1/4/2023 1:00:00 AM 8.24 46.832 0.286 17.63 9.46 11.22
1/4/2023 1:15:00 AM 8.24 46.832 0.286 17.63 8.78 11.22
1/4/2023 1:30:00 AM 8.24 46.832 0.286 17.63 10.19 11.22
1/4/2023 1:45:00 AM 8.23 46.814 0.286 17.63 9.28 11.23
1/4/2023 2:00:00 AM 8.23 46.814 0.286 17.63 6.4 11.23
1/4/2023 2:15:00 AM 8.22 46.796 0.286 17.63 6.33 11.23
1/4/2023 2:30:00 AM 8.2 46.76 0.286 17.63 6.66 11.24
1/4/2023 2:45:00 AM 8.19 46.742 0.286 17.63 6.68 11.25
1/4/2023 3:00:00 AM 8.17 46.706 0.286 17.63 6.62 11.25
1/4/2023 3:15:00 AM 8.15 46.67 0.286 17.64 6.4 11.26
1/4/2023 3:30:00 AM 8.13 46.634 0.287 17.64 6.48 11.26
1/4/2023 3:45:00 AM 8.11 46.598 0.287 17.64 6.38 11.27
1/4/2023 4:00:00 AM 8.09 46.562 0.287 17.64 6.14 11.27
1/4/2023 4:15:00 AM 8.07 46.526 0.287 17.64 6.04 11.28
1/4/2023 4:30:00 AM 8.04 46.472 0.287 17.64 6.16 11.29
1/4/2023 4:45:00 AM 8.01 46.418 0.287 17.64 6.1 11.3
1/4/2023 5:00:00 AM 7.98 46.364 0.287 17.64 5.86 11.3
1/4/2023 5:15:00 AM 7.96 46.328 0.287 17.64 6.32 11.31
1/4/2023 5:30:00 AM 7.92 46.256 0.287 17.65 6.67 11.32
1/4/2023 5:45:00 AM 7.89 46.202 0.288 17.65 6.36 11.33
1/4/2023 6:00:00 AM 7.87 46.166 0.288 17.65 6.61 11.34
1/4/2023 6:15:00 AM 7.83 46.094 0.288 17.65 6.26 11.35
1/4/2023 6:30:00 AM 7.8 46.04 0.288 17.65 5.84 11.35
1/4/2023 6:45:00 AM 7.78 46.004 0.288 17.65 5.68 11.36
1/4/2023 7:00:00 AM 7.75 45.95 0.289 17.65 5.86 11.37
1/4/2023 7:15:00 AM 7.73 45.914 0.289 17.65 5.63 11.37
1/4/2023 7:30:00 AM 7.71 45.878 0.289 17.65 5.85 11.38
1/4/2023 7:45:00 AM 7.7 45.86 0.289 17.65 5.41 11.39
1/4/2023 8:00:00 AM 7.69 45.842 0.29 17.66 5.4 11.41
1/4/2023 8:15:00 AM 7.68 45.824 0.29 17.66 5.77 11.43
1/4/2023 8:30:00 AM 7.69 45.842 0.29 17.65 5.5 11.46
1/4/2023 8:45:00 AM 7.71 45.878 0.29 17.65 5.21 11.5
1/4/2023 9:00:00 AM 7.74 45.932 0.29 17.65 5.2 11.54
1/4/2023 9:15:00 AM 7.78 46.004 0.29 17.65 5.27 11.59
1/4/2023 9:30:00 AM 7.83 46.094 0.29 17.65 5.13 11.64
1/4/2023 9:45:00 AM 7.9 46.22 0.29 17.65 5.14 11.69
1/4/2023 10:00:00 AM 7.96 46.328 0.29 17.64 5.13 11.73
1/4/2023 10:15:00 AM 8.05 46.49 0.29 17.64 4.94 11.76
1/4/2023 10:30:00 AM 8.13 46.634 0.29 17.64 5.06 11.79
1/4/2023 10:45:00 AM 8.23 46.814 0.29 17.63 4.99 11.82
1/4/2023 11:00:00 AM 8.33 46.994 0.29 17.63 5.65 11.84
1/4/2023 11:15:00 AM 8.45 47.21 0.29 17.62 5.12 11.86
1/4/2023 11:30:00 AM 8.57 47.426 0.29 17.61 5.05 11.88
1/4/2023 11:45:00 AM 8.69 47.642 0.29 17.6 4.86 11.88
1/4/2023 12:00:00 PM 8.83 47.894 0.29 17.6 4.95 11.87
1/4/2023 12:15:00 PM 8.99 48.182 0.29 17.59 4.99 11.87
1/4/2023 12:30:00 PM 9.15 48.47 0.29 17.59 4.9 11.86
1/4/2023 12:45:00 PM 9.28 48.704 0.29 17.59 4.88 11.83
1/4/2023 1:00:00 PM 9.41 48.938 0.29 17.59 4.97 11.8
1/4/2023 1:15:00 PM 9.51 49.118 0.289 17.55 4.88 11.76
1/4/2023 1:30:00 PM 9.61 49.298 0.289 17.55 4.96 11.72
1/4/2023 1:45:00 PM 9.7 49.46 0.289 17.54 4.85 11.69
1/4/2023 2:00:00 PM 9.78 49.604 0.289 17.54 4.98 11.64
1/4/2023 2:15:00 PM 9.84 49.712 0.289 17.53 5.09 11.6
1/4/2023 2:30:00 PM 9.88 49.784 0.289 17.53 4.97 11.55
1/4/2023 2:45:00 PM 9.94 49.892 0.289 17.53 4.99 11.51
1/4/2023 3:00:00 PM 9.96 49.928 0.288 17.53 4.84 11.46
1/4/2023 3:15:00 PM 9.98 49.964 0.288 17.52 4.77 11.39
1/4/2023 3:30:00 PM 9.99 49.982 0.288 17.52 4.85 11.33
1/4/2023 3:45:00 PM 9.99 49.982 0.288 17.52 4.77 11.29
1/4/2023 4:00:00 PM 9.99 49.982 0.288 17.52 4.69 11.24
1/4/2023 4:15:00 PM 10 50 0.288 17.52 4.75 11.19
1/4/2023 4:30:00 PM 10.01 50.018 0.288 17.52 4.67 11.14
1/4/2023 4:45:00 PM 10 50 0.288 17.52 5.14 11.09
1/4/2023 5:00:00 PM 10 50 0.288 17.52 4.88 11.04
1/4/2023 5:15:00 PM 9.98 49.964 0.288 17.52 4.93 11
1/4/2023 5:30:00 PM 9.96 49.928 0.288 17.52 4.92 10.97
1/4/2023 5:45:00 PM 9.95 49.91 0.288 17.52 4.96 10.94
1/4/2023 6:00:00 PM 9.94 49.892 0.288 17.52 4.99 10.91
1/4/2023 6:15:00 PM 9.92 49.856 0.288 17.52 5.03 10.89
1/4/2023 6:30:00 PM 9.9 49.82 0.288 17.52 5.14 10.88
1/4/2023 6:45:00 PM 9.89 49.802 0.288 17.52 5.33 10.85
1/4/2023 7:00:00 PM 9.89 49.802 0.288 17.52 5.21 10.83
1/4/2023 7:15:00 PM 9.9 49.82 0.288 17.51 5.48 10.81
1/4/2023 7:30:00 PM 9.92 49.856 0.288 17.51 5.24 10.8
1/4/2023 7:45:00 PM 9.92 49.856 0.288 17.51 5.41 10.79
1/4/2023 8:00:00 PM 9.93 49.874 0.288 17.51 5.18 10.78
1/4/2023 8:15:00 PM 9.94 49.892 0.288 17.5 5.3 10.77
1/4/2023 8:30:00 PM 9.95 49.91 0.288 17.51 5.34 10.76
1/4/2023 8:45:00 PM 9.97 49.946 0.288 17.51 5.59 10.75
1/4/2023 9:00:00 PM 9.98 49.964 0.288 17.5 5.43 10.75
1/4/2023 9:15:00 PM 10 50 0.288 17.5 5.41 10.74
1/4/2023 9:30:00 PM 10.02 50.036 0.287 17.5 5.64 10.73
1/4/2023 9:45:00 PM 10.04 50.072 0.287 17.5 6.37 10.73
1/4/2023 10:00:00 PM 10.07 50.126 0.287 17.49 5.62 10.72
1/4/2023 10:15:00 PM 10.09 50.162 0.287 17.49 5.67 10.71
1/4/2023 10:30:00 PM 10.11 50.198 0.287 17.49 5.53 10.7
1/4/2023 10:45:00 PM 10.12 50.216 0.287 17.49 5.21 10.7
1/4/2023 11:00:00 PM 10.13 50.234 0.287 17.49 13.21 10.7
1/4/2023 11:15:00 PM 10.14 50.252 0.287 17.49 5.28 10.69
1/4/2023 11:30:00 PM 10.12 50.216 0.287 17.49 6.17 10.69
1/4/2023 11:45:00 PM 10.12 50.216 0.287 17.49 5.49 10.69
1/5/2023 12:00:00 AM 10.12 50.216 0.288 17.49 5.29 10.69
1/5/2023 12:15:00 AM 10.1 50.18 0.288 17.49 5.43 10.69
1/5/2023 12:30:00 AM 10.08 50.144 0.288 17.49 5.18 10.7
1/5/2023 12:45:00 AM 10.06 50.108 0.288 17.5 5.68 10.7
1/5/2023 1:00:00 AM 10.05 50.09 0.288 17.5 5.49 10.71
1/5/2023 1:15:00 AM 10.02 50.036 0.288 17.49 5.5 10.71
1/5/2023 1:30:00 AM 10 50 0.288 17.5 5.3 10.72
1/5/2023 1:45:00 AM 9.97 49.946 0.288 17.49 5.42 10.73
1/5/2023 2:00:00 AM 9.94 49.892 0.288 17.5 5.71 10.74
1/5/2023 2:15:00 AM 9.91 49.838 0.288 17.51 5.44 10.75
1/5/2023 2:30:00 AM 9.89 49.802 0.288 17.51 5.27 10.75
1/5/2023 2:45:00 AM 9.87 49.766 0.288 17.52 5.39 10.75
1/5/2023 3:00:00 AM 9.85 49.73 0.288 17.53 5.67 10.76
1/5/2023 3:15:00 AM 9.84 49.712 0.288 17.52 6.09 10.76
1/5/2023 3:30:00 AM 9.82 49.676 0.288 17.52 5.78 10.77
1/5/2023 3:45:00 AM 9.79 49.622 0.288 17.52 5.68 10.78
1/5/2023 4:00:00 AM 9.77 49.586 0.288 17.53 6.02 10.78
1/5/2023 4:15:00 AM 9.73 49.514 0.288 17.53 6.02 10.79
1/5/2023 4:30:00 AM 9.7 49.46 0.288 17.53 5.75 10.79
1/5/2023 4:45:00 AM 9.66 49.388 0.288 17.54 5.67 10.8
1/5/2023 5:00:00 AM 9.62 49.316 0.288 17.54 6.09 10.8
1/5/2023 5:15:00 AM 9.58 49.244 0.288 17.55 6.38 10.81
1/5/2023 5:30:00 AM 9.53 49.154 0.288 17.55 6.24 10.82
1/5/2023 5:45:00 AM 9.49 49.082 0.288 17.56 6.05 10.83
1/5/2023 6:00:00 AM 9.44 48.992 0.288 17.56 6.34 10.85
1/5/2023 6:15:00 AM 9.39 48.902 0.288 17.57 6.66 10.86
1/5/2023 6:30:00 AM 9.34 48.812 0.288 17.58 5.94 10.88
1/5/2023 6:45:00 AM 9.29 48.722 0.289 17.59 6.19 10.89
1/5/2023 7:00:00 AM 9.23 48.614 0.289 17.59 5.78 10.91
1/5/2023 7:15:00 AM 9.19 48.542 0.289 17.59 5.87 10.93
1/5/2023 7:30:00 AM 9.15 48.47 0.289 17.59 5.47 10.95
1/5/2023 7:45:00 AM 9.11 48.398 0.289 17.6 5.41 10.97
1/5/2023 8:00:00 AM 9.07 48.326 0.289 17.6 5.49 11
1/5/2023 8:15:00 AM 9.04 48.272 0.289 17.6 5.32 11.04
1/5/2023 8:30:00 AM 9.01 48.218 0.289 17.6 5.07 11.07
1/5/2023 8:45:00 AM 9.01 48.218 0.289 17.6 4.84 11.13
1/5/2023 9:00:00 AM 8.99 48.182 0.289 17.61 5.06 11.19
1/5/2023 9:15:00 AM 8.99 48.182 0.289 17.59 5.06 11.24
1/5/2023 9:30:00 AM 9.01 48.218 0.289 17.6 5.06 11.3
1/5/2023 9:45:00 AM 9.05 48.29 0.289 17.6 4.84 11.37
1/5/2023 10:00:00 AM 9.11 48.398 0.289 17.56 4.81 11.44
1/5/2023 10:15:00 AM 9.17 48.506 0.289 17.54 4.52 11.5
1/5/2023 10:30:00 AM 9.24 48.632 0.289 17.54 4.79 11.55
1/5/2023 10:45:00 AM 9.32 48.776 0.289 17.54 4.49 11.59
1/5/2023 11:00:00 AM 9.37 48.866 0.289 17.54 4.63 11.61
1/5/2023 11:15:00 AM 9.5 49.1 0.289 17.57 4.53 11.63
1/5/2023 11:30:00 AM 9.62 49.316 0.288 17.58 4.65 11.64
1/5/2023 11:45:00 AM 9.68 49.424 0.288 17.58 4.58 11.66
1/5/2023 12:00:00 PM 9.79 49.622 0.288 17.55 4.59 11.67
1/5/2023 12:15:00 PM 9.86 49.748 0.288 17.57 4.52 11.67
1/5/2023 12:30:00 PM 9.95 49.91 0.288 17.56 4.78 11.66
1/5/2023 12:45:00 PM 10.12 50.216 0.288 17.49 5.08 11.66
1/5/2023 1:00:00 PM 10.16 50.288 0.288 17.56 4.94 11.64
1/5/2023 1:15:00 PM 10.22 50.396 0.288 17.49 5.16 11.62
1/5/2023 1:30:00 PM 10.27 50.486 0.288 17.48 4.67 11.61
1/5/2023 1:45:00 PM 10.32 50.576 0.287 17.52 4.95 11.6
1/5/2023 2:00:00 PM 10.37 50.666 0.287 17.55 4.97 11.57
1/5/2023 2:15:00 PM 10.4 50.72 0.287 17.55 4.92 11.53
1/5/2023 2:30:00 PM 10.44 50.792 0.287 17.53 4.92 11.49
1/5/2023 2:45:00 PM 10.48 50.864 0.287 17.53 4.77 11.49
1/5/2023 3:00:00 PM 10.48 50.864 0.287 17.53 4.88 11.45
1/5/2023 3:15:00 PM 10.48 50.864 0.287 17.53 4.72 11.38
1/5/2023 3:30:00 PM 10.49 50.882 0.287 17.52 4.8 11.34
1/5/2023 3:45:00 PM 10.48 50.864 0.287 17.53 4.52 11.3
1/5/2023 4:00:00 PM 10.46 50.828 0.287 17.54 4.77 11.25
1/5/2023 4:15:00 PM 10.43 50.774 0.287 17.55 4.81 11.2
1/5/2023 4:30:00 PM 10.39 50.702 0.287 17.55 4.76 11.15
1/5/2023 4:45:00 PM 10.36 50.648 0.287 17.55 4.86 11.1
1/5/2023 5:00:00 PM 10.32 50.576 0.287 17.56 4.65 11.05
1/5/2023 5:15:00 PM 10.27 50.486 0.287 17.56 4.88 11
1/5/2023 5:30:00 PM 10.22 50.396 0.287 17.56 5.06 10.95
1/5/2023 5:45:00 PM 10.18 50.324 0.287 17.56 5.17 10.92
1/5/2023 6:00:00 PM 10.13 50.234 0.287 17.56 5.05 10.89
1/5/2023 6:15:00 PM 10.08 50.144 0.287 17.57 5.05 10.87
1/5/2023 6:30:00 PM 10.04 50.072 0.287 17.57 5.27 10.85
1/5/2023 6:45:00 PM 10 50 0.287 17.57 5.97 10.84
1/5/2023 7:00:00 PM 9.95 49.91 0.287 17.57 5.36 10.83
1/5/2023 7:15:00 PM 9.91 49.838 0.287 17.57 5.49 10.82
1/5/2023 7:30:00 PM 9.87 49.766 0.287 17.57 5.58 10.82
1/5/2023 7:45:00 PM 9.81 49.658 0.287 17.58 5.55 10.83
1/5/2023 8:00:00 PM 9.77 49.586 0.287 17.58 5.34 10.83
1/5/2023 8:15:00 PM 9.74 49.532 0.286 17.58 5.41 10.83
1/5/2023 8:30:00 PM 9.7 49.46 0.286 17.58 5.5 10.83
1/5/2023 8:45:00 PM 9.67 49.406 0.286 17.58 5.02 10.83
1/5/2023 9:00:00 PM 9.65 49.37 0.286 17.58 5.33 10.84
1/5/2023 9:15:00 PM 9.62 49.316 0.286 17.58 5.24 10.84
1/5/2023 9:30:00 PM 9.6 49.28 0.286 17.58 5.24 10.84
1/5/2023 9:45:00 PM 9.58 49.244 0.286 17.58 5.38 10.85
1/5/2023 10:00:00 PM 9.56 49.208 0.286 17.58 6.05 10.85
1/5/2023 10:15:00 PM 9.53 49.154 0.285 17.59 5.49 10.86
1/5/2023 10:30:00 PM 9.52 49.136 0.285 17.59 5.32 10.87
1/5/2023 10:45:00 PM 9.5 49.1 0.285 17.59 5.22 10.87
1/5/2023 11:00:00 PM 9.48 49.064 0.285 17.59 4.77 10.88
1/5/2023 11:15:00 PM 9.47 49.046 0.285 17.59 4.74 10.88
1/5/2023 11:30:00 PM 9.45 49.01 0.285 17.59 4.69 10.89
1/5/2023 11:45:00 PM 9.42 48.956 0.285 17.59 4.82 10.9
1/6/2023 12:00:00 AM 9.39 48.902 0.285 17.59 4.81 10.9
1/6/2023 12:15:00 AM 9.35 48.83 0.285 17.59 4.95 10.91
1/6/2023 12:30:00 AM 9.32 48.776 0.285 17.59 4.79 10.92
1/6/2023 12:45:00 AM 9.27 48.686 0.284 17.6 4.67 10.93
1/6/2023 1:00:00 AM 9.23 48.614 0.284 17.6 4.89 10.94
1/6/2023 1:15:00 AM 9.2 48.56 0.284 17.6 4.77 10.95
1/6/2023 1:30:00 AM 9.14 48.452 0.284 17.6 4.74 10.96
1/6/2023 1:45:00 AM 9.11 48.398 0.284 17.6 4.68 10.96
1/6/2023 2:00:00 AM 9.07 48.326 0.284 17.6 4.88 10.97
1/6/2023 2:15:00 AM 9.03 48.254 0.284 17.6 4.79 10.97
1/6/2023 2:30:00 AM 8.97 48.146 0.284 17.61 4.89 10.97
1/6/2023 2:45:00 AM 8.92 48.056 0.284 17.61 5 10.98
1/6/2023 3:00:00 AM 8.87 47.966 0.285 17.61 4.83 10.99
1/6/2023 3:15:00 AM 8.82 47.876 0.285 17.61 5.05 11.01
1/6/2023 3:30:00 AM 8.77 47.786 0.285 17.61 4.99 11.02
1/6/2023 3:45:00 AM 8.72 47.696 0.285 17.62 4.93 11.03
1/6/2023 4:00:00 AM 8.68 47.624 0.285 17.62 5.26 11.04
1/6/2023 4:15:00 AM 8.63 47.534 0.285 17.62 4.93 11.06
1/6/2023 4:30:00 AM 8.59 47.462 0.285 17.62 4.86 11.07
1/6/2023 4:45:00 AM 8.55 47.39 0.285 17.62 6.05 11.09
1/6/2023 5:00:00 AM 8.5 47.3 0.285 17.62 5.62 11.1
1/6/2023 5:15:00 AM 8.46 47.228 0.285 17.63 5.29 11.11
1/6/2023 5:30:00 AM 8.43 47.174 0.286 17.63 5.3 11.12
1/6/2023 5:45:00 AM 8.39 47.102 0.286 17.63 5.02 11.12
1/6/2023 6:00:00 AM 8.36 47.048 0.286 17.63 4.86 11.12
1/6/2023 6:15:00 AM 8.32 46.976 0.286 17.63 4.99 11.13
1/6/2023 6:30:00 AM 8.29 46.922 0.286 17.63 4.93 11.15
1/6/2023 6:45:00 AM 8.26 46.868 0.286 17.63 6.11 11.16
1/6/2023 7:00:00 AM 8.23 46.814 0.286 17.63 5.05 11.17
1/6/2023 7:15:00 AM 8.21 46.778 0.286 17.64 4.88 11.19
1/6/2023 7:30:00 AM 8.19 46.742 0.286 17.64 4.66 11.2
1/6/2023 7:45:00 AM 8.17 46.706 0.286 17.64 4.72 11.22
1/6/2023 8:00:00 AM 8.15 46.67 0.286 17.64 4.93 11.23
1/6/2023 8:15:00 AM 8.14 46.652 0.286 17.64 4.88 11.26
1/6/2023 8:30:00 AM 8.14 46.652 0.286 17.64 4.48 11.3
1/6/2023 8:45:00 AM 8.14 46.652 0.286 17.64 4.6 11.36
1/6/2023 9:00:00 AM 8.16 46.688 0.286 17.64 4.53 11.41
1/6/2023 9:15:00 AM 8.17 46.706 0.286 17.64 4.65 11.46
1/6/2023 9:30:00 AM 8.2 46.76 0.286 17.64 4.46 11.53
1/6/2023 9:45:00 AM 8.23 46.814 0.286 17.63 4.48 11.59
1/6/2023 10:00:00 AM 8.27 46.886 0.286 17.63 4.44 11.65
1/6/2023 10:15:00 AM 8.3 46.94 0.286 17.63 4.39 11.71
1/6/2023 10:30:00 AM 8.37 47.066 0.286 17.63 4.59 11.77
1/6/2023 10:45:00 AM 8.42 47.156 0.287 17.63 4.57 11.83
1/6/2023 11:00:00 AM 8.5 47.3 0.287 17.62 4.45 11.87
1/6/2023 11:15:00 AM 8.59 47.462 0.287 17.62 4.37 11.9
1/6/2023 11:30:00 AM 8.67 47.606 0.287 17.62 4.62 11.93
1/6/2023 11:45:00 AM 8.69 47.642 0.287 17.62 4.43 11.93
1/6/2023 12:00:00 PM 8.78 47.804 0.286 17.61 4.45 11.94
1/6/2023 12:15:00 PM 8.88 47.984 0.286 17.61 4.46 11.95
1/6/2023 12:30:00 PM 8.88 47.984 0.286 17.61 4.56 11.95
1/6/2023 12:45:00 PM 8.93 48.074 0.286 17.61 4.33 11.94
1/6/2023 1:00:00 PM 9.05 48.29 0.286 17.6 4.46 11.96
1/6/2023 1:15:00 PM 9.07 48.326 0.286 17.6 4.45 11.96
1/6/2023 1:30:00 PM 9.12 48.416 0.286 17.6 4.43 11.96
1/6/2023 1:45:00 PM 9.06 48.308 0.286 17.6 4.44 11.97
1/6/2023 2:00:00 PM 9 48.2 0.286 17.61 4.46 11.94
1/6/2023 2:15:00 PM 9 48.2 0.286 17.61 4.29 11.91
1/6/2023 2:30:00 PM 9.03 48.254 0.286 17.6 4.28 11.88
1/6/2023 2:45:00 PM 9.03 48.254 0.286 17.6 4.35 11.85
1/6/2023 3:00:00 PM 9.06 48.308 0.286 17.6 4.47 11.84
1/6/2023 3:15:00 PM 9.07 48.326 0.286 17.6 4.34 11.81
1/6/2023 3:30:00 PM 9.07 48.326 0.286 17.6 4.22 11.76
1/6/2023 3:45:00 PM 9.04 48.272 0.286 17.6 4.36 11.7
1/6/2023 4:00:00 PM 8.99 48.182 0.286 17.61 4.35 11.67
1/6/2023 4:15:00 PM 8.9 48.02 0.286 17.61 4.19 11.64
1/6/2023 4:30:00 PM 8.82 47.876 0.286 17.61 4.49 11.62
1/6/2023 4:45:00 PM 8.75 47.75 0.286 17.62 4.24 11.58
1/6/2023 5:00:00 PM 8.68 47.624 0.287 17.62 4.3 11.55
1/6/2023 5:15:00 PM 8.6 47.48 0.287 17.62 4.28 11.52
1/6/2023 5:30:00 PM 8.5 47.3 0.287 17.62 4.4 11.49
1/6/2023 5:45:00 PM 8.4 47.12 0.287 17.63 4.37 11.47
1/6/2023 6:00:00 PM 8.32 46.976 0.287 17.63 4.53 11.43
1/6/2023 6:15:00 PM 8.24 46.832 0.287 17.63 4.25 11.42
1/6/2023 6:30:00 PM 8.18 46.724 0.287 17.64 4.3 11.41
1/6/2023 6:45:00 PM 8.08 46.544 0.287 17.64 4.33 11.41
1/6/2023 7:00:00 PM 8 46.4 0.287 17.64 4.25 11.4
1/6/2023 7:15:00 PM 7.91 46.238 0.287 17.65 4.28 11.41
1/6/2023 7:30:00 PM 7.84 46.112 0.287 17.65 4.48 11.41
1/6/2023 7:45:00 PM 7.75 45.95 0.288 17.65 4.41 11.42
1/6/2023 8:00:00 PM 7.68 45.824 0.288 17.66 4.56 11.42
1/6/2023 8:15:00 PM 7.63 45.734 0.288 17.66 4.55 11.42
1/6/2023 8:30:00 PM 7.58 45.644 0.288 17.66 4.52 11.44
1/6/2023 8:45:00 PM 7.53 45.554 0.288 17.66 4.42 11.45
1/6/2023 9:00:00 PM 7.49 45.482 0.288 17.66 4.35 11.47
1/6/2023 9:15:00 PM 7.45 45.41 0.289 17.66 4.31 11.48
1/6/2023 9:30:00 PM 7.42 45.356 0.289 17.67 4.43 11.49
1/6/2023 9:45:00 PM 7.38 45.284 0.289 17.67 4.21 11.5
1/6/2023 10:00:00 PM 7.36 45.248 0.289 17.67 4.33 11.51
1/6/2023 10:15:00 PM 7.33 45.194 0.29 17.67 4.36 11.51
1/6/2023 10:30:00 PM 7.31 45.158 0.29 17.67 4.38 11.52
1/6/2023 10:45:00 PM 7.28 45.104 0.29 17.67 4.46 11.53
1/6/2023 11:00:00 PM 7.24 45.032 0.29 17.67 4.68 11.54
1/6/2023 11:15:00 PM 7.18 44.924 0.29 17.67 4.56 11.55
1/6/2023 11:30:00 PM 7.13 44.834 0.291 17.68 4.87 11.55
1/6/2023 11:45:00 PM 7.07 44.726 0.291 17.68 4.43 11.56
1/7/2023 12:00:00 AM 7.03 44.654 0.291 17.68 4.47 11.57
1/7/2023 12:15:00 AM 7 44.6 0.291 17.68 4.36 11.58
1/7/2023 12:30:00 AM 6.97 44.546 0.292 17.68 4.59 11.59
1/7/2023 12:45:00 AM 6.94 44.492 0.292 17.68 4.83 11.6
1/7/2023 1:00:00 AM 6.91 44.438 0.292 17.68 4.4 11.62
1/7/2023 1:15:00 AM 6.88 44.384 0.292 17.69 4.16 11.63
1/7/2023 1:30:00 AM 6.86 44.348 0.292 17.69 4.36 11.64
1/7/2023 1:45:00 AM 6.85 44.33 0.292 17.69 4.36 11.65
1/7/2023 2:00:00 AM 6.83 44.294 0.292 17.69 4.43 11.65
1/7/2023 2:15:00 AM 6.81 44.258 0.292 17.69 4.26 11.65
1/7/2023 2:30:00 AM 6.8 44.24 0.292 17.69 4.43 11.66
1/7/2023 2:45:00 AM 6.78 44.204 0.292 17.69 4.41 11.67
1/7/2023 3:00:00 AM 6.77 44.186 0.292 17.69 4.26 11.67
1/7/2023 3:15:00 AM 6.75 44.15 0.292 17.69 4.35 11.68
1/7/2023 3:30:00 AM 6.74 44.132 0.292 17.69 4.33 11.69
1/7/2023 3:45:00 AM 6.72 44.096 0.292 17.69 4.22 11.69
1/7/2023 4:00:00 AM 6.7 44.06 0.293 17.69 4.29 11.7
1/7/2023 4:15:00 AM 6.69 44.042 0.292 17.69 4.27 11.71
1/7/2023 4:30:00 AM 6.67 44.006 0.292 17.69 4.27 11.72
1/7/2023 4:45:00 AM 6.65 43.97 0.292 17.69 4.25 11.72
1/7/2023 5:00:00 AM 6.62 43.916 0.292 17.7 4.45 11.73
1/7/2023 5:15:00 AM 6.57 43.826 0.292 17.7 4.46 11.73
1/7/2023 5:30:00 AM 6.52 43.736 0.292 17.7 4.33 11.74
1/7/2023 5:45:00 AM 6.47 43.646 0.292 17.7 4.54 11.74
1/7/2023 6:00:00 AM 6.42 43.556 0.292 17.7 4.42 11.76
1/7/2023 6:15:00 AM 6.36 43.448 0.292 17.71 4.39 11.77
1/7/2023 6:30:00 AM 6.3 43.34 0.292 17.71 4.96 11.79
1/7/2023 6:45:00 AM 6.24 43.232 0.292 17.71 4.35 11.81
1/7/2023 7:00:00 AM 6.19 43.142 0.292 17.71 4.16 11.83
1/7/2023 7:15:00 AM 6.15 43.07 0.292 17.71 4.18 11.85
1/7/2023 7:30:00 AM 6.11 42.998 0.292 17.71 4.12 11.87
1/7/2023 7:45:00 AM 6.07 42.926 0.292 17.72 4.17 11.9
1/7/2023 8:00:00 AM 6.04 42.872 0.292 17.72 4.16 11.93
1/7/2023 8:15:00 AM 6.02 42.836 0.292 17.72 4.05 11.97
1/7/2023 8:30:00 AM 6.01 42.818 0.292 17.72 4.09 12.03
1/7/2023 8:45:00 AM 6.01 42.818 0.292 17.72 4.09 12.09
1/7/2023 9:00:00 AM 6.03 42.854 0.292 17.72 4.04 12.15
1/7/2023 9:15:00 AM 6.05 42.89 0.292 17.72 4.01 12.21
1/7/2023 9:30:00 AM 6.09 42.962 0.292 17.72 3.96 12.28
1/7/2023 9:45:00 AM 6.15 43.07 0.292 17.71 3.92 12.35
1/7/2023 10:00:00 AM 6.18 43.124 0.292 17.71 3.91 12.4
1/7/2023 10:15:00 AM 6.24 43.232 0.291 17.71 3.8 12.45
1/7/2023 10:30:00 AM 6.29 43.322 0.291 17.71 3.86 12.5
1/7/2023 10:45:00 AM 6.36 43.448 0.291 17.71 3.87 12.54
1/7/2023 11:00:00 AM 6.43 43.574 0.291 17.7 3.92 12.57
1/7/2023 11:15:00 AM 6.51 43.718 0.291 17.7 3.89 12.61
1/7/2023 11:30:00 AM 6.59 43.862 0.29 17.7 3.8 12.64
1/7/2023 11:45:00 AM 6.7 44.06 0.29 17.69 3.89 12.65
1/7/2023 12:00:00 PM 6.79 44.222 0.29 17.69 3.8 12.66
1/7/2023 12:15:00 PM 6.89 44.402 0.29 17.68 3.86 12.66
1/7/2023 12:30:00 PM 6.98 44.564 0.29 17.68 3.95 12.66
1/7/2023 12:45:00 PM 7.08 44.744 0.29 17.68 4.13 12.65
1/7/2023 1:00:00 PM 7.18 44.924 0.29 17.67 4.03 12.64
1/7/2023 1:15:00 PM 7.26 45.068 0.29 17.67 4.04 12.63
1/7/2023 1:30:00 PM 7.35 45.23 0.29 17.66 4.01 12.61
1/7/2023 1:45:00 PM 7.42 45.356 0.289 17.66 3.91 12.59
1/7/2023 2:00:00 PM 7.47 45.446 0.289 17.66 3.93 12.55
1/7/2023 2:15:00 PM 7.55 45.59 0.289 17.66 3.93 12.53
1/7/2023 2:30:00 PM 7.64 45.752 0.289 17.66 3.8 12.5
1/7/2023 2:45:00 PM 7.7 45.86 0.289 17.65 3.84 12.46
1/7/2023 3:00:00 PM 7.76 45.968 0.289 17.65 4 12.43
1/7/2023 3:15:00 PM 7.77 45.986 0.289 17.65 3.88 12.39
1/7/2023 3:30:00 PM 7.77 45.986 0.289 17.65 3.93 12.35
1/7/2023 3:45:00 PM 7.75 45.95 0.289 17.65 3.93 12.31
1/7/2023 4:00:00 PM 7.71 45.878 0.289 17.65 3.8 12.26
1/7/2023 4:15:00 PM 7.67 45.806 0.289 17.66 3.93 12.21
1/7/2023 4:30:00 PM 7.62 45.716 0.289 17.66 3.89 12.15
1/7/2023 4:45:00 PM 7.57 45.626 0.289 17.66 3.99 12.09
1/7/2023 5:00:00 PM 7.51 45.518 0.289 17.66 3.91 12.03
1/7/2023 5:15:00 PM 7.46 45.428 0.289 17.66 3.82 11.97
1/7/2023 5:30:00 PM 7.39 45.302 0.289 17.67 3.93 11.93
1/7/2023 5:45:00 PM 7.32 45.176 0.289 17.67 3.95 11.89
1/7/2023 6:00:00 PM 7.26 45.068 0.289 17.67 3.86 11.85
1/7/2023 6:15:00 PM 7.19 44.942 0.289 17.67 3.94 11.82
1/7/2023 6:30:00 PM 7.13 44.834 0.289 17.68 4.08 11.79
1/7/2023 6:45:00 PM 7.07 44.726 0.289 17.68 4.08 11.76
1/7/2023 7:00:00 PM 7.01 44.618 0.29 17.68 4.1 11.75
1/7/2023 7:15:00 PM 6.94 44.492 0.29 17.68 4.09 11.74
1/7/2023 7:30:00 PM 6.87 44.366 0.29 17.69 4.02 11.75
1/7/2023 7:45:00 PM 6.81 44.258 0.29 17.69 4.05 11.75
1/7/2023 8:00:00 PM 6.75 44.15 0.289 17.69 4.05 11.76
1/7/2023 8:15:00 PM 6.68 44.024 0.289 17.69 3.95 11.76
1/7/2023 8:30:00 PM 6.61 43.898 0.289 17.7 4.09 11.77
1/7/2023 8:45:00 PM 6.54 43.772 0.289 17.7 3.97 11.78
1/7/2023 9:00:00 PM 6.47 43.646 0.289 17.7 3.98 11.79
1/7/2023 9:15:00 PM 6.4 43.52 0.289 17.7 3.99 11.8
1/7/2023 9:30:00 PM 6.33 43.394 0.289 17.71 3.98 11.82
1/7/2023 9:45:00 PM 6.27 43.286 0.289 17.71 3.89 11.84
1/7/2023 10:00:00 PM 6.21 43.178 0.289 17.71 4.01 11.85
1/7/2023 10:15:00 PM 6.15 43.07 0.289 17.71 8.66 11.87
1/7/2023 10:30:00 PM 6.1 42.98 0.289 17.72 4.05 11.89
1/7/2023 10:45:00 PM 6.04 42.872 0.289 17.72 4.02 11.92
1/7/2023 11:00:00 PM 5.99 42.782 0.289 17.72 4.11 11.94
1/7/2023 11:15:00 PM 5.93 42.674 0.289 17.72 3.92 11.95
1/7/2023 11:30:00 PM 5.87 42.566 0.289 17.72 3.93 11.97
1/7/2023 11:45:00 PM 5.81 42.458 0.289 17.73 3.9 11.98
1/8/2023 12:00:00 AM 5.75 42.35 0.289 17.73 3.89 12
1/8/2023 12:15:00 AM 5.69 42.242 0.29 17.73 3.91 12.02
1/8/2023 12:30:00 AM 5.63 42.134 0.29 17.73 3.84 12.05
1/8/2023 12:45:00 AM 5.57 42.026 0.29 17.74 3.88 12.07
1/8/2023 1:00:00 AM 5.51 41.918 0.29 17.74 3.81 12.09
1/8/2023 1:15:00 AM 5.45 41.81 0.29 17.74 3.85 12.11
1/8/2023 1:30:00 AM 5.39 41.702 0.29 17.74 3.84 12.14
1/8/2023 1:45:00 AM 5.34 41.612 0.29 17.75 4.27 12.16
1/8/2023 2:00:00 AM 5.28 41.504 0.29 17.75 3.89 12.18
1/8/2023 2:15:00 AM 5.22 41.396 0.29 17.75 3.98 12.2
1/8/2023 2:30:00 AM 5.17 41.306 0.29 17.75 3.9 12.22
1/8/2023 2:45:00 AM 5.12 41.216 0.29 17.75 3.92 12.23
1/8/2023 3:00:00 AM 5.07 41.126 0.29 17.76 3.91 12.25
1/8/2023 3:15:00 AM 5.01 41.018 0.29 17.76 7.88 12.27
1/8/2023 3:30:00 AM 4.96 40.928 0.291 17.76 4.24 12.3
1/8/2023 3:45:00 AM 4.9 40.82 0.291 17.76 4.08 12.32
1/8/2023 4:00:00 AM 4.84 40.712 0.291 17.76 4.08 12.33
1/8/2023 4:15:00 AM 4.78 40.604 0.291 17.77 3.96 12.36
1/8/2023 4:30:00 AM 4.73 40.514 0.291 17.77 4.01 12.38
1/8/2023 4:45:00 AM 4.67 40.406 0.291 17.77 4.05 12.41
1/8/2023 5:00:00 AM 4.61 40.298 0.291 17.77 3.97 12.42
1/8/2023 5:15:00 AM 4.56 40.208 0.291 17.78 6.82 12.44
1/8/2023 5:30:00 AM 4.5 40.1 0.291 17.78 3.99 12.46
1/8/2023 5:45:00 AM 4.44 39.992 0.291 17.78 3.91 12.48
1/8/2023 6:00:00 AM 4.39 39.902 0.291 17.78 3.95 12.5
1/8/2023 6:15:00 AM 4.33 39.794 0.291 17.78 3.87 12.52
1/8/2023 6:30:00 AM 4.28 39.704 0.291 17.79 3.94 12.54
1/8/2023 6:45:00 AM 4.22 39.596 0.291 17.79 4.15 12.57
1/8/2023 7:00:00 AM 4.17 39.506 0.291 17.79 3.96 12.59
1/8/2023 7:15:00 AM 4.11 39.398 0.292 17.79 3.85 12.62
1/8/2023 7:30:00 AM 4.06 39.308 0.292 17.79 3.89 12.64
1/8/2023 7:45:00 AM 4.02 39.236 0.292 17.8 3.98 12.67
1/8/2023 8:00:00 AM 3.98 39.164 0.292 17.8 3.89 12.71
1/8/2023 8:15:00 AM 3.95 39.11 0.292 17.8 3.84 12.75
1/8/2023 8:30:00 AM 3.91 39.038 0.292 17.8 3.85 12.79
1/8/2023 8:45:00 AM 3.89 39.002 0.292 17.8 3.74 12.84
1/8/2023 9:00:00 AM 3.87 38.966 0.292 17.8 3.75 12.89
1/8/2023 9:15:00 AM 3.87 38.966 0.292 17.8 3.77 12.95
1/8/2023 9:30:00 AM 3.9 39.02 0.292 17.8 3.78 13.02
1/8/2023 9:45:00 AM 3.94 39.092 0.292 17.8 3.8 13.08
1/8/2023 10:00:00 AM 4.03 39.254 0.292 17.8 3.72 13.14
1/8/2023 10:15:00 AM 4.13 39.434 0.291 17.79 3.61 13.2
1/8/2023 10:30:00 AM 4.26 39.668 0.291 17.79 3.69 13.23
1/8/2023 10:45:00 AM 4.36 39.848 0.291 17.78 3.65 13.26
1/8/2023 11:00:00 AM 4.49 40.082 0.291 17.78 3.7 13.28
1/8/2023 11:15:00 AM 4.64 40.352 0.291 17.77 3.74 13.3
1/8/2023 11:30:00 AM 4.78 40.604 0.291 17.77 3.64 13.31
1/8/2023 11:45:00 AM 4.9 40.82 0.29 17.76 3.66 13.3
1/8/2023 12:00:00 PM 5.04 41.072 0.29 17.76 3.65 13.29
1/8/2023 12:15:00 PM 5.18 41.324 0.29 17.75 3.69 13.28
1/8/2023 12:30:00 PM 5.3 41.54 0.29 17.75 3.62 13.28
1/8/2023 12:45:00 PM 5.42 41.756 0.29 17.74 3.59 13.25
1/8/2023 1:00:00 PM 5.54 41.972 0.29 17.74 3.61 13.23
1/8/2023 1:15:00 PM 5.64 42.152 0.289 17.73 3.68 13.21
1/8/2023 1:30:00 PM 5.72 42.296 0.289 17.73 3.7 13.19
1/8/2023 1:45:00 PM 5.81 42.458 0.289 17.73 3.6 13.16
1/8/2023 2:00:00 PM 5.88 42.584 0.289 17.72 3.69 13.14
1/8/2023 2:15:00 PM 5.93 42.674 0.289 17.72 3.68 13.12
1/8/2023 2:30:00 PM 5.99 42.782 0.289 17.72 3.72 13.09
1/8/2023 2:45:00 PM 6.04 42.872 0.289 17.72 3.68 13.05
1/8/2023 3:00:00 PM 6.07 42.926 0.289 17.72 3.62 13.01
1/8/2023 3:15:00 PM 6.09 42.962 0.289 17.72 3.73 12.98
1/8/2023 3:30:00 PM 6.08 42.944 0.289 17.72 3.7 12.92
1/8/2023 3:45:00 PM 6.06 42.908 0.289 17.72 3.71 12.87
1/8/2023 4:00:00 PM 6.04 42.872 0.289 17.72 3.67 12.82
1/8/2023 4:15:00 PM 6.01 42.818 0.289 17.72 3.69 12.75
1/8/2023 4:30:00 PM 5.97 42.746 0.289 17.72 3.63 12.7
1/8/2023 4:45:00 PM 5.91 42.638 0.289 17.72 3.67 12.64
1/8/2023 5:00:00 PM 5.84 42.512 0.289 17.73 3.74 12.58
1/8/2023 5:15:00 PM 5.79 42.422 0.289 17.73 3.66 12.52
1/8/2023 5:30:00 PM 5.72 42.296 0.289 17.73 3.67 12.48
1/8/2023 5:45:00 PM 5.67 42.206 0.289 17.73 3.73 12.43
1/8/2023 6:00:00 PM 5.62 42.116 0.289 17.73 3.72 12.4
1/8/2023 6:15:00 PM 5.58 42.044 0.289 17.74 3.73 12.37
1/8/2023 6:30:00 PM 5.54 41.972 0.289 17.74 3.64 12.34
1/8/2023 6:45:00 PM 5.5 41.9 0.289 17.74 3.68 12.32
1/8/2023 7:00:00 PM 5.48 41.864 0.289 17.74 3.66 12.31
1/8/2023 7:15:00 PM 5.47 41.846 0.289 17.74 3.69 12.29
1/8/2023 7:30:00 PM 5.44 41.792 0.289 17.74 3.71 12.28
1/8/2023 7:45:00 PM 5.43 41.774 0.289 17.74 3.68 12.27
1/8/2023 8:00:00 PM 5.42 41.756 0.289 17.74 3.74 12.26
1/8/2023 8:15:00 PM 5.41 41.738 0.289 17.74 3.72 12.26
1/8/2023 8:30:00 PM 5.39 41.702 0.289 17.74 3.72 12.24
1/8/2023 8:45:00 PM 5.38 41.684 0.289 17.74 3.74 12.24
1/8/2023 9:00:00 PM 5.37 41.666 0.289 17.74 3.73 12.24
1/8/2023 9:15:00 PM 5.36 41.648 0.289 17.74 3.66 12.24
1/8/2023 9:30:00 PM 5.36 41.648 0.289 17.74 3.71 12.23
1/8/2023 9:45:00 PM 5.35 41.63 0.289 17.74 3.83 12.23
1/8/2023 10:00:00 PM 5.35 41.63 0.289 17.74 3.71 12.23
1/8/2023 10:15:00 PM 5.35 41.63 0.289 17.74 3.8 12.23
1/8/2023 10:30:00 PM 5.34 41.612 0.289 17.74 3.84 12.22
1/8/2023 10:45:00 PM 5.35 41.63 0.289 17.74 3.82 12.21
1/8/2023 11:00:00 PM 5.34 41.612 0.289 17.74 3.8 12.22
1/8/2023 11:15:00 PM 5.34 41.612 0.289 17.75 3.88 12.21
1/8/2023 11:30:00 PM 5.33 41.594 0.289 17.75 3.88 12.21
1/8/2023 11:45:00 PM 5.33 41.594 0.289 17.75 3.89 12.21
1/9/2023 12:00:00 AM 5.33 41.594 0.289 17.75 3.76 12.21
1/9/2023 12:15:00 AM 5.34 41.612 0.289 17.75 3.85 12.2
1/9/2023 12:30:00 AM 5.35 41.63 0.289 17.74 3.94 12.2
1/9/2023 12:45:00 AM 5.35 41.63 0.289 17.74 4.02 12.2
1/9/2023 1:00:00 AM 5.35 41.63 0.289 17.74 3.88 12.2
1/9/2023 1:15:00 AM 5.36 41.648 0.289 17.74 3.81 12.19
1/9/2023 1:30:00 AM 5.36 41.648 0.289 17.74 3.94 12.19
1/9/2023 1:45:00 AM 5.36 41.648 0.289 17.74 3.86 12.19
1/9/2023 2:00:00 AM 5.37 41.666 0.289 17.74 3.72 12.18
1/9/2023 2:15:00 AM 5.37 41.666 0.289 17.74 3.77 12.18
1/9/2023 2:30:00 AM 5.38 41.684 0.289 17.74 3.71 12.18
1/9/2023 2:45:00 AM 5.38 41.684 0.289 17.74 3.75 12.17
1/9/2023 3:00:00 AM 5.39 41.702 0.289 17.74 3.79 12.16
1/9/2023 3:15:00 AM 5.39 41.702 0.289 17.74 3.82 12.16
1/9/2023 3:30:00 AM 5.4 41.72 0.289 17.74 4.16 12.16
1/9/2023 3:45:00 AM 5.4 41.72 0.289 17.74 4.13 12.15
1/9/2023 4:00:00 AM 5.41 41.738 0.289 17.74 4.27 12.15
1/9/2023 4:15:00 AM 5.42 41.756 0.289 17.74 4.21 12.14
1/9/2023 4:30:00 AM 5.42 41.756 0.289 17.74 4.21 12.14
1/9/2023 4:45:00 AM 5.42 41.756 0.289 17.74 4.13 12.14
1/9/2023 5:00:00 AM 5.41 41.738 0.289 17.74 3.95 12.13
1/9/2023 5:15:00 AM 5.41 41.738 0.289 17.74 3.96 12.13
1/9/2023 5:30:00 AM 5.4 41.72 0.289 17.74 4.08 12.13
1/9/2023 5:45:00 AM 5.4 41.72 0.289 17.74 4.14 12.13
1/9/2023 6:00:00 AM 5.38 41.684 0.289 17.74 4.1 12.13
1/9/2023 6:15:00 AM 5.37 41.666 0.289 17.74 4.08 12.13
1/9/2023 6:30:00 AM 5.35 41.63 0.289 17.74 4.23 12.14
1/9/2023 6:45:00 AM 5.35 41.63 0.289 17.74 4.06 12.14
1/9/2023 7:00:00 AM 5.33 41.594 0.289 17.75 3.93 12.15
1/9/2023 7:15:00 AM 5.3 41.54 0.289 17.75 3.89 12.16
1/9/2023 7:30:00 AM 5.26 41.468 0.29 17.75 3.88 12.17
1/9/2023 7:45:00 AM 5.24 41.432 0.29 17.75 3.83 12.18
1/9/2023 8:00:00 AM 5.21 41.378 0.29 17.75 3.86 12.2
1/9/2023 8:15:00 AM 5.18 41.324 0.29 17.75 3.92 12.24
1/9/2023 8:30:00 AM 5.15 41.27 0.29 17.75 3.89 12.28
1/9/2023 8:45:00 AM 5.13 41.234 0.289 17.75 3.77 12.34
1/9/2023 9:00:00 AM 5.12 41.216 0.289 17.75 3.78 12.39
1/9/2023 9:15:00 AM 5.11 41.198 0.289 17.75 3.76 12.45
1/9/2023 9:30:00 AM 5.12 41.216 0.289 17.75 3.76 12.53
1/9/2023 9:45:00 AM 5.15 41.27 0.289 17.75 3.77 12.6
1/9/2023 10:00:00 AM 5.18 41.324 0.289 17.75 3.7 12.67
1/9/2023 10:15:00 AM 5.27 41.486 0.289 17.75 3.82 12.75
1/9/2023 10:30:00 AM 5.38 41.684 0.289 17.74 3.74 12.8
1/9/2023 10:45:00 AM 5.47 41.846 0.289 17.74 3.71 12.85
1/9/2023 11:00:00 AM 5.55 41.99 0.289 17.74 3.67 12.86
1/9/2023 11:15:00 AM 5.65 42.17 0.289 17.73 3.73 12.89
1/9/2023 11:30:00 AM 5.77 42.386 0.289 17.73 3.7 12.9
1/9/2023 11:45:00 AM 5.8 42.44 0.289 17.73 3.76 12.91
1/9/2023 12:00:00 PM 5.9 42.62 0.289 17.72 3.77 12.92
1/9/2023 12:15:00 PM 6.13 43.034 0.288 17.71 3.75 12.93
1/9/2023 12:30:00 PM 6.18 43.124 0.288 17.71 3.77 12.9
1/9/2023 12:45:00 PM 6.21 43.178 0.288 17.71 3.81 12.88
1/9/2023 1:00:00 PM 6.32 43.376 0.288 17.71 3.79 12.86
1/9/2023 1:15:00 PM 6.42 43.556 0.288 17.7 3.79 12.83
1/9/2023 1:30:00 PM 6.47 43.646 0.288 17.7 3.77 12.81
1/9/2023 1:45:00 PM 6.55 43.79 0.288 17.7 3.8 12.8
1/9/2023 2:00:00 PM 6.61 43.898 0.288 17.7 3.77 12.77
1/9/2023 2:15:00 PM 6.62 43.916 0.288 17.7 3.83 12.75
1/9/2023 2:30:00 PM 6.66 43.988 0.288 17.69 3.71 12.72
1/9/2023 2:45:00 PM 6.7 44.06 0.287 17.69 3.67 12.68
1/9/2023 3:00:00 PM 6.71 44.078 0.287 17.69 3.74 12.64
1/9/2023 3:15:00 PM 6.72 44.096 0.287 17.69 3.68 12.6
1/9/2023 3:30:00 PM 6.74 44.132 0.287 17.69 3.74 12.57
1/9/2023 3:45:00 PM 6.72 44.096 0.287 17.69 3.83 12.54
1/9/2023 4:00:00 PM 6.69 44.042 0.287 17.69 3.66 12.51
1/9/2023 4:15:00 PM 6.65 43.97 0.287 17.69 3.66 12.47
1/9/2023 4:30:00 PM 6.6 43.88 0.287 17.7 3.61 12.44
1/9/2023 4:45:00 PM 6.52 43.736 0.287 17.7 3.66 12.4
1/9/2023 5:00:00 PM 6.44 43.592 0.287 17.7 3.73 12.36
1/9/2023 5:15:00 PM 6.35 43.43 0.287 17.71 3.69 12.32
1/9/2023 5:30:00 PM 6.25 43.25 0.287 17.71 3.81 12.29
1/9/2023 5:45:00 PM 6.13 43.034 0.287 17.71 3.7 12.26
1/9/2023 6:00:00 PM 6.01 42.818 0.287 17.72 3.69 12.24
1/9/2023 6:15:00 PM 5.9 42.62 0.288 17.72 3.69 12.23
1/9/2023 6:30:00 PM 5.78 42.404 0.288 17.73 3.74 12.2
1/9/2023 6:45:00 PM 5.66 42.188 0.288 17.73 3.66 12.2
1/9/2023 7:00:00 PM 5.55 41.99 0.288 17.74 3.75 12.2
1/9/2023 7:15:00 PM 5.44 41.792 0.288 17.74 3.78 12.21
1/9/2023 7:30:00 PM 5.33 41.594 0.288 17.75 3.9 12.22
1/9/2023 7:45:00 PM 5.23 41.414 0.288 17.75 3.81 12.23
1/9/2023 8:00:00 PM 5.14 41.252 0.288 17.75 3.94 12.24
1/9/2023 8:15:00 PM 5.05 41.09 0.288 17.76 3.8 12.26
1/9/2023 8:30:00 PM 4.97 40.946 0.288 17.76 3.94 12.27
1/9/2023 8:45:00 PM 4.89 40.802 0.288 17.76 3.97 12.29
1/9/2023 9:00:00 PM 4.82 40.676 0.288 17.77 10.51 12.3
1/9/2023 9:15:00 PM 4.75 40.55 0.288 17.77 4.13 12.33
1/9/2023 9:30:00 PM 4.7 40.46 0.288 17.77 4.27 12.35
1/9/2023 9:45:00 PM 4.65 40.37 0.288 17.77 4.1 12.37
1/9/2023 10:00:00 PM 4.59 40.262 0.289 17.77 3.93 12.38
1/9/2023 10:15:00 PM 4.54 40.172 0.289 17.78 3.9 12.39
1/9/2023 10:30:00 PM 4.5 40.1 0.289 17.78 3.88 12.4
1/9/2023 10:45:00 PM 4.45 40.01 0.289 17.78 3.82 12.42
1/9/2023 11:00:00 PM 4.4 39.92 0.289 17.78 4.15 12.44
1/9/2023 11:15:00 PM 4.35 39.83 0.289 17.78 3.98 12.46
1/9/2023 11:30:00 PM 4.31 39.758 0.289 17.78 4.11 12.48
1/9/2023 11:45:00 PM 4.26 39.668 0.289 17.79 3.89 12.49
1/10/2023 12:00:00 AM 4.22 39.596 0.289 17.79 3.92 12.51
1/10/2023 12:15:00 AM 4.17 39.506 0.289 17.79 3.97 12.53
1/10/2023 12:30:00 AM 4.13 39.434 0.29 17.79 3.86 12.55
1/10/2023 12:45:00 AM 4.08 39.344 0.29 17.79 3.92 12.57
1/10/2023 1:00:00 AM 4.04 39.272 0.29 17.8 3.96 12.58
1/10/2023 1:15:00 AM 3.99 39.182 0.29 17.8 3.99 12.6
1/10/2023 1:30:00 AM 3.95 39.11 0.29 17.8 3.78 12.61
1/10/2023 1:45:00 AM 3.9 39.02 0.29 17.8 3.88 12.62
1/10/2023 2:00:00 AM 3.85 38.93 0.29 17.8 3.86 12.64
1/10/2023 2:15:00 AM 3.81 38.858 0.29 17.8 4.2 12.65
1/10/2023 2:30:00 AM 3.76 38.768 0.29 17.81 4.04 12.68
1/10/2023 2:45:00 AM 3.71 38.678 0.291 17.81 4.08 12.7
1/10/2023 3:00:00 AM 3.67 38.606 0.291 17.81 4.17 12.71
1/10/2023 3:15:00 AM 3.62 38.516 0.291 17.81 4.43 12.74
1/10/2023 3:30:00 AM 3.57 38.426 0.291 17.81 4.4 12.76
1/10/2023 3:45:00 AM 3.53 38.354 0.291 17.82 4.3 12.77
1/10/2023 4:00:00 AM 3.48 38.264 0.291 17.82 4.19 12.79
1/10/2023 4:15:00 AM 3.44 38.192 0.291 17.82 4.14 12.81
1/10/2023 4:30:00 AM 3.4 38.12 0.291 17.82 4.47 12.83
1/10/2023 4:45:00 AM 3.35 38.03 0.291 17.82 4.51 12.85
1/10/2023 5:00:00 AM 3.31 37.958 0.291 17.82 4.81 12.86
1/10/2023 5:15:00 AM 3.26 37.868 0.291 17.83 4.33 12.87
1/10/2023 5:30:00 AM 3.22 37.796 0.291 17.83 4.09 12.89
1/10/2023 5:45:00 AM 3.17 37.706 0.291 17.83 4.02 12.91
1/10/2023 6:00:00 AM 3.13 37.634 0.291 17.83 4.05 12.93
1/10/2023 6:15:00 AM 3.09 37.562 0.292 17.83 3.94 12.95
1/10/2023 6:30:00 AM 3.05 37.49 0.292 17.83 3.9 12.97
1/10/2023 6:45:00 AM 3 37.4 0.292 17.84 3.88 12.99
1/10/2023 7:00:00 AM 2.97 37.346 0.292 17.84 3.84 13
1/10/2023 7:15:00 AM 2.93 37.274 0.292 17.84 3.92 13.02
1/10/2023 7:30:00 AM 2.9 37.22 0.292 17.84 3.81 13.04
1/10/2023 7:45:00 AM 2.86 37.148 0.292 17.84 3.82 13.07
1/10/2023 8:00:00 AM 2.84 37.112 0.292 17.84 3.75 13.11
1/10/2023 8:15:00 AM 2.81 37.058 0.292 17.84 3.91 13.16
1/10/2023 8:30:00 AM 2.82 37.076 0.292 17.84 3.76 13.21
1/10/2023 8:45:00 AM 2.84 37.112 0.292 17.84 3.83 13.27
1/10/2023 9:00:00 AM 2.87 37.166 0.292 17.84 3.89 13.33
1/10/2023 9:15:00 AM 2.92 37.256 0.292 17.84 3.91 13.4
1/10/2023 9:30:00 AM 2.99 37.382 0.292 17.84 3.85 13.46
1/10/2023 9:45:00 AM 3.06 37.508 0.292 17.83 3.75 13.52
1/10/2023 10:00:00 AM 3.13 37.634 0.292 17.83 3.68 13.56
1/10/2023 10:15:00 AM 3.25 37.85 0.292 17.83 3.78 13.61
1/10/2023 10:30:00 AM 3.34 38.012 0.292 17.82 3.81 13.65
1/10/2023 10:45:00 AM 3.44 38.192 0.291 17.82 3.76 13.68
1/10/2023 11:00:00 AM 3.55 38.39 0.291 17.81 3.72 13.69
1/10/2023 11:15:00 AM 3.67 38.606 0.291 17.81 3.72 13.69
1/10/2023 11:30:00 AM 3.82 38.876 0.291 17.8 3.78 13.68
1/10/2023 11:45:00 AM 3.95 39.11 0.291 17.8 3.75 13.68
1/10/2023 12:00:00 PM 4.11 39.398 0.291 17.79 3.78 13.67
1/10/2023 12:15:00 PM 4.3 39.74 0.291 17.79 3.69 13.65
1/10/2023 12:30:00 PM 4.45 40.01 0.291 17.78 3.78 13.62
1/10/2023 12:45:00 PM 4.58 40.244 0.29 17.77 3.77 13.6
1/10/2023 1:00:00 PM 4.72 40.496 0.29 17.77 3.78 13.57
1/10/2023 1:15:00 PM 4.83 40.694 0.29 17.76 3.69 13.53
1/10/2023 1:30:00 PM 4.98 40.964 0.29 17.76 3.68 13.48
1/10/2023 1:45:00 PM 5.12 41.216 0.29 17.75 3.76 13.44
1/10/2023 2:00:00 PM 5.25 41.45 0.29 17.75 3.78 13.4
1/10/2023 2:15:00 PM 5.35 41.63 0.289 17.74 3.71 13.36
1/10/2023 2:30:00 PM 5.45 41.81 0.289 17.74 3.74 13.3
1/10/2023 2:45:00 PM 5.56 42.008 0.289 17.74 3.71 13.24
1/10/2023 3:00:00 PM 5.65 42.17 0.289 17.73 3.63 13.19
1/10/2023 3:15:00 PM 5.72 42.296 0.289 17.73 3.72 13.14
1/10/2023 3:30:00 PM 5.76 42.368 0.289 17.73 3.66 13.09
1/10/2023 3:45:00 PM 5.79 42.422 0.288 17.73 3.69 13.05
1/10/2023 4:00:00 PM 5.8 42.44 0.288 17.73 3.85 13
1/10/2023 4:15:00 PM 5.8 42.44 0.288 17.73 3.75 12.94
1/10/2023 4:30:00 PM 5.78 42.404 0.288 17.73 3.8 12.88
1/10/2023 4:45:00 PM 5.74 42.332 0.288 17.73 3.76 12.81
1/10/2023 5:00:00 PM 5.69 42.242 0.288 17.73 3.81 12.75
1/10/2023 5:15:00 PM 5.62 42.116 0.289 17.73 3.75 12.7
1/10/2023 5:30:00 PM 5.54 41.972 0.289 17.74 3.93 12.64
1/10/2023 5:45:00 PM 5.45 41.81 0.289 17.74 3.72 12.6
1/10/2023 6:00:00 PM 5.37 41.666 0.289 17.74 3.72 12.56
1/10/2023 6:15:00 PM 5.29 41.522 0.289 17.75 3.71 12.53
1/10/2023 6:30:00 PM 5.2 41.36 0.289 17.75 3.73 12.5
1/10/2023 6:45:00 PM 5.11 41.198 0.289 17.75 3.7 12.47
1/10/2023 7:00:00 PM 5.03 41.054 0.289 17.76 3.78 12.47
1/10/2023 7:15:00 PM 4.94 40.892 0.289 17.76 3.79 12.47
1/10/2023 7:30:00 PM 4.85 40.73 0.289 17.76 3.87 12.47
1/10/2023 7:45:00 PM 4.77 40.586 0.289 17.77 3.92 12.48
1/10/2023 8:00:00 PM 4.7 40.46 0.289 17.77 3.9 12.48
1/10/2023 8:15:00 PM 4.63 40.334 0.289 17.77 3.93 12.49
1/10/2023 8:30:00 PM 4.56 40.208 0.289 17.78 3.97 12.49
1/10/2023 8:45:00 PM 4.5 40.1 0.289 17.78 4.08 12.5
1/10/2023 9:00:00 PM 4.45 40.01 0.289 17.78 5.06 12.5
1/10/2023 9:15:00 PM 4.4 39.92 0.289 17.78 4.02 12.52
1/10/2023 9:30:00 PM 4.34 39.812 0.289 17.78 4.24 12.54
1/10/2023 9:45:00 PM 4.29 39.722 0.289 17.79 4.06 12.55
1/10/2023 10:00:00 PM 4.24 39.632 0.289 17.79 4.41 12.56
1/10/2023 10:15:00 PM 4.19 39.542 0.289 17.79 4.21 12.58
1/10/2023 10:30:00 PM 4.14 39.452 0.289 17.79 4.06 12.6
1/10/2023 10:45:00 PM 4.09 39.362 0.289 17.79 3.94 12.62
1/10/2023 11:00:00 PM 4.06 39.308 0.289 17.79 3.93 12.64
1/10/2023 11:15:00 PM 4.03 39.254 0.289 17.8 3.92 12.65
1/10/2023 11:30:00 PM 3.99 39.182 0.289 17.8 3.9 12.66
1/10/2023 11:45:00 PM 3.95 39.11 0.289 17.8 3.96 12.68
1/11/2023 12:00:00 AM 3.91 39.038 0.289 17.8 3.94 12.69
1/11/2023 12:15:00 AM 3.87 38.966 0.289 17.8 3.98 12.7
1/11/2023 12:30:00 AM 3.82 38.876 0.289 17.8 4.29 12.71
1/11/2023 12:45:00 AM 3.79 38.822 0.289 17.81 4.02 12.72
1/11/2023 1:00:00 AM 3.75 38.75 0.289 17.81 3.82 12.74
1/11/2023 1:15:00 AM 3.7 38.66 0.29 17.81 3.85 12.76
1/11/2023 1:30:00 AM 3.67 38.606 0.29 17.81 3.89 12.77
1/11/2023 1:45:00 AM 3.63 38.534 0.29 17.81 3.83 12.79
1/11/2023 2:00:00 AM 3.59 38.462 0.29 17.81 3.96 12.81
1/11/2023 2:15:00 AM 3.55 38.39 0.29 17.81 3.94 12.82
1/11/2023 2:30:00 AM 3.51 38.318 0.29 17.82 4 12.84
1/11/2023 2:45:00 AM 3.47 38.246 0.29 17.82 3.91 12.86
1/11/2023 3:00:00 AM 3.43 38.174 0.291 17.82 3.86 12.87
1/11/2023 3:15:00 AM 3.42 38.156 0.291 17.82 3.82 12.89
1/11/2023 3:30:00 AM 3.4 38.12 0.291 17.82 3.84 12.9
1/11/2023 3:45:00 AM 3.38 38.084 0.291 17.82 3.95 12.91
1/11/2023 4:00:00 AM 3.34 38.012 0.291 17.82 3.95 12.93
1/11/2023 4:15:00 AM 3.32 37.976 0.291 17.82 4.04 12.93
1/11/2023 4:30:00 AM 3.29 37.922 0.291 17.82 3.98 12.94
1/11/2023 4:45:00 AM 3.26 37.868 0.291 17.83 3.92 12.95
1/11/2023 5:00:00 AM 3.22 37.796 0.291 17.83 5.25 12.96
1/11/2023 5:15:00 AM 3.19 37.742 0.291 17.83 4.19 12.97
1/11/2023 5:30:00 AM 3.15 37.67 0.292 17.83 3.91 12.98
1/11/2023 5:45:00 AM 3.11 37.598 0.292 17.83 3.98 13
1/11/2023 6:00:00 AM 3.07 37.526 0.292 17.83 3.94 13.01
1/11/2023 6:15:00 AM 3.03 37.454 0.292 17.83 4.02 13.03
1/11/2023 6:30:00 AM 2.99 37.382 0.292 17.84 3.94 13.05
1/11/2023 6:45:00 AM 2.95 37.31 0.292 17.84 4 13.06
1/11/2023 7:00:00 AM 2.9 37.22 0.292 17.84 3.91 13.09
1/11/2023 7:15:00 AM 2.86 37.148 0.292 17.84 3.92 13.11
1/11/2023 7:30:00 AM 2.83 37.094 0.292 17.84 3.86 13.13
1/11/2023 7:45:00 AM 2.8 37.04 0.292 17.84 3.82 13.16
1/11/2023 8:00:00 AM 2.77 36.986 0.292 17.84 3.87 13.2
1/11/2023 8:15:00 AM 2.76 36.968 0.292 17.85 3.83 13.25
1/11/2023 8:30:00 AM 2.74 36.932 0.292 17.85 3.92 13.3
1/11/2023 8:45:00 AM 2.74 36.932 0.292 17.85 3.79 13.36
1/11/2023 9:00:00 AM 2.75 36.95 0.292 17.85 3.88 13.43
1/11/2023 9:15:00 AM 2.77 36.986 0.292 17.85 3.87 13.5
1/11/2023 9:30:00 AM 2.83 37.094 0.292 17.84 3.91 13.57
1/11/2023 9:45:00 AM 2.88 37.184 0.292 17.84 3.75 13.64
1/11/2023 10:00:00 AM 2.95 37.31 0.292 17.84 3.81 13.69
1/11/2023 10:15:00 AM 3.05 37.49 0.292 17.83 3.78 13.74
1/11/2023 10:30:00 AM 3.16 37.688 0.291 17.83 3.76 13.78
1/11/2023 10:45:00 AM 3.29 37.922 0.291 17.82 3.72 13.81
1/11/2023 11:00:00 AM 3.45 38.21 0.291 17.82 3.74 13.84
1/11/2023 11:15:00 AM 3.61 38.498 0.291 17.81 3.78 13.84
1/11/2023 11:30:00 AM 3.73 38.714 0.291 17.81 3.78 13.83
1/11/2023 11:45:00 AM 3.87 38.966 0.29 17.8 3.79 13.83
1/11/2023 12:00:00 PM 3.99 39.182 0.29 17.8 3.85 13.82
1/11/2023 12:15:00 PM 4.14 39.452 0.29 17.79 3.83 13.8
1/11/2023 12:30:00 PM 4.26 39.668 0.29 17.79 3.82 13.77
1/11/2023 12:45:00 PM 4.41 39.938 0.29 17.78 3.81 13.74
1/11/2023 1:00:00 PM 4.55 40.19 0.29 17.78 3.78 13.72
1/11/2023 1:15:00 PM 4.65 40.37 0.289 17.77 3.76 13.7
1/11/2023 1:30:00 PM 4.75 40.55 0.289 17.77 3.82 13.66
1/11/2023 1:45:00 PM 4.84 40.712 0.289 17.76 3.9 13.62
1/11/2023 2:00:00 PM 4.92 40.856 0.289 17.76 3.82 13.57
1/11/2023 2:15:00 PM 5 41 0.289 17.76 3.8 13.54
1/11/2023 2:30:00 PM 5.07 41.126 0.289 17.76 3.74 13.51
1/11/2023 2:45:00 PM 5.12 41.216 0.288 17.75 3.78 13.46
1/11/2023 3:00:00 PM 5.15 41.27 0.288 17.75 3.75 13.42
1/11/2023 3:15:00 PM 5.18 41.324 0.288 17.75 3.69 13.38
1/11/2023 3:30:00 PM 5.25 41.45 0.288 17.75 3.77 13.37
1/11/2023 3:45:00 PM 5.25 41.45 0.288 17.75 3.69 13.34
1/11/2023 4:00:00 PM 5.24 41.432 0.288 17.75 3.78 13.29
1/11/2023 4:15:00 PM 5.23 41.414 0.288 17.75 3.73 13.24
1/11/2023 4:30:00 PM 5.2 41.36 0.288 17.75 3.69 13.17
1/11/2023 4:45:00 PM 5.18 41.324 0.288 17.75 4.11 13.11
1/11/2023 5:00:00 PM 5.16 41.288 0.288 17.75 3.79 13.04
1/11/2023 5:15:00 PM 5.14 41.252 0.288 17.75 3.8 12.98
1/11/2023 5:30:00 PM 5.11 41.198 0.288 17.75 3.75 12.91
1/11/2023 5:45:00 PM 5.07 41.126 0.288 17.76 3.83 12.85
1/11/2023 6:00:00 PM 5.03 41.054 0.288 17.76 3.78 12.79
1/11/2023 6:15:00 PM 5 41 0.288 17.76 3.73 12.74
1/11/2023 6:30:00 PM 4.97 40.946 0.288 17.76 3.83 12.7
1/11/2023 6:45:00 PM 4.93 40.874 0.288 17.76 3.81 12.66
1/11/2023 7:00:00 PM 4.88 40.784 0.288 17.76 3.81 12.63
1/11/2023 7:15:00 PM 4.85 40.73 0.288 17.76 4 12.61
1/11/2023 7:30:00 PM 4.82 40.676 0.288 17.77 4.22 12.59
1/11/2023 7:45:00 PM 4.8 40.64 0.288 17.77 4.05 12.58
1/11/2023 8:00:00 PM 4.79 40.622 0.288 17.77 3.96 12.57
1/11/2023 8:15:00 PM 4.77 40.586 0.288 17.77 4 12.56
1/11/2023 8:30:00 PM 4.74 40.532 0.288 17.77 3.96 12.55
1/11/2023 8:45:00 PM 4.72 40.496 0.288 17.77 3.97 12.55
1/11/2023 9:00:00 PM 4.71 40.478 0.288 17.77 3.94 12.54
1/11/2023 9:15:00 PM 4.69 40.442 0.288 17.77 3.85 12.55
1/11/2023 9:30:00 PM 4.68 40.424 0.288 17.77 3.89 12.55
1/11/2023 9:45:00 PM 4.67 40.406 0.288 17.77 3.93 12.55
1/11/2023 10:00:00 PM 4.66 40.388 0.288 17.77 3.96 12.55
1/11/2023 10:15:00 PM 4.66 40.388 0.288 17.77 3.97 12.55
1/11/2023 10:30:00 PM 4.66 40.388 0.288 17.77 4.03 12.55
1/11/2023 10:45:00 PM 4.65 40.37 0.288 17.77 3.95 12.54
1/11/2023 11:00:00 PM 4.66 40.388 0.288 17.77 4.07 12.54
1/11/2023 11:15:00 PM 4.66 40.388 0.288 17.77 3.97 12.54
1/11/2023 11:30:00 PM 4.66 40.388 0.288 17.77 4.06 12.54
1/11/2023 11:45:00 PM 4.66 40.388 0.288 17.77 4.22 12.54
1/12/2023 12:00:00 AM 4.67 40.406 0.288 17.77 4.23 12.54
1/12/2023 12:15:00 AM 4.67 40.406 0.288 17.77 4.15 12.53
1/12/2023 12:30:00 AM 4.68 40.424 0.288 17.77 4.36 12.53
1/12/2023 12:45:00 AM 4.69 40.442 0.288 17.77 4.07 12.53
1/12/2023 1:00:00 AM 4.69 40.442 0.288 17.77 4.05 12.53
1/12/2023 1:15:00 AM 4.7 40.46 0.288 17.77 4.04 12.52
1/12/2023 1:30:00 AM 4.71 40.478 0.288 17.77 4.09 12.52
1/12/2023 1:45:00 AM 4.71 40.478 0.288 17.77 4.11 12.51
1/12/2023 2:00:00 AM 4.72 40.496 0.288 17.77 10.71 12.5
1/12/2023 2:15:00 AM 4.73 40.514 0.288 17.77 4.72 12.51
1/12/2023 2:30:00 AM 4.74 40.532 0.288 17.77 4.5 12.5
1/12/2023 2:45:00 AM 4.75 40.55 0.288 17.77 4.3 12.5
1/12/2023 3:00:00 AM 4.75 40.55 0.288 17.77 4.12 12.49
1/12/2023 3:15:00 AM 4.76 40.568 0.288 17.77 3.99 12.49
1/12/2023 3:30:00 AM 4.77 40.586 0.288 17.77 4.05 12.48
1/12/2023 3:45:00 AM 4.78 40.604 0.288 17.77 3.99 12.48
1/12/2023 4:00:00 AM 4.79 40.622 0.288 17.77 4.06 12.48
1/12/2023 4:15:00 AM 4.8 40.64 0.288 17.77 4.2 12.47
1/12/2023 4:30:00 AM 4.81 40.658 0.288 17.77 4.03 12.46
1/12/2023 4:45:00 AM 4.83 40.694 0.288 17.76 4.02 12.46
1/12/2023 5:00:00 AM 4.84 40.712 0.288 17.76 4 12.45
1/12/2023 5:15:00 AM 4.85 40.73 0.288 17.76 4.15 12.45
1/12/2023 5:30:00 AM 4.87 40.766 0.288 17.76 4.16 12.44
1/12/2023 5:45:00 AM 4.88 40.784 0.288 17.76 4.06 12.44
1/12/2023 6:00:00 AM 4.89 40.802 0.288 17.76 4.05 12.44
1/12/2023 6:15:00 AM 4.9 40.82 0.288 17.76 4.11 12.43
1/12/2023 6:30:00 AM 4.92 40.856 0.288 17.76 4.05 12.43
1/12/2023 6:45:00 AM 4.93 40.874 0.288 17.76 4.01 12.43
1/12/2023 7:00:00 AM 4.94 40.892 0.288 17.76 3.95 12.42
1/12/2023 7:15:00 AM 4.96 40.928 0.288 17.76 4.02 12.42
1/12/2023 7:30:00 AM 4.97 40.946 0.289 17.76 4 12.41
1/12/2023 7:45:00 AM 4.99 40.982 0.29 17.76 4.03 12.41
1/12/2023 8:00:00 AM 5.01 41.018 0.291 17.76 3.97 12.43
1/12/2023 8:15:00 AM 5.03 41.054 0.292 17.76 3.9 12.45
1/12/2023 8:30:00 AM 5.06 41.108 0.292 17.76 3.96 12.48
1/12/2023 8:45:00 AM 5.09 41.162 0.291 17.75 3.89 12.53
1/12/2023 9:00:00 AM 5.13 41.234 0.291 17.75 3.91 12.58
1/12/2023 9:15:00 AM 5.18 41.324 0.29 17.75 3.86 12.65
1/12/2023 9:30:00 AM 5.24 41.432 0.289 17.75 3.85 12.73
1/12/2023 9:45:00 AM 5.3 41.54 0.288 17.75 3.95 12.8
1/12/2023 10:00:00 AM 5.4 41.72 0.288 17.74 3.88 12.87
1/12/2023 10:15:00 AM 5.48 41.864 0.287 17.74 3.97 12.93
1/12/2023 10:30:00 AM 5.57 42.026 0.287 17.74 3.98 12.98
1/12/2023 10:45:00 AM 5.69 42.242 0.287 17.73 3.93 13.02
1/12/2023 11:00:00 AM 5.83 42.494 0.287 17.73 4.02 13.05
1/12/2023 11:15:00 AM 5.95 42.71 0.287 17.72 3.85 13.08
1/12/2023 11:30:00 AM 6.07 42.926 0.286 17.72 3.88 13.09
1/12/2023 11:45:00 AM 6.24 43.232 0.286 17.71 3.85 13.09
1/12/2023 12:00:00 PM 6.35 43.43 0.286 17.71 3.86 13.08
1/12/2023 12:15:00 PM 6.52 43.736 0.286 17.7 3.86 13.08
1/12/2023 12:30:00 PM 6.66 43.988 0.286 17.69 3.86 13.07
1/12/2023 12:45:00 PM 6.81 44.258 0.285 17.69 3.79 13.04
1/12/2023 1:00:00 PM 6.95 44.51 0.285 17.68 3.79 13.01
1/12/2023 1:15:00 PM 7.06 44.708 0.285 17.68 3.88 12.97
1/12/2023 1:30:00 PM 7.14 44.852 0.285 17.68 3.83 12.94
1/12/2023 1:45:00 PM 7.25 45.05 0.285 17.67 3.78 12.92
1/12/2023 2:00:00 PM 7.39 45.302 0.285 17.67 3.92 12.89
1/12/2023 2:15:00 PM 7.45 45.41 0.285 17.66 3.95 12.84
1/12/2023 2:30:00 PM 7.52 45.536 0.285 17.66 3.86 12.78
1/12/2023 2:45:00 PM 7.59 45.662 0.285 17.66 3.99 12.73
1/12/2023 3:00:00 PM 7.64 45.752 0.285 17.66 3.79 12.69
1/12/2023 3:15:00 PM 7.68 45.824 0.285 17.66 3.85 12.62
1/12/2023 3:30:00 PM 7.71 45.878 0.285 17.65 3.83 12.54
1/12/2023 3:45:00 PM 7.73 45.914 0.286 17.65 3.81 12.44
1/12/2023 4:00:00 PM 7.73 45.914 0.286 17.65 3.84 12.37
1/12/2023 4:15:00 PM 7.73 45.914 0.286 17.65 3.8 12.28
1/12/2023 4:30:00 PM 7.74 45.932 0.286 17.65 3.79 12.18
1/12/2023 4:45:00 PM 7.74 45.932 0.286 17.65 3.79 12.09
1/12/2023 5:00:00 PM 7.73 45.914 0.286 17.65 3.82 11.99
1/12/2023 5:15:00 PM 7.71 45.878 0.286 17.65 3.91 11.91
1/12/2023 5:30:00 PM 7.7 45.86 0.286 17.65 3.85 11.83
1/12/2023 5:45:00 PM 7.68 45.824 0.286 17.66 3.79 11.76
1/12/2023 6:00:00 PM 7.68 45.824 0.286 17.66 3.89 11.7
1/12/2023 6:15:00 PM 7.67 45.806 0.286 17.66 3.9 11.64
1/12/2023 6:30:00 PM 7.66 45.788 0.286 17.66 3.92 11.6
1/12/2023 6:45:00 PM 7.66 45.788 0.286 17.66 3.97 11.56
1/12/2023 7:00:00 PM 7.66 45.788 0.286 17.66 3.98 11.53
1/12/2023 7:15:00 PM 7.67 45.806 0.286 17.66 4.05 11.51
1/12/2023 7:30:00 PM 7.67 45.806 0.286 17.66 4.03 11.48
1/12/2023 7:45:00 PM 7.68 45.824 0.286 17.66 4.09 11.46
1/12/2023 8:00:00 PM 7.68 45.824 0.286 17.66 4.03 11.45
1/12/2023 8:15:00 PM 7.68 45.824 0.286 17.66 4.13 11.43
1/12/2023 8:30:00 PM 7.69 45.842 0.286 17.66 4.12 11.41
1/12/2023 8:45:00 PM 7.71 45.878 0.286 17.65 3.97 11.4
1/12/2023 9:00:00 PM 7.72 45.896 0.286 17.65 4.07 11.39
1/12/2023 9:15:00 PM 7.74 45.932 0.286 17.65 4.08 11.38
1/12/2023 9:30:00 PM 7.75 45.95 0.286 17.65 4.16 11.37
1/12/2023 9:45:00 PM 7.76 45.968 0.286 17.65 4.15 11.36
1/12/2023 10:00:00 PM 7.78 46.004 0.286 17.65 4.08 11.36
1/12/2023 10:15:00 PM 7.82 46.076 0.284 17.65 4.82 11.36
1/12/2023 10:30:00 PM 7.83 46.094 0.284 17.65 5.02 11.34
1/12/2023 10:45:00 PM 7.84 46.112 0.284 17.65 4.69 11.33
1/12/2023 11:00:00 PM 7.85 46.13 0.284 17.65 4.73 11.32
1/12/2023 11:15:00 PM 7.87 46.166 0.284 17.65 4.66 11.31
1/12/2023 11:30:00 PM 7.89 46.202 0.283 17.65 4.83 11.3
1/12/2023 11:45:00 PM 7.92 46.256 0.283 17.65 4.97 11.29
1/13/2023 12:00:00 AM 7.94 46.292 0.283 17.65 5.06 11.28
1/13/2023 12:15:00 AM 7.96 46.328 0.283 17.65 4.95 11.26
1/13/2023 12:30:00 AM 7.98 46.364 0.283 17.64 4.83 11.25
1/13/2023 12:45:00 AM 8.01 46.418 0.283 17.64 4.63 11.24
1/13/2023 1:00:00 AM 8.04 46.472 0.283 17.64 4.68 11.23
1/13/2023 1:15:00 AM 8.08 46.544 0.283 17.64 4.64 11.22
1/13/2023 1:30:00 AM 8.11 46.598 0.283 17.64 4.71 11.21
1/13/2023 1:45:00 AM 8.15 46.67 0.283 17.64 4.48 11.19
1/13/2023 2:00:00 AM 8.19 46.742 0.283 17.64 4.53 11.18
1/13/2023 2:15:00 AM 8.23 46.814 0.282 17.63 4.51 11.16
1/13/2023 2:30:00 AM 8.27 46.886 0.282 17.63 4.73 11.15
1/13/2023 2:45:00 AM 8.3 46.94 0.282 17.63 4.7 11.14
1/13/2023 3:00:00 AM 8.33 46.994 0.283 17.63 4.75 11.13
1/13/2023 3:15:00 AM 8.36 47.048 0.283 17.61 4.85 11.11
1/13/2023 3:30:00 AM 8.39 47.102 0.283 17.62 4.69 11.11
1/13/2023 3:45:00 AM 8.41 47.138 0.282 17.61 4.73 11.1
1/13/2023 4:00:00 AM 8.44 47.192 0.282 17.61 4.87 11.1
1/13/2023 4:15:00 AM 8.46 47.228 0.282 17.62 4.87 11.09
1/13/2023 4:30:00 AM 8.47 47.246 0.283 17.61 4.85 11.08
1/13/2023 4:45:00 AM 8.49 47.282 0.283 17.6 4.96 11.08
1/13/2023 5:00:00 AM 8.5 47.3 0.283 17.61 5.01 11.07
1/13/2023 5:15:00 AM 8.51 47.318 0.283 17.6 5.03 11.07
1/13/2023 5:30:00 AM 8.52 47.336 0.282 17.59 4.82 11.06
1/13/2023 5:45:00 AM 8.53 47.354 0.282 17.6 4.93 11.05
1/13/2023 6:00:00 AM 8.53 47.354 0.282 17.58 4.96 11.04
1/13/2023 6:15:00 AM 8.54 47.372 0.283 17.59 4.79 11.04
1/13/2023 6:30:00 AM 8.54 47.372 0.283 17.59 4.71 11.04
1/13/2023 6:45:00 AM 8.55 47.39 0.283 17.58 4.72 11.03
1/13/2023 7:00:00 AM 8.56 47.408 0.283 17.59 4.81 11.03
1/13/2023 7:15:00 AM 8.57 47.426 0.283 17.59 4.75 11.02
1/13/2023 7:30:00 AM 8.58 47.444 0.283 17.58 4.63 11.03
1/13/2023 7:45:00 AM 8.57 47.426 0.283 17.59 4.72 11.03
1/13/2023 8:00:00 AM 8.57 47.426 0.283 17.58 4.66 11.03
1/13/2023 8:15:00 AM 8.57 47.426 0.283 17.58 4.51 11.05
1/13/2023 8:30:00 AM 8.56 47.408 0.283 17.59 4.69 11.09
1/13/2023 8:45:00 AM 8.55 47.39 0.283 17.59 4.47 11.12
1/13/2023 9:00:00 AM 8.54 47.372 0.283 17.6 4.41 11.2
1/13/2023 9:15:00 AM 8.53 47.354 0.283 17.6 4.34 11.27
1/13/2023 9:30:00 AM 8.54 47.372 0.283 17.61 4.33 11.39
1/13/2023 9:45:00 AM 8.56 47.408 0.283 17.61 4.43 11.51
1/13/2023 10:00:00 AM 8.58 47.444 0.283 17.6 4.39 11.63
1/13/2023 10:15:00 AM 8.55 47.39 0.283 17.61 4.42 11.73
1/13/2023 10:30:00 AM 8.56 47.408 0.283 17.61 4.36 11.83
1/13/2023 10:45:00 AM 8.64 47.552 0.283 17.61 4.39 11.93
1/13/2023 11:00:00 AM 8.66 47.588 0.283 17.61 4.25 12.01
1/13/2023 11:15:00 AM 8.65 47.57 0.283 17.61 4.25 12.07
1/13/2023 11:30:00 AM 8.65 47.57 0.283 17.61 4.31 12.12
1/13/2023 11:45:00 AM 8.72 47.696 0.283 17.6 4.25 12.18
1/13/2023 12:00:00 PM 8.77 47.786 0.283 17.59 4.36 12.21
1/13/2023 12:15:00 PM 8.81 47.858 0.283 17.59 4.59 12.23
1/13/2023 12:30:00 PM 8.81 47.858 0.283 17.58 4.3 12.25
1/13/2023 12:45:00 PM 8.81 47.858 0.283 17.59 4.75 12.26
1/13/2023 1:00:00 PM 8.81 47.858 0.283 17.59 4.36 12.28
1/13/2023 1:15:00 PM 8.81 47.858 0.283 17.58 4.37 12.28
1/13/2023 1:30:00 PM 8.79 47.822 0.283 17.58 4.26 12.27
1/13/2023 1:45:00 PM 8.77 47.786 0.283 17.6 4.42 12.26
1/13/2023 2:00:00 PM 8.75 47.75 0.283 17.6 4.38 12.24
1/13/2023 2:15:00 PM 8.73 47.714 0.283 17.6 4.45 12.23
1/13/2023 2:30:00 PM 8.7 47.66 0.283 17.6 4.51 12.2
1/13/2023 2:45:00 PM 8.67 47.606 0.283 17.6 4.47 12.19
1/13/2023 3:00:00 PM 8.62 47.516 0.283 17.6 4.48 12.17
1/13/2023 3:15:00 PM 8.58 47.444 0.283 17.6 4.31 12.14
1/13/2023 3:30:00 PM 8.54 47.372 0.283 17.61 4.28 12.1
1/13/2023 3:45:00 PM 8.48 47.264 0.283 17.62 4.23 12.05
1/13/2023 4:00:00 PM 8.41 47.138 0.283 17.63 4.23 11.99
1/13/2023 4:15:00 PM 8.35 47.03 0.284 17.63 4.31 11.92
1/13/2023 4:30:00 PM 8.28 46.904 0.284 17.63 4.26 11.86
1/13/2023 4:45:00 PM 8.22 46.796 0.284 17.64 4.22 11.79
1/13/2023 5:00:00 PM 8.15 46.67 0.284 17.63 4.29 11.72
1/13/2023 5:15:00 PM 8.07 46.526 0.284 17.64 4.22 11.66
1/13/2023 5:30:00 PM 8.01 46.418 0.284 17.64 4.39 11.6
1/13/2023 5:45:00 PM 7.94 46.292 0.284 17.64 4.48 11.55
1/13/2023 6:00:00 PM 7.88 46.184 0.284 17.65 4.36 11.51
1/13/2023 6:15:00 PM 7.81 46.058 0.284 17.65 4.48 11.47
1/13/2023 6:30:00 PM 7.75 45.95 0.285 17.65 4.29 11.44
1/13/2023 6:45:00 PM 7.67 45.806 0.285 17.66 4.4 11.41
1/13/2023 7:00:00 PM 7.6 45.68 0.285 17.66 4.48 11.4
1/13/2023 7:15:00 PM 7.55 45.59 0.285 17.66 4.6 11.39
1/13/2023 7:30:00 PM 7.49 45.482 0.285 17.66 4.3 11.4
1/13/2023 7:45:00 PM 7.43 45.374 0.285 17.67 4.33 11.4
1/13/2023 8:00:00 PM 7.35 45.23 0.285 17.67 4.35 11.41
1/13/2023 8:15:00 PM 7.29 45.122 0.285 17.67 5.45 11.42
1/13/2023 8:30:00 PM 7.24 45.032 0.285 17.67 4.79 11.43
1/13/2023 8:45:00 PM 7.18 44.924 0.285 17.67 4.8 11.44
1/13/2023 9:00:00 PM 7.13 44.834 0.285 17.68 4.75 11.45
1/13/2023 9:15:00 PM 7.07 44.726 0.285 17.68 4.81 11.46
1/13/2023 9:30:00 PM 7 44.6 0.285 17.68 4.77 11.47
1/13/2023 9:45:00 PM 6.94 44.492 0.285 17.68 4.56 11.5
1/13/2023 10:00:00 PM 6.87 44.366 0.286 17.67 4.6 11.52
1/13/2023 10:15:00 PM 6.81 44.258 0.286 17.65 4.5 11.54
1/13/2023 10:30:00 PM 6.75 44.15 0.286 17.64 4.52 11.56
1/13/2023 10:45:00 PM 6.65 43.97 0.286 17.65 4.53 11.58
1/13/2023 11:00:00 PM 6.58 43.844 0.286 17.65 4.59 11.61
1/13/2023 11:15:00 PM 6.51 43.718 0.287 17.66 4.54 11.62
1/13/2023 11:30:00 PM 6.44 43.592 0.287 17.67 4.52 11.64
1/13/2023 11:45:00 PM 6.37 43.466 0.287 17.68 4.58 11.66
1/14/2023 12:00:00 AM 6.31 43.358 0.287 17.7 4.43 11.68
1/14/2023 12:15:00 AM 6.26 43.268 0.288 17.7 4.39 11.7
1/14/2023 12:30:00 AM 6.18 43.124 0.288 17.71 4.46 11.73
1/14/2023 12:45:00 AM 6.13 43.034 0.288 17.69 4.45 11.75
1/14/2023 1:00:00 AM 6.06 42.908 0.288 17.71 4.42 11.78
1/14/2023 1:15:00 AM 5.99 42.782 0.289 17.72 4.45 11.8
1/14/2023 1:30:00 AM 5.94 42.692 0.289 17.72 4.43 11.81
1/14/2023 1:45:00 AM 5.89 42.602 0.289 17.72 4.41 11.84
1/14/2023 2:00:00 AM 5.84 42.512 0.289 17.73 4.55 11.85
1/14/2023 2:15:00 AM 5.79 42.422 0.29 17.73 4.57 11.86
1/14/2023 2:30:00 AM 5.74 42.332 0.29 17.73 4.76 11.89
1/14/2023 2:45:00 AM 5.7 42.26 0.29 17.73 4.71 11.91
1/14/2023 3:00:00 AM 5.64 42.152 0.29 17.73 4.54 11.93
1/14/2023 3:15:00 AM 5.59 42.062 0.291 17.74 4.61 11.94
1/14/2023 3:30:00 AM 5.52 41.936 0.291 17.74 4.67 11.97
1/14/2023 3:45:00 AM 5.45 41.81 0.291 17.74 4.58 11.99
1/14/2023 4:00:00 AM 5.41 41.738 0.291 17.74 4.54 12.01
1/14/2023 4:15:00 AM 5.35 41.63 0.291 17.74 4.47 12.03
1/14/2023 4:30:00 AM 5.29 41.522 0.291 17.75 4.72 12.06
1/14/2023 4:45:00 AM 5.23 41.414 0.291 17.75 4.61 12.07
1/14/2023 5:00:00 AM 5.19 41.342 0.292 17.75 4.73 12.09
1/14/2023 5:15:00 AM 5.14 41.252 0.292 17.75 4.9 12.1
1/14/2023 5:30:00 AM 5.08 41.144 0.292 17.75 4.64 12.12
1/14/2023 5:45:00 AM 5.03 41.054 0.292 17.76 4.51 12.15
1/14/2023 6:00:00 AM 4.98 40.964 0.292 17.76 4.43 12.17
1/14/2023 6:15:00 AM 4.93 40.874 0.292 17.76 4.32 12.19
1/14/2023 6:30:00 AM 4.86 40.748 0.292 17.76 4.26 12.21
1/14/2023 6:45:00 AM 4.81 40.658 0.292 17.76 4.24 12.24
1/14/2023 7:00:00 AM 4.78 40.604 0.292 17.76 4.28 12.25
1/14/2023 7:15:00 AM 4.72 40.496 0.292 17.76 4.25 12.27
1/14/2023 7:30:00 AM 4.68 40.424 0.292 17.75 4.26 12.29
1/14/2023 7:45:00 AM 4.64 40.352 0.292 17.76 4.15 12.32
1/14/2023 8:00:00 AM 4.6 40.28 0.292 17.76 4.16 12.34
1/14/2023 8:15:00 AM 4.57 40.226 0.292 17.76 4.13 12.37
1/14/2023 8:30:00 AM 4.55 40.19 0.292 17.76 4.2 12.42
1/14/2023 8:45:00 AM 4.5 40.1 0.292 17.76 4.11 12.47
1/14/2023 9:00:00 AM 4.47 40.046 0.292 17.77 4.09 12.53
1/14/2023 9:15:00 AM 4.44 39.992 0.292 17.77 4.1 12.62
1/14/2023 9:30:00 AM 4.41 39.938 0.292 17.77 4.07 12.7
1/14/2023 9:45:00 AM 4.4 39.92 0.292 17.77 4.11 12.78
1/14/2023 10:00:00 AM 4.37 39.866 0.292 17.77 4.01 12.88
1/14/2023 10:15:00 AM 4.34 39.812 0.292 17.77 3.97 12.97
1/14/2023 10:30:00 AM 4.33 39.794 0.292 17.78 3.98 13.06
1/14/2023 10:45:00 AM 4.34 39.812 0.292 17.78 3.99 13.15
1/14/2023 11:00:00 AM 4.34 39.812 0.292 17.78 3.97 13.24
1/14/2023 11:15:00 AM 4.35 39.83 0.292 17.78 3.95 13.31
1/14/2023 11:30:00 AM 4.35 39.83 0.292 17.78 4.02 13.38
1/14/2023 11:45:00 AM 4.37 39.866 0.292 17.78 3.92 13.44
1/14/2023 12:00:00 PM 4.38 39.884 0.291 17.78 3.96 13.49
1/14/2023 12:15:00 PM 4.4 39.92 0.291 17.78 3.92 13.54
1/14/2023 12:30:00 PM 4.41 39.938 0.291 17.78 3.97 13.58
1/14/2023 12:45:00 PM 4.43 39.974 0.291 17.78 4.01 13.61
1/14/2023 1:00:00 PM 4.48 40.064 0.291 17.77 3.99 13.63
1/14/2023 1:15:00 PM 4.51 40.118 0.291 17.77 4.05 13.64
1/14/2023 1:30:00 PM 4.53 40.154 0.291 17.77 4.08 13.65
1/14/2023 1:45:00 PM 4.53 40.154 0.29 17.77 3.96 13.65
1/14/2023 2:00:00 PM 4.54 40.172 0.29 17.77 3.95 13.65
1/14/2023 2:15:00 PM 4.54 40.172 0.29 17.77 4.03 13.64
1/14/2023 2:30:00 PM 4.53 40.154 0.29 17.77 3.94 13.64
1/14/2023 2:45:00 PM 4.54 40.172 0.29 17.77 3.98 13.63
1/14/2023 3:00:00 PM 4.53 40.154 0.29 17.77 4.06 13.62
1/14/2023 3:15:00 PM 4.53 40.154 0.29 17.78 4.03 13.6
1/14/2023 3:30:00 PM 4.52 40.136 0.29 17.77 3.9 13.6
1/14/2023 3:45:00 PM 4.47 40.046 0.29 17.78 3.93 13.58
1/14/2023 4:00:00 PM 4.43 39.974 0.29 17.78 3.95 13.54
1/14/2023 4:15:00 PM 4.37 39.866 0.289 17.78 3.9 13.51
1/14/2023 4:30:00 PM 4.32 39.776 0.289 17.78 3.9 13.48
1/14/2023 4:45:00 PM 4.28 39.704 0.29 17.78 3.95 13.43
1/14/2023 5:00:00 PM 4.23 39.614 0.29 17.78 3.93 13.37
1/14/2023 5:15:00 PM 4.15 39.47 0.29 17.79 3.91 13.31
1/14/2023 5:30:00 PM 4.04 39.272 0.29 17.79 3.93 13.25
1/14/2023 5:45:00 PM 3.96 39.128 0.29 17.79 3.95 13.2
1/14/2023 6:00:00 PM 3.89 39.002 0.29 17.8 3.99 13.13
1/14/2023 6:15:00 PM 3.82 38.876 0.29 17.8 3.98 13.07
1/14/2023 6:30:00 PM 3.73 38.714 0.29 17.8 4.09 13.03
1/14/2023 6:45:00 PM 3.61 38.498 0.291 17.81 3.97 13.01
1/14/2023 7:00:00 PM 3.54 38.372 0.291 17.81 8.7 12.98
1/14/2023 7:15:00 PM 3.45 38.21 0.291 17.81 4.35 12.97
1/14/2023 7:30:00 PM 3.35 38.03 0.291 17.82 4.23 12.96
1/14/2023 7:45:00 PM 3.24 37.832 0.291 17.82 4.9 12.96
1/14/2023 8:00:00 PM 3.16 37.688 0.291 17.83 4.41 12.96
1/14/2023 8:15:00 PM 3.09 37.562 0.291 17.83 4.34 12.97
1/14/2023 8:30:00 PM 3.03 37.454 0.291 17.83 4.17 12.99
1/14/2023 8:45:00 PM 2.95 37.31 0.291 17.84 4.27 13
1/14/2023 9:00:00 PM 2.88 37.184 0.291 17.84 4.34 13.03
1/14/2023 9:15:00 PM 2.79 37.022 0.291 17.84 4.23 13.05
1/14/2023 9:30:00 PM 2.74 36.932 0.291 17.85 4.22 13.07
1/14/2023 9:45:00 PM 2.7 36.86 0.291 17.85 4.18 13.09
1/14/2023 10:00:00 PM 2.65 36.77 0.291 17.85 4.2 13.1
1/14/2023 10:15:00 PM 2.63 36.734 0.291 17.85 4.16 13.11
1/14/2023 10:30:00 PM 2.6 36.68 0.291 17.85 4.24 13.13
1/14/2023 10:45:00 PM 2.56 36.608 0.291 17.85 4.38 13.14
1/14/2023 11:00:00 PM 2.52 36.536 0.291 17.85 4.19 13.15
1/14/2023 11:15:00 PM 2.48 36.464 0.291 17.86 4.25 13.17
1/14/2023 11:30:00 PM 2.47 36.446 0.291 17.86 4.08 13.18
1/14/2023 11:45:00 PM 2.44 36.392 0.291 17.86 4.29 13.19
1/15/2023 12:00:00 AM 2.4 36.32 0.291 17.86 4.24 13.2
1/15/2023 12:15:00 AM 2.36 36.248 0.291 17.86 4.15 13.22
1/15/2023 12:30:00 AM 2.32 36.176 0.291 17.86 4.1 13.24
1/15/2023 12:45:00 AM 2.27 36.086 0.291 17.86 4.15 13.25
1/15/2023 1:00:00 AM 2.22 35.996 0.291 17.87 4.11 13.27
1/15/2023 1:15:00 AM 2.17 35.906 0.291 17.87 4.14 13.29
1/15/2023 1:30:00 AM 2.12 35.816 0.291 17.87 4.16 13.31
1/15/2023 1:45:00 AM 2.08 35.744 0.291 17.87 4.24 13.33
1/15/2023 2:00:00 AM 2.03 35.654 0.291 17.87 4.4 13.35
1/15/2023 2:15:00 AM 1.98 35.564 0.291 17.88 4.27 13.37
1/15/2023 2:30:00 AM 1.92 35.456 0.292 17.88 4.17 13.39
1/15/2023 2:45:00 AM 1.86 35.348 0.292 17.88 4.17 13.41
1/15/2023 3:00:00 AM 1.82 35.276 0.292 17.88 4.12 13.43
1/15/2023 3:15:00 AM 1.79 35.222 0.292 17.88 4.08 13.45
1/15/2023 3:30:00 AM 1.74 35.132 0.292 17.89 3.94 13.47
1/15/2023 3:45:00 AM 1.69 35.042 0.292 17.89 4.09 13.49
1/15/2023 4:00:00 AM 1.62 34.916 0.292 17.89 4.1 13.52
1/15/2023 4:15:00 AM 1.57 34.826 0.292 17.89 4.2 13.54
1/15/2023 4:30:00 AM 1.52 34.736 0.292 17.89 4.15 13.57
1/15/2023 4:45:00 AM 1.48 34.664 0.292 17.9 4.22 13.58
1/15/2023 5:00:00 AM 1.44 34.592 0.293 17.9 4.36 13.6
1/15/2023 5:15:00 AM 1.39 34.502 0.293 17.9 4.15 13.62
1/15/2023 5:30:00 AM 1.35 34.43 0.293 17.9 4.2 13.65
1/15/2023 5:45:00 AM 1.3 34.34 0.293 17.9 5.29 13.66
1/15/2023 6:00:00 AM 1.27 34.286 0.293 17.9 4.03 13.68
1/15/2023 6:15:00 AM 1.24 34.232 0.293 17.91 4.2 13.69
1/15/2023 6:30:00 AM 1.24 34.232 0.293 17.91 3.99 13.71
1/15/2023 6:45:00 AM 1.22 34.196 0.293 17.91 3.99 13.71
1/15/2023 7:00:00 AM 1.21 34.178 0.293 17.91 4.03 13.72
1/15/2023 7:15:00 AM 1.21 34.178 0.293 17.91 4.01 13.73
1/15/2023 7:30:00 AM 1.22 34.196 0.293 17.91 3.99 13.74
1/15/2023 7:45:00 AM 1.21 34.178 0.293 17.91 4.02 13.76
1/15/2023 8:00:00 AM 1.2 34.16 0.293 17.91 4.01 13.8
1/15/2023 8:15:00 AM 1.2 34.16 0.293 17.91 3.97 13.84
1/15/2023 8:30:00 AM 1.21 34.178 0.293 17.91 3.95 13.88
1/15/2023 8:45:00 AM 1.22 34.196 0.293 17.91 3.89 13.94
1/15/2023 9:00:00 AM 1.23 34.214 0.293 17.91 4.01 14
1/15/2023 9:15:00 AM 1.27 34.286 0.293 17.9 3.93 14.06
1/15/2023 9:30:00 AM 1.32 34.376 0.293 17.9 3.91 14.13
1/15/2023 9:45:00 AM 1.38 34.484 0.293 17.9 3.97 14.21
1/15/2023 10:00:00 AM 1.45 34.61 0.292 17.9 3.94 14.28
1/15/2023 10:15:00 AM 1.57 34.826 0.292 17.89 3.98 14.34
1/15/2023 10:30:00 AM 1.74 35.132 0.292 17.89 3.99 14.38
1/15/2023 10:45:00 AM 1.89 35.402 0.292 17.88 3.92 14.4
1/15/2023 11:00:00 AM 2.02 35.636 0.291 17.87 4.01 14.42
1/15/2023 11:15:00 AM 2.15 35.87 0.291 17.87 4 14.43
1/15/2023 11:30:00 AM 2.3 36.14 0.291 17.86 3.87 14.42
1/15/2023 11:45:00 AM 2.39 36.302 0.291 17.86 3.89 14.41
1/15/2023 12:00:00 PM 2.57 36.626 0.291 17.85 3.88 14.38
1/15/2023 12:15:00 PM 2.79 37.022 0.29 17.84 3.92 14.36
1/15/2023 12:30:00 PM 2.98 37.364 0.29 17.84 3.89 14.32
1/15/2023 12:45:00 PM 3.18 37.724 0.29 17.83 3.98 14.27
1/15/2023 1:00:00 PM 3.35 38.03 0.29 17.82 4.04 14.23
1/15/2023 1:15:00 PM 3.51 38.318 0.29 17.82 4.01 14.19
1/15/2023 1:30:00 PM 3.67 38.606 0.289 17.81 4.07 14.13
1/15/2023 1:45:00 PM 3.82 38.876 0.289 17.8 4 14.08
1/15/2023 2:00:00 PM 3.95 39.11 0.289 17.8 4.06 14.04
1/15/2023 2:15:00 PM 4.06 39.308 0.289 17.79 4.07 13.99
1/15/2023 2:30:00 PM 4.16 39.488 0.289 17.79 4.09 13.93
1/15/2023 2:45:00 PM 4.23 39.614 0.289 17.79 4.13 13.87
1/15/2023 3:00:00 PM 4.29 39.722 0.288 17.79 4.09 13.81
1/15/2023 3:15:00 PM 4.35 39.83 0.288 17.78 3.94 13.74
1/15/2023 3:30:00 PM 4.39 39.902 0.288 17.78 3.92 13.68
1/15/2023 3:45:00 PM 4.42 39.956 0.288 17.78 3.97 13.63
1/15/2023 4:00:00 PM 4.43 39.974 0.288 17.78 3.93 13.58
1/15/2023 4:15:00 PM 4.42 39.956 0.288 17.78 3.95 13.53
1/15/2023 4:30:00 PM 4.4 39.92 0.288 17.78 3.94 13.48
1/15/2023 4:45:00 PM 4.35 39.83 0.288 17.78 3.96 13.45
1/15/2023 5:00:00 PM 4.28 39.704 0.288 17.79 3.94 13.4
1/15/2023 5:15:00 PM 4.18 39.524 0.288 17.79 4.06 13.36
1/15/2023 5:30:00 PM 4.07 39.326 0.289 17.79 3.97 13.32
1/15/2023 5:45:00 PM 3.94 39.092 0.289 17.8 3.91 13.28
1/15/2023 6:00:00 PM 3.81 38.858 0.289 17.8 4 13.23
1/15/2023 6:15:00 PM 3.67 38.606 0.289 17.81 3.93 13.21
1/15/2023 6:30:00 PM 3.53 38.354 0.289 17.82 3.86 13.19
1/15/2023 6:45:00 PM 3.38 38.084 0.289 17.82 3.83 13.19
1/15/2023 7:00:00 PM 3.23 37.814 0.29 17.83 6 13.18
1/15/2023 7:15:00 PM 3.1 37.58 0.29 17.83 5.74 13.18
1/15/2023 7:30:00 PM 2.97 37.346 0.29 17.84 4.3 13.2
1/15/2023 7:45:00 PM 2.85 37.13 0.29 17.84 4.24 13.22
1/15/2023 8:00:00 PM 2.74 36.932 0.29 17.85 4.16 13.24
1/15/2023 8:15:00 PM 2.64 36.752 0.29 17.85 4.06 13.25
1/15/2023 8:30:00 PM 2.55 36.59 0.29 17.85 4.07 13.26
1/15/2023 8:45:00 PM 2.48 36.464 0.29 17.86 4.19 13.28
1/15/2023 9:00:00 PM 2.4 36.32 0.29 17.86 4.08 13.3
1/15/2023 9:15:00 PM 2.34 36.212 0.29 17.86 5.35 13.31
1/15/2023 9:30:00 PM 2.26 36.068 0.29 17.86 4.75 13.33
1/15/2023 9:45:00 PM 2.21 35.978 0.291 17.87 4.24 13.36
1/15/2023 10:00:00 PM 2.15 35.87 0.291 17.87 4.18 13.37
1/15/2023 10:15:00 PM 2.12 35.816 0.291 17.87 4.27 13.38
1/15/2023 10:30:00 PM 2.08 35.744 0.291 17.87 4.2 13.4
1/15/2023 10:45:00 PM 2.04 35.672 0.291 17.87 4.2 13.41
1/15/2023 11:00:00 PM 2.02 35.636 0.291 17.87 4.27 13.41
1/15/2023 11:15:00 PM 1.99 35.582 0.291 17.88 4.23 13.42
1/15/2023 11:30:00 PM 1.96 35.528 0.291 17.88 4.08 13.43
1/15/2023 11:45:00 PM 1.92 35.456 0.291 17.88 4.12 13.44
1/16/2023 12:00:00 AM 1.88 35.384 0.291 17.88 4.08 13.46
1/16/2023 12:15:00 AM 1.83 35.294 0.291 17.88 4.11 13.48
1/16/2023 12:30:00 AM 1.8 35.24 0.291 17.88 3.96 13.49
1/16/2023 12:45:00 AM 1.77 35.186 0.291 17.88 3.95 13.5
1/16/2023 1:00:00 AM 1.75 35.15 0.291 17.89 4.08 13.51
1/16/2023 1:15:00 AM 1.73 35.114 0.291 17.89 4.04 13.52
1/16/2023 1:30:00 AM 1.71 35.078 0.291 17.89 4.09 13.53
1/16/2023 1:45:00 AM 1.69 35.042 0.291 17.89 4.08 13.54
1/16/2023 2:00:00 AM 1.67 35.006 0.291 17.89 4.62 13.55
1/16/2023 2:15:00 AM 1.64 34.952 0.291 17.89 4.1 13.56
1/16/2023 2:30:00 AM 1.62 34.916 0.291 17.89 4.23 13.57
1/16/2023 2:45:00 AM 1.59 34.862 0.291 17.89 4.12 13.59
1/16/2023 3:00:00 AM 1.56 34.808 0.291 17.89 5.12 13.6
1/16/2023 3:15:00 AM 1.54 34.772 0.291 17.89 4.22 13.6
1/16/2023 3:30:00 AM 1.5 34.7 0.291 17.9 4.16 13.62
1/16/2023 3:45:00 AM 1.47 34.646 0.292 17.9 4.31 13.63
1/16/2023 4:00:00 AM 1.44 34.592 0.292 17.9 4.32 13.64
1/16/2023 4:15:00 AM 1.4 34.52 0.292 17.9 4.28 13.65
1/16/2023 4:30:00 AM 1.36 34.448 0.292 17.9 4.14 13.67
1/16/2023 4:45:00 AM 1.33 34.394 0.292 17.9 4.1 13.68
1/16/2023 5:00:00 AM 1.29 34.322 0.292 17.9 4.24 13.69
1/16/2023 5:15:00 AM 1.25 34.25 0.292 17.91 4.26 13.7
1/16/2023 5:30:00 AM 1.21 34.178 0.292 17.91 4.06 13.72
1/16/2023 5:45:00 AM 1.19 34.142 0.292 17.91 4.09 13.74
1/16/2023 6:00:00 AM 1.16 34.088 0.292 17.91 4.05 13.75
1/16/2023 6:15:00 AM 1.14 34.052 0.292 17.91 4 13.76
1/16/2023 6:30:00 AM 1.12 34.016 0.292 17.91 4.05 13.77
1/16/2023 6:45:00 AM 1.1 33.98 0.293 17.91 3.98 13.78
1/16/2023 7:00:00 AM 1.07 33.926 0.293 17.91 3.98 13.79
1/16/2023 7:15:00 AM 1.06 33.908 0.293 17.91 4 13.8
1/16/2023 7:30:00 AM 1.04 33.872 0.293 17.91 4 13.81
1/16/2023 7:45:00 AM 1.04 33.872 0.293 17.91 3.99 13.84
1/16/2023 8:00:00 AM 1.04 33.872 0.293 17.91 4 13.87
1/16/2023 8:15:00 AM 1.04 33.872 0.293 17.91 3.91 13.91
1/16/2023 8:30:00 AM 1.03 33.854 0.293 17.91 3.98 13.96
1/16/2023 8:45:00 AM 1.02 33.836 0.293 17.91 3.98 14.01
1/16/2023 9:00:00 AM 1.01 33.818 0.293 17.91 3.91 14.07
1/16/2023 9:15:00 AM 1.02 33.836 0.293 17.91 3.99 14.14
1/16/2023 9:30:00 AM 1.07 33.926 0.292 17.91 3.88 14.21
1/16/2023 9:45:00 AM 1.14 34.052 0.292 17.91 4.02 14.27
1/16/2023 10:00:00 AM 1.22 34.196 0.292 17.91 4.04 14.33
1/16/2023 10:15:00 AM 1.36 34.448 0.292 17.9 3.96 14.38
1/16/2023 10:30:00 AM 1.51 34.718 0.292 17.89 3.99 14.43
1/16/2023 10:45:00 AM 1.68 35.024 0.291 17.89 3.94 14.45
1/16/2023 11:00:00 AM 1.83 35.294 0.291 17.88 3.92 14.46
1/16/2023 11:15:00 AM 2 35.6 0.291 17.88 3.94 14.45
1/16/2023 11:30:00 AM 2.17 35.906 0.291 17.87 3.9 14.44
1/16/2023 11:45:00 AM 2.35 36.23 0.29 17.86 3.95 14.4
1/16/2023 12:00:00 PM 2.54 36.572 0.29 17.85 3.97 14.37
1/16/2023 12:15:00 PM 2.74 36.932 0.29 17.85 3.88 14.35
1/16/2023 12:30:00 PM 2.96 37.328 0.29 17.84 3.94 14.3
1/16/2023 12:45:00 PM 3.18 37.724 0.289 17.83 3.9 14.25
1/16/2023 1:00:00 PM 3.37 38.066 0.289 17.82 4.82 14.22
1/16/2023 1:15:00 PM 3.57 38.426 0.289 17.81 3.9 14.16
1/16/2023 1:30:00 PM 3.74 38.732 0.289 17.81 3.95 14.09
1/16/2023 1:45:00 PM 3.91 39.038 0.289 17.8 4.03 14.04
1/16/2023 2:00:00 PM 4.07 39.326 0.288 17.79 4.08 13.99
1/16/2023 2:15:00 PM 4.21 39.578 0.288 17.79 3.96 13.93
1/16/2023 2:30:00 PM 4.34 39.812 0.288 17.78 3.89 13.86
1/16/2023 2:45:00 PM 4.44 39.992 0.288 17.78 3.92 13.79
1/16/2023 3:00:00 PM 4.52 40.136 0.288 17.78 3.98 13.72
1/16/2023 3:15:00 PM 4.59 40.262 0.288 17.77 3.93 13.67
1/16/2023 3:30:00 PM 4.66 40.388 0.288 17.77 3.94 13.6
1/16/2023 3:45:00 PM 4.71 40.478 0.288 17.77 3.85 13.54
1/16/2023 4:00:00 PM 4.74 40.532 0.288 17.77 4.01 13.48
1/16/2023 4:15:00 PM 4.75 40.55 0.288 17.77 3.95 13.42
1/16/2023 4:30:00 PM 4.74 40.532 0.288 17.77 4 13.36
1/16/2023 4:45:00 PM 4.71 40.478 0.288 17.77 3.97 13.3
1/16/2023 5:00:00 PM 4.65 40.37 0.288 17.77 3.87 13.25
1/16/2023 5:15:00 PM 4.58 40.244 0.288 17.77 3.94 13.18
1/16/2023 5:30:00 PM 4.5 40.1 0.288 17.78 4.01 13.12
1/16/2023 5:45:00 PM 4.39 39.902 0.288 17.78 3.91 13.07
1/16/2023 6:00:00 PM 4.27 39.686 0.288 17.79 3.93 13.03
1/16/2023 6:15:00 PM 4.15 39.47 0.288 17.79 4.11 12.99
1/16/2023 6:30:00 PM 4.02 39.236 0.289 17.8 3.93 12.97
1/16/2023 6:45:00 PM 3.89 39.002 0.289 17.8 3.95 12.95
1/16/2023 7:00:00 PM 3.77 38.786 0.289 17.81 4.14 12.93
1/16/2023 7:15:00 PM 3.64 38.552 0.289 17.81 4.06 12.93
1/16/2023 7:30:00 PM 3.53 38.354 0.289 17.82 4.12 12.94
1/16/2023 7:45:00 PM 3.42 38.156 0.289 17.82 4.01 12.95
1/16/2023 8:00:00 PM 3.32 37.976 0.289 17.82 3.94 12.96
1/16/2023 8:15:00 PM 3.23 37.814 0.29 17.83 4.07 12.97
1/16/2023 8:30:00 PM 3.15 37.67 0.29 17.83 4.06 12.98
1/16/2023 8:45:00 PM 3.08 37.544 0.29 17.83 4.64 13
1/16/2023 9:00:00 PM 3.02 37.436 0.29 17.84 3.96 13.01
1/16/2023 9:15:00 PM 2.97 37.346 0.29 17.84 3.94 13.03
1/16/2023 9:30:00 PM 2.92 37.256 0.29 17.84 3.95 13.04
1/16/2023 9:45:00 PM 2.88 37.184 0.29 17.84 3.99 13.05
1/16/2023 10:00:00 PM 2.85 37.13 0.29 17.84 6.23 13.06
1/16/2023 10:15:00 PM 2.83 37.094 0.29 17.84 4.19 13.07
1/16/2023 10:30:00 PM 2.8 37.04 0.29 17.84 4.14 13.07
1/16/2023 10:45:00 PM 2.77 36.986 0.29 17.84 4.08 13.08
1/16/2023 11:00:00 PM 2.75 36.95 0.29 17.85 4.06 13.09
1/16/2023 11:15:00 PM 2.73 36.914 0.29 17.85 4 13.09
1/16/2023 11:30:00 PM 2.71 36.878 0.29 17.85 3.99 13.1
1/16/2023 11:45:00 PM 2.68 36.824 0.29 17.85 3.94 13.11
1/17/2023 12:00:00 AM 2.65 36.77 0.29 17.85 4.02 13.11
1/17/2023 12:15:00 AM 2.62 36.716 0.29 17.85 4 13.12
1/17/2023 12:30:00 AM 2.6 36.68 0.29 17.85 3.98 13.12
1/17/2023 12:45:00 AM 2.57 36.626 0.29 17.85 3.89 13.12
1/17/2023 1:00:00 AM 2.54 36.572 0.29 17.85 3.9 13.13
1/17/2023 1:15:00 AM 2.51 36.518 0.29 17.86 4.8 13.14
1/17/2023 1:30:00 AM 2.48 36.464 0.29 17.86 4.2 13.15
1/17/2023 1:45:00 AM 2.46 36.428 0.29 17.86 4.18 13.16
1/17/2023 2:00:00 AM 2.44 36.392 0.29 17.86 3.95 13.16
1/17/2023 2:15:00 AM 2.44 36.392 0.29 17.86 4.06 13.17
1/17/2023 2:30:00 AM 2.44 36.392 0.291 17.86 4.16 13.17
1/17/2023 2:45:00 AM 2.44 36.392 0.291 17.86 4.09 13.18
1/17/2023 3:00:00 AM 2.45 36.41 0.291 17.86 4.19 13.18
1/17/2023 3:15:00 AM 2.45 36.41 0.291 17.86 4.05 13.18
1/17/2023 3:30:00 AM 2.45 36.41 0.291 17.86 4.31 13.18
1/17/2023 3:45:00 AM 2.47 36.446 0.291 17.86 4.22 13.18
1/17/2023 4:00:00 AM 2.49 36.482 0.291 17.86 9.31 13.17
1/17/2023 4:15:00 AM 2.5 36.5 0.291 17.86 4.15 13.17
1/17/2023 4:30:00 AM 2.52 36.536 0.291 17.85 4.37 13.16
1/17/2023 4:45:00 AM 2.53 36.554 0.291 17.85 4.11 13.16
1/17/2023 5:00:00 AM 2.54 36.572 0.291 17.85 4.03 13.15
1/17/2023 5:15:00 AM 2.55 36.59 0.291 17.85 4.04 13.14
1/17/2023 5:30:00 AM 2.55 36.59 0.291 17.85 4.08 13.14
1/17/2023 5:45:00 AM 2.55 36.59 0.291 17.85 4.08 13.14
1/17/2023 6:00:00 AM 2.55 36.59 0.291 17.85 4.3 13.13
1/17/2023 6:15:00 AM 2.55 36.59 0.291 17.85 4.11 13.14
1/17/2023 6:30:00 AM 2.56 36.608 0.291 17.85 4.07 13.13
1/17/2023 6:45:00 AM 2.57 36.626 0.291 17.85 4.11 13.13
1/17/2023 7:00:00 AM 2.59 36.662 0.291 17.85 4.03 13.13
1/17/2023 7:15:00 AM 2.6 36.68 0.291 17.85 4.04 13.13
1/17/2023 7:30:00 AM 2.62 36.716 0.291 17.85 4.08 13.13
1/17/2023 7:45:00 AM 2.64 36.752 0.291 17.85 4.03 13.13
1/17/2023 8:00:00 AM 2.66 36.788 0.291 17.85 3.95 13.15
1/17/2023 8:15:00 AM 2.69 36.842 0.291 17.85 3.96 13.16
1/17/2023 8:30:00 AM 2.72 36.896 0.291 17.85 3.97 13.2
1/17/2023 8:45:00 AM 2.77 36.986 0.291 17.85 4.03 13.25
1/17/2023 9:00:00 AM 2.81 37.058 0.291 17.84 4 13.31
1/17/2023 9:15:00 AM 2.86 37.148 0.291 17.84 3.96 13.36
1/17/2023 9:30:00 AM 2.91 37.238 0.29 17.84 3.88 13.4
1/17/2023 9:45:00 AM 2.97 37.346 0.29 17.84 3.86 13.46
1/17/2023 10:00:00 AM 3.03 37.454 0.29 17.83 3.91 13.52
1/17/2023 10:15:00 AM 3.09 37.562 0.29 17.83 4.04 13.56
1/17/2023 10:30:00 AM 3.15 37.67 0.29 17.83 3.86 13.59
1/17/2023 10:45:00 AM 3.21 37.778 0.29 17.83 3.92 13.63
1/17/2023 11:00:00 AM 3.28 37.904 0.29 17.83 3.88 13.67
1/17/2023 11:15:00 AM 3.35 38.03 0.289 17.82 3.9 13.7
1/17/2023 11:30:00 AM 3.41 38.138 0.289 17.82 3.89 13.7
1/17/2023 11:45:00 AM 3.49 38.282 0.289 17.82 4 13.71
1/17/2023 12:00:00 PM 3.56 38.408 0.289 17.81 3.87 13.7
1/17/2023 12:15:00 PM 3.65 38.57 0.289 17.81 3.89 13.72
1/17/2023 12:30:00 PM 3.71 38.678 0.289 17.81 3.9 13.71
1/17/2023 12:45:00 PM 3.78 38.804 0.289 17.81 3.85 13.69
1/17/2023 1:00:00 PM 3.86 38.948 0.289 17.8 3.87 13.69
1/17/2023 1:15:00 PM 3.93 39.074 0.289 17.8 4.01 13.69
1/17/2023 1:30:00 PM 4.04 39.272 0.289 17.8 4 13.71
1/17/2023 1:45:00 PM 4.17 39.506 0.288 17.79 3.99 13.71
1/17/2023 2:00:00 PM 4.25 39.65 0.288 17.79 3.96 13.69
1/17/2023 2:15:00 PM 4.37 39.866 0.288 17.78 3.97 13.69
1/17/2023 2:30:00 PM 4.52 40.136 0.288 17.78 3.99 13.68
1/17/2023 2:45:00 PM 4.62 40.316 0.288 17.77 4.07 13.67
1/17/2023 3:00:00 PM 4.69 40.442 0.288 17.77 3.93 13.63
1/17/2023 3:15:00 PM 4.77 40.586 0.287 17.77 4.07 13.58
1/17/2023 3:30:00 PM 4.86 40.748 0.287 17.76 3.95 13.54
1/17/2023 3:45:00 PM 4.94 40.892 0.287 17.76 4.08 13.48
1/17/2023 4:00:00 PM 5.01 41.018 0.287 17.76 3.99 13.41
1/17/2023 4:15:00 PM 5.06 41.108 0.287 17.76 4.03 13.33
1/17/2023 4:30:00 PM 5.07 41.126 0.287 17.76 4 13.26
1/17/2023 4:45:00 PM 5.1 41.18 0.287 17.75 4 13.17
1/17/2023 5:00:00 PM 5.08 41.144 0.287 17.76 4.1 13.08
1/17/2023 5:15:00 PM 5.05 41.09 0.287 17.76 4.34 12.98
1/17/2023 5:30:00 PM 5.02 41.036 0.287 17.76 4.16 12.89
1/17/2023 5:45:00 PM 4.99 40.982 0.288 17.76 4.1 12.81
1/17/2023 6:00:00 PM 4.95 40.91 0.288 17.76 4.15 12.73
1/17/2023 6:15:00 PM 4.91 40.838 0.288 17.76 4.11 12.66
1/17/2023 6:30:00 PM 4.86 40.748 0.288 17.76 4.19 12.6
1/17/2023 6:45:00 PM 4.81 40.658 0.288 17.77 4.22 12.55
1/17/2023 7:00:00 PM 4.77 40.586 0.288 17.77 4.13 12.5
1/17/2023 7:15:00 PM 4.7 40.46 0.288 17.77 4.19 12.48
1/17/2023 7:30:00 PM 4.65 40.37 0.288 17.77 4.07 12.46
1/17/2023 7:45:00 PM 4.59 40.262 0.288 17.77 4.14 12.44
1/17/2023 8:00:00 PM 4.52 40.136 0.288 17.78 4.35 12.43
1/17/2023 8:15:00 PM 4.47 40.046 0.288 17.78 4.24 12.42
1/17/2023 8:30:00 PM 4.41 39.938 0.288 17.78 4.16 12.42
1/17/2023 8:45:00 PM 4.36 39.848 0.288 17.78 4.29 12.44
1/17/2023 9:00:00 PM 4.31 39.758 0.288 17.79 4.45 12.44
1/17/2023 9:15:00 PM 4.25 39.65 0.288 17.79 4.18 12.45
1/17/2023 9:30:00 PM 4.22 39.596 0.288 17.79 4.16 12.46
1/17/2023 9:45:00 PM 4.2 39.56 0.288 17.79 4.28 12.47
1/17/2023 10:00:00 PM 4.18 39.524 0.288 17.79 4.18 12.48
1/17/2023 10:15:00 PM 4.16 39.488 0.288 17.79 4.14 12.49
1/17/2023 10:30:00 PM 4.15 39.47 0.288 17.79 4.63 12.49
1/17/2023 10:45:00 PM 4.13 39.434 0.288 17.79 4.37 12.5
1/17/2023 11:00:00 PM 4.12 39.416 0.288 17.79 4.32 12.5
1/17/2023 11:15:00 PM 4.12 39.416 0.288 17.79 4.23 12.5
1/17/2023 11:30:00 PM 4.12 39.416 0.288 17.79 4.2 12.5
1/17/2023 11:45:00 PM 4.12 39.416 0.288 17.79 4.32 12.51
1/18/2023 12:00:00 AM 4.13 39.434 0.288 17.79 4.24 12.5
1/18/2023 12:15:00 AM 4.14 39.452 0.288 17.79 4.11 12.5
1/18/2023 12:30:00 AM 4.14 39.452 0.288 17.79 4.18 12.5
1/18/2023 12:45:00 AM 4.15 39.47 0.288 17.79 4.15 12.5
1/18/2023 1:00:00 AM 4.15 39.47 0.288 17.79 4.16 12.5
1/18/2023 1:15:00 AM 4.16 39.488 0.288 17.79 4.13 12.5
1/18/2023 1:30:00 AM 4.16 39.488 0.288 17.79 4.05 12.49
1/18/2023 1:45:00 AM 4.16 39.488 0.288 17.79 4.17 12.5
1/18/2023 2:00:00 AM 4.15 39.47 0.288 17.79 4.1 12.5
1/18/2023 2:15:00 AM 4.15 39.47 0.288 17.79 4.26 12.5
1/18/2023 2:30:00 AM 4.15 39.47 0.288 17.79 4.19 12.5
1/18/2023 2:45:00 AM 4.16 39.488